ButlerWeather Station
Hourly Leaf Wetness Data

Source: University of Missouri

To the bottom of the page

Year Month Day Hour Leaf Wetness Total
Precipitation
Avg. Temp Avg. Rel.
Humidity
Wind
Speed
CST mV in mm F C % mph
2016 04 02 1:00 275.4 0.0 0.00 33.7 1.0 80.8 n/a
2016 04 02 2:00 280.9 0.0 0.00 32.9 0.5 82.7 n/a
2016 04 02 3:00 283.7 0.0 0.00 31.9 -0.0 85.4 n/a
2016 04 02 4:00 279.8 0.0 0.00 30.8 -0.7 84.8 n/a
2016 04 02 5:00 277.8 0.0 0.00 29.8 -1.2 85.2 n/a
2016 04 02 6:00 278.4 0.0 0.00 29.3 -1.5 84.3 n/a
2016 04 02 7:00 279.1 0.0 0.00 30.3 -0.9 82.1 n/a
2016 04 02 8:00 271.9 0.0 0.00 36.4 2.4 69.59 n/a
2016 04 02 9:00 270.7 0.0 0.00 44.6 7.0 47.73 n/a
2016 04 02 10:00 269.7 0.0 0.00 51.1 10.6 37.32 n/a
2016 04 02 11:00 269.2 0.0 0.00 55.7 13.2 36.27 n/a
2016 04 02 12:00 268.9 0.0 0.00 59.5 15.3 33.36 n/a
2016 04 02 13:00 268.8 0.0 0.00 62.1 16.7 29.51 n/a
2016 04 02 14:00 268.5 0.0 0.00 63.2 17.3 25.57 n/a
2016 04 02 15:00 268.5 0.0 0.00 63.3 17.4 27.09 n/a
2016 04 02 16:00 268.7 0.0 0.00 64.0 17.8 26.41 n/a
2016 04 02 17:00 268.7 0.0 0.00 63.6 17.6 26.5 n/a
2016 04 02 18:00 268.8 0.0 0.00 62.3 16.8 27.18 n/a
2016 04 02 19:00 269.2 0.0 0.00 58.9 14.9 31.7 n/a
2016 04 02 20:00 269.9 0.0 0.00 55.8 13.2 34.54 n/a
2016 04 02 21:00 270.3 0.0 0.00 53.1 11.7 37.7 n/a
2016 04 02 22:00 270.4 0.0 0.00 52.6 11.4 38.08 n/a
2016 04 02 23:00 271.6 0.0 0.00 45.8 7.7 55.51 n/a
2016 04 02 24:00 272.3 0.0 0.00 43.3 6.3 60.03 n/a
2016 04 03 1:00 272.2 0.0 0.00 45.1 7.3 54.01 n/a
2016 04 03 2:00 272.3 0.0 0.00 44.9 7.2 53.21 n/a
2016 04 03 3:00 272.5 0.0 0.00 44.3 6.9 54.22 n/a
2016 04 03 4:00 272.5 0.0 0.00 42.7 5.9 59.43 n/a
2016 04 03 5:00 272.5 0.0 0.00 43.0 6.1 60.45 n/a
2016 04 03 6:00 272.5 0.0 0.00 42.4 5.8 62.96 n/a
2016 04 03 7:00 272.0 0.0 0.00 43.8 6.6 60.19 n/a
2016 04 03 8:00 270.9 0.0 0.00 47.9 8.9 56.84 n/a
2016 04 03 9:00 270.0 0.0 0.00 55.9 13.3 44.82 n/a
2016 04 03 10:00 269.1 0.0 0.00 63.5 17.5 34.29 n/a
2016 04 03 11:00 268.3 0.0 0.00 68.3 20.1 28.65 n/a
2016 04 03 12:00 268.0 0.0 0.00 71.4 21.9 24.65 n/a
2016 04 03 13:00 267.8 0.0 0.00 73.2 22.9 23.88 n/a
2016 04 03 14:00 267.9 0.0 0.00 74.1 23.4 23.65 n/a
2016 04 03 15:00 268.0 0.0 0.00 74.9 23.9 23.46 n/a
2016 04 03 16:00 268.0 0.0 0.00 74.9 23.8 23.28 n/a
2016 04 03 17:00 267.5 0.0 0.00 74.6 23.6 23.28 n/a
2016 04 03 18:00 267.5 0.0 0.00 73.0 22.8 24.38 n/a
2016 04 03 19:00 268.3 0.0 0.00 69.6 20.9 27.82 n/a
2016 04 03 20:00 268.9 0.0 0.00 65.7 18.7 33.03 n/a
2016 04 03 21:00 269.4 0.0 0.00 62.7 17.0 38.35 n/a
2016 04 03 22:00 269.6 0.0 0.00 62.7 17.1 38.88 n/a
2016 04 03 23:00 269.6 0.0 0.00 61.5 16.4 40.29 n/a
2016 04 03 24:00 269.6 0.0 0.00 60.0 15.5 42.19 n/a
2016 04 04 1:00 269.6 0.0 0.00 59.5 15.3 41.86 n/a
2016 04 04 2:00 269.9 0.0 0.00 58.8 14.9 42.48 n/a
2016 04 04 3:00 270.3 0.0 0.00 55.4 13.0 48.13 n/a
2016 04 04 4:00 270.7 0.0 0.00 54.0 12.3 50.06 n/a
2016 04 04 5:00 271.0 0.0 0.00 53.7 12.0 51 n/a
2016 04 04 6:00 271.7 0.0 0.00 50.2 10.1 59.32 n/a
2016 04 04 7:00 271.1 0.0 0.00 50.6 10.3 58.22 n/a
2016 04 04 8:00 269.8 0.0 0.00 56.3 13.5 47.67 n/a
2016 04 04 9:00 269.1 0.0 0.00 60.3 15.7 40.25 n/a
2016 04 04 10:00 268.9 0.0 0.00 63.0 17.2 37.57 n/a
2016 04 04 11:00 268.9 0.0 0.00 65.1 18.4 32.39 n/a
2016 04 04 12:00 268.7 0.0 0.00 67.3 19.6 28.13 n/a
2016 04 04 13:00 268.4 0.0 0.00 68.4 20.2 26.94 n/a
2016 04 04 14:00 268.2 0.0 0.00 69.3 20.7 25.73 n/a
2016 04 04 15:00 268.2 0.0 0.00 69.5 20.9 25.41 n/a
2016 04 04 16:00 268.2 0.0 0.00 69.4 20.8 25.69 n/a
2016 04 04 17:00 268.1 0.0 0.00 68.7 20.4 26.49 n/a
2016 04 04 18:00 268.2 0.0 0.00 67.0 19.4 28.39 n/a
2016 04 04 19:00 268.6 0.0 0.00 63.5 17.5 32.01 n/a
2016 04 04 20:00 269.5 0.0 0.00 59.3 15.2 37.33 n/a
2016 04 04 21:00 269.7 0.0 0.00 57.1 14.0 39.42 n/a
2016 04 04 22:00 269.7 0.0 0.00 55.2 12.9 40.25 n/a
2016 04 04 23:00 270.0 0.0 0.00 53.1 11.7 42.3 n/a
2016 04 04 24:00 270.4 0.0 0.00 51.0 10.6 44.62 n/a
2016 04 05 1:00 270.4 0.0 0.00 49.4 9.7 45.94 n/a
2016 04 05 2:00 270.4 0.0 0.00 47.4 8.6 48.9 n/a
2016 04 05 3:00 271.1 0.0 0.00 45.2 7.3 54.36 n/a
2016 04 05 4:00 271.1 0.0 0.00 44.0 6.7 58.07 n/a
2016 04 05 5:00 271.2 0.0 0.00 44.2 6.8 57.3 n/a
2016 04 05 6:00 271.7 0.0 0.00 43.2 6.2 59.99 n/a
2016 04 05 7:00 271.2 0.0 0.00 44.0 6.7 60.47 n/a
2016 04 05 8:00 270.2 0.0 0.00 48.6 9.2 53.97 n/a
2016 04 05 9:00 269.8 0.0 0.00 51.9 11.1 50.7 n/a
2016 04 05 10:00 269.6 0.0 0.00 55.7 13.1 47.14 n/a
2016 04 05 11:00 269.3 0.0 0.00 60.0 15.5 44.08 n/a
2016 04 05 12:00 269.1 0.0 0.00 63.6 17.6 42.57 n/a
2016 04 05 13:00 268.9 0.0 0.00 67.6 19.8 40.15 n/a
2016 04 05 14:00 268.8 0.0 0.00 70.8 21.5 37.99 n/a
2016 04 05 15:00 268.8 0.0 0.00 72.7 22.6 36.29 n/a
2016 04 05 16:00 268.8 0.0 0.00 74.5 23.6 35.39 n/a
2016 04 05 17:00 268.2 0.0 0.00 75.7 24.3 34.93 n/a
2016 04 05 18:00 268.6 0.0 0.00 75.1 23.9 36.36 n/a
2016 04 05 19:00 269.2 0.0 0.00 72.2 22.4 39.07 n/a
2016 04 05 20:00 269.4 0.0 0.00 71.6 22.0 37.19 n/a
2016 04 05 21:00 269.5 0.0 0.00 70.2 21.2 39.7 n/a
2016 04 05 22:00 269.5 0.0 0.00 68.2 20.1 42.99 n/a
2016 04 05 23:00 269.5 0.0 0.00 67.0 19.4 46.16 n/a
2016 04 05 24:00 270.0 0.0 0.00 66.4 19.1 48.9 n/a
2016 04 06 1:00 270.6 0.0 0.00 67.1 19.5 51.27 n/a
2016 04 06 2:00 270.6 0.0 0.00 65.6 18.6 56.69 n/a
2016 04 06 3:00 271.5 0.0 0.00 60.5 15.9 75.85 n/a
2016 04 06 4:00 Wet 306.5 0.0 0.25 58.3 14.6 81.1 n/a
2016 04 06 5:00 Wet 290.5 0.0 0.00 56.2 13.5 83.1 n/a
2016 04 06 6:00 Wet 302.5 0.0 0.25 54.8 12.7 80.9 n/a
2016 04 06 7:00 Wet 298.0 0.0 0.00 52.6 11.4 77.2 n/a
2016 04 06 8:00 Wet 315.2 0.0 0.00 50.8 10.4 78.03 n/a
2016 04 06 9:00 273.8 0.0 0.00 50.6 10.3 74.08 n/a
2016 04 06 10:00 272.0 0.0 0.00 52.4 11.4 62.9 n/a
2016 04 06 11:00 270.5 0.0 0.00 54.4 12.4 52.31 n/a
2016 04 06 12:00 269.7 0.0 0.00 57.1 14.0 45.54 n/a
2016 04 06 13:00 269.5 0.0 0.00 57.8 14.3 44.52 n/a
2016 04 06 14:00 269.2 0.0 0.00 59.0 15.0 41.69 n/a
2016 04 06 15:00 269.3 0.0 0.00 59.9 15.5 40.71 n/a
2016 04 06 16:00 269.3 0.0 0.00 61.0 16.1 37.63 n/a
2016 04 06 17:00 268.8 0.0 0.00 61.8 16.6 34.89 n/a
2016 04 06 18:00 268.6 0.0 0.00 61.1 16.2 33.86 n/a
2016 04 06 19:00 269.1 0.0 0.00 59.0 15.0 35.89 n/a
2016 04 06 20:00 269.6 0.0 0.00 56.4 13.5 39.48 n/a
2016 04 06 21:00 270.3 0.0 0.00 53.9 12.2 41.47 n/a
2016 04 06 22:00 270.4 0.0 0.00 52.2 11.2 43.6 n/a
2016 04 06 23:00 270.7 0.0 0.00 50.9 10.5 43.98 n/a
2016 04 06 24:00 271.1 0.0 0.00 49.4 9.7 48.21 n/a
2016 04 07 1:00 271.1 0.0 0.00 48.8 9.4 50.38 n/a
2016 04 07 2:00 271.1 0.0 0.00 47.6 8.7 54.65 n/a
2016 04 07 3:00 271.5 0.0 0.00 47.1 8.4 55.9 n/a
2016 04 07 4:00 271.8 0.0 0.00 45.3 7.4 61.51 n/a
2016 04 07 5:00 271.9 0.0 0.00 44.9 7.2 61.88 n/a
2016 04 07 6:00 271.8 0.0 0.00 45.1 7.3 60.98 n/a
2016 04 07 7:00 271.3 0.0 0.00 45.0 7.2 61.89 n/a
2016 04 07 8:00 270.0 0.0 0.00 48.9 9.4 58.14 n/a
2016 04 07 9:00 269.6 0.0 0.00 55.0 12.8 47.37 n/a
2016 04 07 10:00 268.7 0.0 0.00 59.1 15.0 40.15 n/a
2016 04 07 11:00 268.1 0.0 0.00 62.4 16.9 34.29 n/a
2016 04 07 12:00 267.6 0.0 0.00 64.8 18.2 28.58 n/a
2016 04 07 13:00 267.5 0.0 0.00 65.6 18.7 25.6 n/a
2016 04 07 14:00 267.2 0.0 0.00 65.6 18.7 24.37 n/a
2016 04 07 15:00 267.5 0.0 0.00 64.6 18.1 21.37 n/a
2016 04 07 16:00 267.5 0.0 0.00 63.2 17.3 19.8 n/a
2016 04 07 17:00 267.4 0.0 0.00 62.3 16.8 19.55 n/a
2016 04 07 18:00 267.0 0.0 0.00 60.3 15.7 19.63 n/a
2016 04 07 19:00 265.4 0.0 0.00 57.3 14.0 21.56 n/a
2016 04 07 20:00 265.5 0.0 0.00 53.7 12.0 27.66 n/a
2016 04 07 21:00 266.0 0.0 0.00 50.8 10.5 34.25 n/a
2016 04 07 22:00 266.3 0.0 0.00 48.7 9.3 39.18 n/a
2016 04 07 23:00 267.0 0.0 0.00 46.0 7.8 43.84 n/a
2016 04 07 24:00 267.4 0.0 0.00 42.9 6.1 49.92 n/a
2016 04 08 1:00 267.8 0.0 0.00 40.7 4.8 55.11 n/a
2016 04 08 2:00 267.8 0.0 0.00 41.2 5.1 55.23 n/a
2016 04 08 3:00 268.5 0.0 0.00 39.7 4.3 58.45 n/a
2016 04 08 4:00 268.5 0.0 0.00 38.6 3.7 61.15 n/a
2016 04 08 5:00 268.5 0.0 0.00 37.7 3.2 65.65 n/a
2016 04 08 6:00 268.8 0.0 0.00 37.3 3.0 66.79 n/a
2016 04 08 7:00 268.2 0.0 0.00 38.3 3.5 65.57 n/a
2016 04 08 8:00 266.9 0.0 0.00 43.2 6.2 54.01 n/a
2016 04 08 9:00 266.5 0.0 0.00 46.9 8.3 46.61 n/a
2016 04 08 10:00 266.3 0.0 0.00 50.7 10.4 39.24 n/a
2016 04 08 11:00 266.2 0.0 0.00 54.0 12.2 35.41 n/a
2016 04 08 12:00 266.7 0.0 0.00 56.7 13.7 31.05 n/a
2016 04 08 13:00 266.0 0.0 0.00 58.6 14.8 29.41 n/a
2016 04 08 14:00 266.9 0.0 0.00 60.1 15.6 27.03 n/a
2016 04 08 15:00 267.0 0.0 0.00 61.6 16.5 26.25 n/a
2016 04 08 16:00 267.0 0.0 0.00 62.9 17.2 24.02 n/a
2016 04 08 17:00 266.7 0.0 0.00 62.5 17.0 24.11 n/a
2016 04 08 18:00 266.0 0.0 0.00 61.8 16.6 24.84 n/a
2016 04 08 19:00 265.4 0.0 0.00 58.9 15.0 28.24 n/a
2016 04 08 20:00 266.0 0.0 0.00 55.2 12.9 31.13 n/a
2016 04 08 21:00 266.3 0.0 0.00 52.9 11.6 33.63 n/a
2016 04 08 22:00 266.5 0.0 0.00 50.1 10.1 36.93 n/a
2016 04 08 23:00 267.9 0.0 0.00 47.9 8.9 34.9 n/a
2016 04 08 24:00 268.6 0.0 0.00 45.0 7.2 37.17 n/a
2016 04 09 1:00 269.1 0.0 0.00 42.4 5.8 35.73 n/a
2016 04 09 2:00 269.3 0.0 0.00 39.9 4.4 35.87 n/a
2016 04 09 3:00 269.8 0.0 0.00 37.6 3.1 39.42 n/a
2016 04 09 4:00 269.8 0.0 0.00 36.3 2.4 40.33 n/a
2016 04 09 5:00 269.9 0.0 0.00 34.6 1.4 42.42 n/a
2016 04 09 6:00 269.9 0.0 0.00 33.0 0.5 46.47 n/a
2016 04 09 7:00 269.6 0.0 0.00 32.8 0.5 45.45 n/a
2016 04 09 8:00 268.6 0.0 0.00 36.0 2.2 40.39 n/a
2016 04 09 9:00 267.7 0.0 0.00 39.6 4.2 33.85 n/a
2016 04 09 10:00 267.5 0.0 0.00 42.8 6.0 28.99 n/a
2016 04 09 11:00 267.4 0.0 0.00 45.9 7.7 28.1 n/a
2016 04 09 12:00 267.7 0.0 0.00 49.3 9.6 26.58 n/a
2016 04 09 13:00 267.7 0.0 0.00 53.1 11.7 24.58 n/a
2016 04 09 14:00 268.1 0.0 0.00 55.6 13.1 23.53 n/a
2016 04 09 15:00 268.2 0.0 0.00 58.7 14.8 23.43 n/a
2016 04 09 16:00 268.2 0.0 0.00 61.0 16.1 25.41 n/a
2016 04 09 17:00 268.0 0.0 0.00 62.1 16.7 27.91 n/a
2016 04 09 18:00 268.3 0.0 0.00 62.4 16.9 32.04 n/a
2016 04 09 19:00 269.0 0.0 0.00 61.7 16.5 34.77 n/a
2016 04 09 20:00 269.1 0.0 0.00 61.4 16.3 38.89 n/a
2016 04 09 21:00 269.6 0.0 0.00 60.3 15.7 42.94 n/a
2016 04 09 22:00 269.2 0.0 0.00 61.9 16.6 41.94 n/a
2016 04 09 23:00 268.9 0.0 0.00 62.2 16.8 42.77 n/a
2016 04 09 24:00 269.0 0.0 0.00 61.1 16.2 47.96 n/a
2016 04 10 1:00 269.5 0.0 0.00 59.8 15.5 51.29 n/a
2016 04 10 2:00 269.6 0.0 0.00 59.0 15.0 53.72 n/a
2016 04 10 3:00 269.7 0.0 0.00 58.6 14.8 57.66 n/a
2016 04 10 4:00 270.2 0.0 0.00 58.4 14.7 60.5 n/a
2016 04 10 5:00 270.3 0.0 0.00 58.3 14.6 61.57 n/a
2016 04 10 6:00 270.3 0.0 0.00 58.4 14.6 64.12 n/a
2016 04 10 7:00 270.7 0.0 0.00 58.7 14.8 66.74 n/a
2016 04 10 8:00 271.0 0.0 0.00 59.4 15.2 68.32 n/a
2016 04 10 9:00 271.0 0.0 0.00 60.7 15.9 69.57 n/a
2016 04 10 10:00 270.8 0.0 0.00 62.7 17.1 69.44 n/a
2016 04 10 11:00 270.6 0.0 0.00 64.6 18.1 68.74 n/a
2016 04 10 12:00 270.6 0.0 0.00 66.5 19.1 66.67 n/a
2016 04 10 13:00 270.2 0.0 0.00 68.7 20.4 63.23 n/a
2016 04 10 14:00 270.1 0.0 0.00 71.9 22.1 59.9 n/a
2016 04 10 15:00 269.6 0.0 0.00 75.3 24.0 51.86 n/a
2016 04 10 16:00 269.6 0.0 0.00 77.6 25.3 49.53 n/a
2016 04 10 17:00 269.6 0.0 0.00 78.4 25.8 49.1 n/a
2016 04 10 18:00 270.1 0.0 0.00 75.3 24.1 57.72 n/a
2016 04 10 19:00 270.6 0.0 0.00 70.9 21.6 60.65 n/a
2016 04 10 20:00 270.9 0.0 0.00 66.6 19.2 66.7 n/a
2016 04 10 21:00 271.6 0.0 0.00 64.9 18.3 69.71 n/a
2016 04 10 22:00 Wet 308.0 0.0 0.25 63.4 17.4 71.96 n/a
2016 04 10 23:00 Wet 413.2 0.1 3.56 60.2 15.7 83.6 n/a
2016 04 10 24:00 Wet 405.8 0.0 0.76 57.9 14.4 91.2 n/a
2016 04 11 1:00 Wet 292.2 0.0 0.00 57.4 14.1 91.4 n/a
2016 04 11 2:00 279.8 0.0 0.00 56.8 13.8 93.5 n/a
2016 04 11 3:00 275.5 0.0 0.00 54.1 12.3 82.1 n/a
2016 04 11 4:00 273.2 0.0 0.00 53.1 11.7 72.14 n/a
2016 04 11 5:00 273.2 0.0 0.00 53.2 11.8 75.2 n/a
2016 04 11 6:00 Wet 327.7 0.0 0.00 52.7 11.5 74.92 n/a
2016 04 11 7:00 Wet 387.7 0.0 0.51 51.2 10.6 69.14 n/a
2016 04 11 8:00 Wet 408.4 0.0 0.51 47.1 8.4 81.2 n/a
2016 04 11 9:00 Wet 302.3 0.0 0.00 48.7 9.3 59.92 n/a
2016 04 11 10:00 271.2 0.0 0.00 50.9 10.5 40.48 n/a
2016 04 11 11:00 270.5 0.0 0.00 50.4 10.2 36.38 n/a
2016 04 11 12:00 270.3 0.0 0.00 51.4 10.8 37.44 n/a
2016 04 11 13:00 269.8 0.0 0.00 51.7 11.0 34.96 n/a
2016 04 11 14:00 269.7 0.0 0.00 53.4 11.9 32.32 n/a
2016 04 11 15:00 269.6 0.0 0.00 54.8 12.6 28.45 n/a
2016 04 11 16:00 269.3 0.0 0.00 56.5 13.6 27.45 n/a
2016 04 11 17:00 268.9 0.0 0.00 57.1 13.9 26.82 n/a
2016 04 11 18:00 269.3 0.0 0.00 55.1 12.9 28.84 n/a
2016 04 11 19:00 269.6 0.0 0.00 54.1 12.3 31.61 n/a
2016 04 11 20:00 270.2 0.0 0.00 51.7 10.9 36.29 n/a
2016 04 11 21:00 270.4 0.0 0.00 49.4 9.7 39.09 n/a
2016 04 11 22:00 270.4 0.0 0.00 47.4 8.6 40.46 n/a
2016 04 11 23:00 270.5 0.0 0.00 45.8 7.7 39.35 n/a
2016 04 11 24:00 271.1 0.0 0.00 43.5 6.4 41.45 n/a
2016 04 12 1:00 271.2 0.0 0.00 41.4 5.2 43.57 n/a
2016 04 12 2:00 271.2 0.0 0.00 40.1 4.5 43.87 n/a
2016 04 12 3:00 271.2 0.0 0.00 38.8 3.8 45.58 n/a
2016 04 12 4:00 271.3 0.0 0.00 37.6 3.1 47.98 n/a
2016 04 12 5:00 271.9 0.0 0.00 36.2 2.4 51.67 n/a
2016 04 12 6:00 271.9 0.0 0.00 35.0 1.7 55.03 n/a
2016 04 12 7:00 271.4 0.0 0.00 36.0 2.2 54.74 n/a
2016 04 12 8:00 270.3 0.0 0.00 40.8 4.9 48.36 n/a
2016 04 12 9:00 269.6 0.0 0.00 45.2 7.3 41.84 n/a
2016 04 12 10:00 269.0 0.0 0.00 48.8 9.3 37.57 n/a
2016 04 12 11:00 269.0 0.0 0.00 51.3 10.7 35.91 n/a
2016 04 12 12:00 269.0 0.0 0.00 53.0 11.6 33.86 n/a
2016 04 12 13:00 269.1 0.0 0.00 55.2 12.9 31.23 n/a
2016 04 12 14:00 269.0 0.0 0.00 56.8 13.8 30.45 n/a
2016 04 12 15:00 269.0 0.0 0.00 57.9 14.4 28.94 n/a
2016 04 12 16:00 268.9 0.0 0.00 59.0 15.0 27.66 n/a
2016 04 12 17:00 268.4 0.0 0.00 59.3 15.2 26.45 n/a
2016 04 12 18:00 268.3 0.0 0.00 59.0 15.0 28.42 n/a
2016 04 12 19:00 269.0 0.0 0.00 56.9 13.8 32.34 n/a
2016 04 12 20:00 270.1 0.0 0.00 52.4 11.3 40.61 n/a
2016 04 12 21:00 271.0 0.0 0.00 49.0 9.4 47.54 n/a
2016 04 12 22:00 271.1 0.0 0.00 48.9 9.4 45.35 n/a
2016 04 12 23:00 271.1 0.0 0.00 47.0 8.3 49.36 n/a
2016 04 12 24:00 271.1 0.0 0.00 45.4 7.5 52.88 n/a
2016 04 13 1:00 271.4 0.0 0.00 44.4 6.9 53.1 n/a
2016 04 13 2:00 271.8 0.0 0.00 43.1 6.2 56.91 n/a
2016 04 13 3:00 271.9 0.0 0.00 42.2 5.7 58.75 n/a
2016 04 13 4:00 271.9 0.0 0.00 42.1 5.6 55.58 n/a
2016 04 13 5:00 271.9 0.0 0.00 41.4 5.2 56.58 n/a
2016 04 13 6:00 271.9 0.0 0.00 42.1 5.6 56.22 n/a
2016 04 13 7:00 271.4 0.0 0.00 43.5 6.4 57.36 n/a
2016 04 13 8:00 269.9 0.0 0.00 49.2 9.5 52.57 n/a
2016 04 13 9:00 269.8 0.0 0.00 52.4 11.4 49.73 n/a
2016 04 13 10:00 269.2 0.0 0.00 57.0 13.9 45.35 n/a
2016 04 13 11:00 269.0 0.0 0.00 60.8 16.0 41.2 n/a
2016 04 13 12:00 268.9 0.0 0.00 63.4 17.4 40.59 n/a
2016 04 13 13:00 269.0 0.0 0.00 64.6 18.1 39.33 n/a
2016 04 13 14:00 269.3 0.0 0.00 65.8 18.8 40.59 n/a
2016 04 13 15:00 269.5 0.0 0.00 64.3 18.0 44.69 n/a
2016 04 13 16:00 269.5 0.0 0.00 65.0 18.4 41.19 n/a
2016 04 13 17:00 269.0 0.0 0.00 64.7 18.1 41.58 n/a
2016 04 13 18:00 269.0 0.0 0.00 63.7 17.6 41.62 n/a
2016 04 13 19:00 269.9 0.0 0.00 60.9 16.1 46.25 n/a
2016 04 13 20:00 270.9 0.0 0.00 57.8 14.4 50.07 n/a
2016 04 13 21:00 271.0 0.0 0.00 56.0 13.3 52.85 n/a
2016 04 13 22:00 271.5 0.0 0.00 53.9 12.2 55.76 n/a
2016 04 13 23:00 271.7 0.0 0.00 51.4 10.8 61.48 n/a
2016 04 13 24:00 272.3 0.0 0.00 49.4 9.7 67 n/a
2016 04 14 1:00 273.3 0.0 0.00 46.9 8.3 74.9 n/a
2016 04 14 2:00 274.0 0.0 0.00 46.3 7.9 74.54 n/a
2016 04 14 3:00 274.0 0.0 0.00 46.3 8.0 71.4 n/a
2016 04 14 4:00 274.3 0.0 0.00 45.0 7.2 74.76 n/a
2016 04 14 5:00 275.9 0.0 0.00 42.6 5.9 81.6 n/a
2016 04 14 6:00 278.8 0.0 0.00 41.9 5.5 81.8 n/a
2016 04 14 7:00 273.1 0.0 0.00 44.3 6.9 75.23 n/a
2016 04 14 8:00 270.9 0.0 0.00 51.5 10.8 60.73 n/a
2016 04 14 9:00 269.4 0.0 0.00 57.5 14.2 48.09 n/a
2016 04 14 10:00 268.7 0.0 0.00 61.6 16.4 35.93 n/a
2016 04 14 11:00 268.4 0.0 0.00 64.1 17.8 34.2 n/a
2016 04 14 12:00 268.5 0.0 0.00 65.6 18.7 31.89 n/a
2016 04 14 13:00 268.6 0.0 0.00 67.6 19.8 30.2 n/a
2016 04 14 14:00 268.7 0.0 0.00 68.9 20.5 29.71 n/a
2016 04 14 15:00 268.7 0.0 0.00 69.9 21.0 28.84 n/a
2016 04 14 16:00 268.8 0.0 0.00 70.6 21.4 30.02 n/a
2016 04 14 17:00 268.2 0.0 0.00 70.7 21.5 30.87 n/a
2016 04 14 18:00 268.2 0.0 0.00 69.9 21.1 33.15 n/a
2016 04 14 19:00 268.9 0.0 0.00 67.7 19.8 37.37 n/a
2016 04 14 20:00 269.9 0.0 0.00 64.0 17.8 42.24 n/a
2016 04 14 21:00 270.3 0.0 0.00 62.0 16.6 45.4 n/a
2016 04 14 22:00 270.5 0.0 0.00 59.7 15.4 46.29 n/a
2016 04 14 23:00 271.0 0.0 0.00 57.0 13.9 48.54 n/a
2016 04 14 24:00 271.0 0.0 0.00 56.6 13.7 47.18 n/a
2016 04 15 1:00 271.1 0.0 0.00 56.5 13.6 49.48 n/a
2016 04 15 2:00 271.0 0.0 0.00 55.9 13.3 53.86 n/a
2016 04 15 3:00 271.5 0.0 0.00 54.9 12.7 58.12 n/a
2016 04 15 4:00 271.7 0.0 0.00 53.9 12.1 62.01 n/a
2016 04 15 5:00 272.0 0.0 0.00 52.4 11.3 66.32 n/a
2016 04 15 6:00 272.4 0.0 0.00 50.8 10.4 71.66 n/a
2016 04 15 7:00 271.7 0.0 0.00 53.1 11.7 69.52 n/a
2016 04 15 8:00 270.4 0.0 0.00 58.5 14.7 68.95 n/a
2016 04 15 9:00 270.4 0.0 0.00 61.3 16.3 72.08 n/a
2016 04 15 10:00 270.4 0.0 0.00 63.6 17.6 70.26 n/a
2016 04 15 11:00 270.2 0.0 0.00 66.0 18.9 66.32 n/a
2016 04 15 12:00 270.3 0.0 0.00 67.4 19.6 61.56 n/a
2016 04 15 13:00 270.1 0.0 0.00 69.3 20.7 56.64 n/a
2016 04 15 14:00 269.9 0.0 0.00 70.5 21.4 51.08 n/a
2016 04 15 15:00 269.6 0.0 0.00 70.9 21.6 51.38 n/a
2016 04 15 16:00 269.8 0.0 0.00 71.2 21.8 51.96 n/a
2016 04 15 17:00 269.7 0.0 0.00 70.7 21.5 51.33 n/a
2016 04 15 18:00 270.0 0.0 0.00 69.9 21.1 53.88 n/a
2016 04 15 19:00 270.4 0.0 0.00 67.9 19.9 57.05 n/a
2016 04 15 20:00 271.4 0.0 0.00 65.1 18.4 62.85 n/a
2016 04 15 21:00 271.6 0.0 0.00 63.7 17.6 66.91 n/a
2016 04 15 22:00 272.3 0.0 0.00 61.8 16.6 71.75 n/a
2016 04 15 23:00 272.5 0.0 0.00 61.5 16.4 72.25 n/a
2016 04 15 24:00 272.3 0.0 0.00 61.2 16.2 72.01 n/a
2016 04 16 1:00 272.5 0.0 0.00 59.9 15.5 75.24 n/a
2016 04 16 2:00 273.2 0.0 0.00 58.5 14.7 79.25 n/a
2016 04 16 3:00 274.2 0.0 0.00 56.5 13.6 84.4 n/a
2016 04 16 4:00 274.2 0.0 0.00 56.3 13.5 85.5 n/a
2016 04 16 5:00 274.0 0.0 0.00 57.2 14.0 83.8 n/a
2016 04 16 6:00 274.4 0.0 0.00 56.7 13.7 85.2 n/a
2016 04 16 7:00 273.8 0.0 0.00 57.4 14.1 84.8 n/a
2016 04 16 8:00 272.9 0.0 0.00 60.1 15.6 79.65 n/a
2016 04 16 9:00 271.9 0.0 0.00 62.9 17.2 73.97 n/a
2016 04 16 10:00 271.0 0.0 0.00 66.3 19.1 66.88 n/a
2016 04 16 11:00 271.0 0.0 0.00 67.4 19.7 63.14 n/a
2016 04 16 12:00 270.9 0.0 0.00 68.4 20.2 61.72 n/a
2016 04 16 13:00 270.6 0.0 0.00 70.7 21.5 58.69 n/a
2016 04 16 14:00 270.5 0.0 0.00 71.3 21.9 58.16 n/a
2016 04 16 15:00 270.6 0.0 0.00 71.7 22.1 57.12 n/a
2016 04 16 16:00 270.6 0.0 0.00 72.5 22.5 55.44 n/a
2016 04 16 17:00 270.3 0.0 0.00 72.2 22.3 56.46 n/a
2016 04 16 18:00 270.8 0.0 0.00 70.0 21.1 60.71 n/a
2016 04 16 19:00 271.3 0.0 0.00 67.3 19.6 64.13 n/a
2016 04 16 20:00 272.1 0.0 0.00 64.8 18.2 70 n/a
2016 04 16 21:00 272.3 0.0 0.00 63.8 17.6 71.09 n/a
2016 04 16 22:00 272.4 0.0 0.00 62.5 16.9 73.58 n/a
2016 04 16 23:00 273.0 0.0 0.00 61.7 16.5 75.31 n/a
2016 04 16 24:00 273.2 0.0 0.00 60.7 15.9 77.61 n/a
2016 04 17 1:00 273.9 0.0 0.00 59.5 15.3 80.5 n/a
2016 04 17 2:00 274.4 0.0 0.00 58.2 14.6 84.1 n/a
2016 04 17 3:00 274.4 0.0 0.00 58.1 14.5 85.2 n/a
2016 04 17 4:00 274.0 0.0 0.00 58.4 14.7 85.1 n/a
2016 04 17 5:00 274.9 0.0 0.00 57.3 14.0 86.9 n/a
2016 04 17 6:00 275.1 0.0 0.00 56.7 13.7 87.9 n/a
2016 04 17 7:00 273.6 0.0 0.00 57.8 14.3 85.5 n/a
2016 04 17 8:00 271.8 0.0 0.00 63.0 17.2 76.78 n/a
2016 04 17 9:00 271.3 0.0 0.00 66.3 19.0 70.7 n/a
2016 04 17 10:00 270.7 0.0 0.00 69.3 20.7 62.5 n/a
2016 04 17 11:00 270.6 0.0 0.00 70.2 21.2 59.41 n/a
2016 04 17 12:00 270.6 0.0 0.00 70.9 21.6 56.42 n/a
2016 04 17 13:00 270.2 0.0 0.00 72.3 22.4 53.46 n/a
2016 04 17 14:00 270.2 0.0 0.00 72.8 22.6 52.38 n/a
2016 04 17 15:00 270.2 0.0 0.00 73.0 22.8 50.57 n/a
2016 04 17 16:00 270.0 0.0 0.00 74.2 23.4 48.8 n/a
2016 04 17 17:00 269.8 0.0 0.00 74.6 23.7 46.51 n/a
2016 04 17 18:00 269.9 0.0 0.00 74.2 23.5 47.25 n/a
2016 04 17 19:00 270.6 0.0 0.00 72.0 22.2 52.38 n/a
2016 04 17 20:00 270.9 0.0 0.00 70.6 21.4 54.49 n/a
2016 04 17 21:00 270.9 0.0 0.00 69.3 20.7 58.11 n/a
2016 04 17 22:00 272.1 0.0 0.00 65.8 18.8 76.06 n/a
2016 04 17 23:00 273.2 0.0 0.00 64.4 18.0 80.5 n/a
2016 04 17 24:00 272.7 0.0 0.00 64.9 18.3 70.73 n/a
2016 04 18 1:00 272.3 0.0 0.00 65.7 18.7 64.81 n/a
2016 04 18 2:00 272.3 0.0 0.00 64.6 18.1 67.02 n/a
2016 04 18 3:00 273.1 0.0 0.00 64.6 18.1 67.17 n/a
2016 04 18 4:00 Wet 304.0 0.0 0.00 63.2 17.3 72.83 n/a
2016 04 18 5:00 Wet 328.3 0.0 0.25 61.2 16.2 81.2 n/a
2016 04 18 6:00 Wet 325.5 0.0 0.25 60.5 15.8 84.2 n/a
2016 04 18 7:00 Wet 421.3 0.1 2.03 59.2 15.1 89.7 n/a
2016 04 18 8:00 Wet 429.9 0.1 1.27 58.9 14.9 93.1 n/a
2016 04 18 9:00 Wet 331.5 0.0 0.51 59.7 15.4 92.3 n/a
2016 04 18 10:00 Wet 320.1 0.0 0.51 60.4 15.8 93.1 n/a
2016 04 18 11:00 Wet 302.9 0.0 0.25 61.4 16.3 92.6 n/a
2016 04 18 12:00 275.3 0.0 0.00 62.4 16.9 92 n/a
2016 04 18 13:00 274.0 0.0 0.00 63.3 17.4 91.2 n/a
2016 04 18 14:00 273.6 0.0 0.00 64.7 18.1 87.3 n/a
2016 04 18 15:00 273.0 0.0 0.00 65.7 18.7 84.4 n/a
2016 04 18 16:00 273.3 0.0 0.00 65.5 18.6 84.3 n/a
2016 04 18 17:00 274.0 0.0 0.00 64.0 17.8 90.8 n/a
2016 04 18 18:00 Wet 292.5 0.0 0.25 64.2 17.9 90.4 n/a
2016 04 18 19:00 Wet 387.8 0.0 0.76 63.6 17.6 93.2 n/a
2016 04 18 20:00 Wet 487.5 0.3 8.13 62.4 16.9 96.3 n/a
2016 04 18 21:00 Wet 486.2 0.2 4.06 61.6 16.4 97.4 n/a
2016 04 18 22:00 Wet 476.2 0.1 2.29 61.4 16.3 97.6 n/a
2016 04 18 23:00 Wet 336.5 0.0 0.00 61.1 16.2 97.6 n/a
2016 04 18 24:00 Wet 315.8 0.0 0.00 60.8 16.0 98 n/a
2016 04 19 1:00 Wet 293.5 0.0 0.00 60.0 15.6 96.8 n/a
2016 04 19 2:00 277.6 0.0 0.00 59.2 15.1 95.4 n/a
2016 04 19 3:00 Wet 286.5 0.0 0.00 58.7 14.8 95.8 n/a
2016 04 19 4:00 278.2 0.0 0.00 58.2 14.6 95.5 n/a
2016 04 19 5:00 276.1 0.0 0.00 57.7 14.3 95.5 n/a
2016 04 19 6:00 275.8 0.0 0.00 57.8 14.3 95.5 n/a
2016 04 19 7:00 275.3 0.0 0.00 58.0 14.5 94.4 n/a
2016 04 19 8:00 275.7 0.0 0.00 58.2 14.6 91 n/a
2016 04 19 9:00 276.3 0.0 0.00 58.6 14.8 90.1 n/a
2016 04 19 10:00 274.1 0.0 0.00 60.1 15.6 85.9 n/a
2016 04 19 11:00 272.8 0.0 0.00 62.9 17.1 79.09 n/a
2016 04 19 12:00 272.5 0.0 0.00 64.1 17.9 76.32 n/a
2016 04 19 13:00 272.4 0.0 0.00 64.7 18.1 74.46 n/a
2016 04 19 14:00 272.9 0.0 0.00 64.2 17.9 74.91 n/a
2016 04 19 15:00 Wet 304.3 0.0 0.00 64.1 17.8 77.27 n/a
2016 04 19 16:00 272.6 0.0 0.00 65.4 18.6 72.25 n/a
2016 04 19 17:00 272.4 0.0 0.00 66.1 18.9 70.6 n/a
2016 04 19 18:00 272.9 0.0 0.00 65.7 18.7 71.7 n/a
2016 04 19 19:00 273.1 0.0 0.00 64.6 18.1 74.5 n/a
2016 04 19 20:00 Wet 326.3 0.0 0.25 63.4 17.4 79.27 n/a
2016 04 19 21:00 Wet 331.7 0.0 0.00 61.1 16.1 88.9 n/a
2016 04 19 22:00 Wet 309.0 0.0 0.25 60.5 15.9 91.2 n/a
2016 04 19 23:00 Wet 478.4 0.2 3.81 60.0 15.5 94.2 n/a
2016 04 19 24:00 Wet 512.3 0.2 5.84 59.6 15.4 96.5 n/a
2016 04 20 1:00 Wet 483.9 0.2 5.84 59.2 15.1 96.8 n/a
2016 04 20 2:00 Wet 394.1 0.0 1.02 58.6 14.8 96.2 n/a
2016 04 20 3:00 Wet 298.8 0.0 0.00 58.0 14.5 94.8 n/a
2016 04 20 4:00 283.9 0.0 0.00 57.9 14.4 94.1 n/a
2016 04 20 5:00 279.9 0.0 0.00 57.9 14.4 93.8 n/a
2016 04 20 6:00 277.6 0.0 0.00 57.8 14.3 94.5 n/a
2016 04 20 7:00 276.0 0.0 0.00 58.2 14.5 94.5 n/a
2016 04 20 8:00 275.0 0.0 0.00 58.7 14.8 92.7 n/a
2016 04 20 9:00 274.4 0.0 0.00 59.1 15.1 88.3 n/a
2016 04 20 10:00 272.6 0.0 0.00 61.8 16.5 77.36 n/a
2016 04 20 11:00 271.9 0.0 0.00 63.0 17.2 72.35 n/a
2016 04 20 12:00 271.8 0.0 0.00 63.6 17.6 66.02 n/a
2016 04 20 13:00 271.5 0.0 0.00 64.7 18.2 61.38 n/a
2016 04 20 14:00 271.5 0.0 0.00 65.1 18.4 59.25 n/a
2016 04 20 15:00 271.5 0.0 0.00 65.5 18.6 58.17 n/a
2016 04 20 16:00 271.6 0.0 0.00 65.8 18.8 55.98 n/a
2016 04 20 17:00 271.3 0.0 0.00 65.6 18.7 54.81 n/a
2016 04 20 18:00 271.0 0.0 0.00 65.1 18.4 53.18 n/a
2016 04 20 19:00 271.3 0.0 0.00 63.6 17.6 55.5 n/a
2016 04 20 20:00 272.7 0.0 0.00 59.1 15.0 65.72 n/a
2016 04 20 21:00 273.8 0.0 0.00 56.8 13.8 72.27 n/a
2016 04 20 22:00 274.4 0.0 0.00 55.5 13.1 75.12 n/a
2016 04 20 23:00 274.9 0.0 0.00 54.5 12.5 78.05 n/a
2016 04 20 24:00 274.8 0.0 0.00 53.8 12.1 81 n/a
2016 04 21 1:00 276.2 0.0 0.00 52.5 11.4 84.9 n/a
2016 04 21 2:00 276.2 0.0 0.00 52.1 11.2 86.1 n/a
2016 04 21 3:00 274.9 0.0 0.00 52.5 11.4 83.5 n/a
2016 04 21 4:00 279.7 0.0 0.00 54.0 12.2 84.7 n/a
2016 04 21 5:00 Wet 339.8 0.1 1.52 53.2 11.8 91 n/a
2016 04 21 6:00 Wet 309.5 0.0 0.00 52.7 11.5 87.3 n/a
2016 04 21 7:00 Wet 295.2 0.0 0.00 52.6 11.4 89.3 n/a
2016 04 21 8:00 275.6 0.0 0.00 55.0 12.8 85.6 n/a
2016 04 21 9:00 272.1 0.0 0.00 58.0 14.4 72.88 n/a
2016 04 21 10:00 271.5 0.0 0.00 60.7 15.9 68.26 n/a
2016 04 21 11:00 271.6 0.0 0.00 61.3 16.3 65.98 n/a
2016 04 21 12:00 271.5 0.0 0.00 62.0 16.7 66.36 n/a
2016 04 21 13:00 271.3 0.0 0.00 63.8 17.7 62.63 n/a
2016 04 21 14:00 271.0 0.0 0.00 65.0 18.4 58.63 n/a
2016 04 21 15:00 271.2 0.0 0.00 64.7 18.1 59.24 n/a
2016 04 21 16:00 271.4 0.0 0.00 64.9 18.3 60.46 n/a
2016 04 21 17:00 271.2 0.0 0.00 66.3 19.1 56.51 n/a
2016 04 21 18:00 271.5 0.0 0.00 64.3 18.0 59.92 n/a
2016 04 21 19:00 271.8 0.0 0.00 63.1 17.3 63.56 n/a
2016 04 21 20:00 272.7 0.0 0.00 59.8 15.4 70.62 n/a
2016 04 21 21:00 273.3 0.0 0.00 57.4 14.1 75.16 n/a
2016 04 21 22:00 273.8 0.0 0.00 56.0 13.3 78.12 n/a
2016 04 21 23:00 274.5 0.0 0.00 55.2 12.9 79.92 n/a
2016 04 21 24:00 282.7 0.0 0.00 53.6 12.0 84.6 n/a
2016 04 22 1:00 Wet 292.8 0.0 0.00 52.1 11.2 87.4 n/a
2016 04 22 2:00 Wet 309.7 0.0 0.00 50.4 10.2 91.9 n/a
2016 04 22 3:00 Wet 328.8 0.0 0.00 50.8 10.4 90.1 n/a
2016 04 22 4:00 Wet 350.4 0.0 0.00 50.3 10.1 91.2 n/a
2016 04 22 5:00 Wet 380.2 0.0 0.00 49.7 9.8 92.2 n/a
2016 04 22 6:00 Wet 442.2 0.0 0.00 49.3 9.6 92.9 n/a
2016 04 22 7:00 Wet 435.1 0.0 0.00 51.2 10.7 90.4 n/a
2016 04 22 8:00 Wet 292.0 0.0 0.00 56.8 13.8 82.2 n/a
2016 04 22 9:00 271.8 0.0 0.00 61.0 16.1 75.05 n/a
2016 04 22 10:00 271.6 0.0 0.00 64.1 17.8 68.43 n/a
2016 04 22 11:00 271.5 0.0 0.00 66.1 18.9 64.83 n/a
2016 04 22 12:00 271.3 0.0 0.00 68.2 20.1 60.13 n/a
2016 04 22 13:00 271.4 0.0 0.00 68.9 20.5 55.68 n/a
2016 04 22 14:00 271.3 0.0 0.00 69.3 20.8 54.54 n/a
2016 04 22 15:00 270.9 0.0 0.00 70.8 21.6 50.24 n/a
2016 04 22 16:00 270.9 0.0 0.00 70.8 21.6 48.64 n/a
2016 04 22 17:00 270.3 0.0 0.00 71.2 21.8 47.37 n/a
2016 04 22 18:00 270.4 0.0 0.00 69.8 21.0 49.79 n/a
2016 04 22 19:00 271.1 0.0 0.00 67.0 19.4 54.88 n/a
2016 04 22 20:00 272.0 0.0 0.00 63.6 17.6 65.42 n/a
2016 04 22 21:00 272.5 0.0 0.00 61.3 16.3 71.02 n/a
2016 04 22 22:00 273.0 0.0 0.00 59.4 15.2 75.71 n/a
2016 04 22 23:00 273.6 0.0 0.00 57.3 14.0 81 n/a
2016 04 22 24:00 274.3 0.0 0.00 55.7 13.2 83.5 n/a
2016 04 23 1:00 274.9 0.0 0.00 54.4 12.4 85.6 n/a
2016 04 23 2:00 275.0 0.0 0.00 53.5 11.9 86.9 n/a
2016 04 23 3:00 278.1 0.0 0.00 52.4 11.3 88.8 n/a
2016 04 23 4:00 Wet 300.0 0.0 0.00 50.8 10.4 92.1 n/a
2016 04 23 5:00 Wet 339.3 0.0 0.00 49.8 9.9 94.7 n/a
2016 04 23 6:00 Wet 387.5 0.0 0.00 49.5 9.7 95.5 n/a
2016 04 23 7:00 Wet 388.4 0.0 0.00 52.4 11.3 90.4 n/a
2016 04 23 8:00 277.8 0.0 0.00 58.6 14.8 78.02 n/a
2016 04 23 9:00 271.5 0.0 0.00 62.2 16.8 71.01 n/a
2016 04 23 10:00 270.9 0.0 0.00 66.0 18.9 64.94 n/a
2016 04 23 11:00 270.5 0.0 0.00 69.8 21.0 57.79 n/a
2016 04 23 12:00 270.2 0.0 0.00 72.6 22.6 50.94 n/a
2016 04 23 13:00 270.2 0.0 0.00 74.4 23.5 47.02 n/a
2016 04 23 14:00 270.2 0.0 0.00 75.8 24.4 43.48 n/a
2016 04 23 15:00 270.2 0.0 0.00 76.9 24.9 39.85 n/a
2016 04 23 16:00 269.7 0.0 0.00 77.5 25.3 37 n/a
2016 04 23 17:00 269.0 0.0 0.00 77.5 25.3 34.91 n/a
2016 04 23 18:00 268.8 0.0 0.00 76.6 24.8 37.68 n/a
2016 04 23 19:00 269.7 0.0 0.00 73.5 23.1 42.15 n/a
2016 04 23 20:00 271.0 0.0 0.00 69.5 20.9 48.14 n/a
2016 04 23 21:00 271.6 0.0 0.00 67.3 19.6 53.04 n/a
2016 04 23 22:00 272.3 0.0 0.00 64.8 18.2 58.37 n/a
2016 04 23 23:00 272.3 0.0 0.00 63.5 17.5 61.16 n/a
2016 04 23 24:00 272.3 0.0 0.00 62.0 16.7 65.55 n/a
2016 04 24 1:00 272.5 0.0 0.00 61.4 16.3 65.69 n/a
2016 04 24 2:00 272.6 0.0 0.00 60.6 15.9 67.54 n/a
2016 04 24 3:00 272.4 0.0 0.00 60.4 15.8 67.14 n/a
2016 04 24 4:00 273.0 0.0 0.00 59.3 15.2 70.11 n/a
2016 04 24 5:00 273.1 0.0 0.00 58.8 14.9 72.1 n/a
2016 04 24 6:00 273.0 0.0 0.00 58.4 14.7 73.46 n/a
2016 04 24 7:00 272.0 0.0 0.00 59.8 15.4 71.43 n/a
2016 04 24 8:00 271.0 0.0 0.00 63.3 17.4 65.66 n/a
2016 04 24 9:00 270.3 0.0 0.00 67.9 19.9 58.37 n/a
2016 04 24 10:00 269.8 0.0 0.00 71.1 21.7 50.81 n/a
2016 04 24 11:00 269.5 0.0 0.00 73.3 22.9 48.66 n/a
2016 04 24 12:00 269.4 0.0 0.00 74.9 23.9 44.11 n/a
2016 04 24 13:00 269.5 0.0 0.00 75.5 24.2 44.03 n/a
2016 04 24 14:00 269.5 0.0 0.00 75.0 23.9 44 n/a
2016 04 24 15:00 269.5 0.0 0.00 76.2 24.6 44.36 n/a
2016 04 24 16:00 269.5 0.0 0.00 76.4 24.6 42.37 n/a
2016 04 24 17:00 269.2 0.0 0.00 76.3 24.6 41.64 n/a
2016 04 24 18:00 269.2 0.0 0.00 75.6 24.2 41.64 n/a
2016 04 24 19:00 269.8 0.0 0.00 73.4 23.0 44.63 n/a
2016 04 24 20:00 270.5 0.0 0.00 70.4 21.3 50.9 n/a
2016 04 24 21:00 270.9 0.0 0.00 68.3 20.2 55.52 n/a
2016 04 24 22:00 270.9 0.0 0.00 67.3 19.6 56.87 n/a
2016 04 24 23:00 271.4 0.0 0.00 65.9 18.9 60.44 n/a
2016 04 24 24:00 271.6 0.0 0.00 65.2 18.4 61.71 n/a
2016 04 25 1:00 271.6 0.0 0.00 65.1 18.4 61.73 n/a
2016 04 25 2:00 271.6 0.0 0.00 64.8 18.2 63.77 n/a
2016 04 25 3:00 272.0 0.0 0.00 63.9 17.7 67.69 n/a
2016 04 25 4:00 272.3 0.0 0.00 62.2 16.8 72.53 n/a
2016 04 25 5:00 272.3 0.0 0.00 61.0 16.1 73.77 n/a
2016 04 25 6:00 272.3 0.0 0.00 61.8 16.6 73.64 n/a
2016 04 25 7:00 272.3 0.0 0.00 62.5 16.9 74.69 n/a
2016 04 25 8:00 272.1 0.0 0.00 64.8 18.2 73.42 n/a
2016 04 25 9:00 271.5 0.0 0.00 66.8 19.3 74.57 n/a
2016 04 25 10:00 271.6 0.0 0.00 67.0 19.4 77.46 n/a
2016 04 25 11:00 271.6 0.0 0.00 68.8 20.4 75.27 n/a
2016 04 25 12:00 271.2 0.0 0.00 71.5 22.0 71.37 n/a
2016 04 25 13:00 271.6 0.0 0.00 70.9 21.6 73.06 n/a
2016 04 25 14:00 271.6 0.0 0.00 71.8 22.1 71.56 n/a
2016 04 25 15:00 271.6 0.0 0.00 71.9 22.2 70.94 n/a
2016 04 25 16:00 271.6 0.0 0.00 71.7 22.1 70.79 n/a
2016 04 25 17:00 271.7 0.0 0.00 71.8 22.1 70.83 n/a
2016 04 25 18:00 271.7 0.0 0.00 72.5 22.5 70 n/a
2016 04 25 19:00 272.2 0.0 0.00 71.6 22.0 71.19 n/a
2016 04 25 20:00 272.8 0.0 0.00 70.1 21.1 74.86 n/a
2016 04 25 21:00 273.7 0.0 0.00 68.5 20.3 78.66 n/a
2016 04 25 22:00 273.6 0.0 0.00 68.2 20.1 79.54 n/a
2016 04 25 23:00 273.9 0.0 0.00 67.4 19.6 81.9 n/a
2016 04 25 24:00 274.3 0.0 0.00 66.7 19.3 83 n/a
2016 04 26 1:00 274.4 0.0 0.00 66.9 19.4 81.9 n/a
2016 04 26 2:00 274.3 0.0 0.00 66.4 19.1 83.3 n/a
2016 04 26 3:00 274.4 0.0 0.00 65.8 18.8 84.5 n/a
2016 04 26 4:00 274.5 0.0 0.00 65.6 18.7 85.4 n/a
2016 04 26 5:00 274.4 0.0 0.00 65.8 18.8 86 n/a
2016 04 26 6:00 274.6 0.0 0.00 66.5 19.2 85.8 n/a
2016 04 26 7:00 273.9 0.0 0.00 67.6 19.8 83.6 n/a
2016 04 26 8:00 273.6 0.0 0.00 69.4 20.8 82.5 n/a
2016 04 26 9:00 273.5 0.0 0.00 70.6 21.5 83.1 n/a
2016 04 26 10:00 273.0 0.0 0.00 72.8 22.6 81.2 n/a
2016 04 26 11:00 Wet 289.2 0.0 0.00 63.3 17.4 82.6 n/a
2016 04 26 12:00 Wet 297.0 0.0 0.00 61.0 16.1 89.3 n/a
2016 04 26 13:00 Wet 293.0 0.0 0.25 63.7 17.6 83.5 n/a
2016 04 26 14:00 272.4 0.0 0.00 67.9 20.0 72.2 n/a
2016 04 26 15:00 272.2 0.0 0.00 69.0 20.6 69.79 n/a
2016 04 26 16:00 273.0 0.0 0.00 70.1 21.2 67.59 n/a
2016 04 26 17:00 271.6 0.0 0.00 73.7 23.2 63.42 n/a
2016 04 26 18:00 272.2 0.0 0.00 72.2 22.3 69.25 n/a
2016 04 26 19:00 272.7 0.0 0.00 70.5 21.4 71.39 n/a
2016 04 26 20:00 273.0 0.0 0.00 68.3 20.2 75.88 n/a
2016 04 26 21:00 273.6 0.0 0.00 66.9 19.4 78.54 n/a
2016 04 26 22:00 Wet 285.6 0.0 0.25 63.8 17.7 80.5 n/a
2016 04 26 23:00 Wet 334.1 0.0 1.02 58.0 14.4 86 n/a
2016 04 26 24:00 Wet 374.3 0.5 12.70 58.5 14.7 89.5 n/a
2016 04 27 1:00 Wet 447.0 0.1 2.54 57.9 14.4 95.1 n/a
2016 04 27 2:00 Wet 425.8 0.2 5.84 58.3 14.6 95.3 n/a
2016 04 27 3:00 Wet 446.9 0.2 4.83 57.2 14.0 93.2 n/a
2016 04 27 4:00 Wet 315.7 0.0 0.00 56.0 13.4 93.5 n/a
2016 04 27 5:00 Wet 286.7 0.0 0.00 55.8 13.2 90.8 n/a
2016 04 27 6:00 Wet 284.3 0.0 0.00 55.0 12.8 91.6 n/a
2016 04 27 7:00 281.8 0.0 0.00 55.1 12.8 91.4 n/a
2016 04 27 8:00 275.9 0.0 0.00 57.1 13.9 85.6 n/a
2016 04 27 9:00 272.6 0.0 0.00 61.1 16.2 80.4 n/a
2016 04 27 10:00 272.7 0.0 0.00 63.3 17.4 76.68 n/a
2016 04 27 11:00 272.1 0.0 0.00 65.3 18.5 73.18 n/a
2016 04 27 12:00 271.7 0.0 0.00 67.1 19.5 68.83 n/a
2016 04 27 13:00 271.5 0.0 0.00 68.6 20.3 63.56 n/a
2016 04 27 14:00 271.5 0.0 0.00 69.8 21.0 60.93 n/a
2016 04 27 15:00 271.4 0.0 0.00 71.0 21.6 56.32 n/a
2016 04 27 16:00 271.0 0.0 0.00 71.0 21.7 53.21 n/a
2016 04 27 17:00 271.0 0.0 0.00 69.2 20.6 58.31 n/a
2016 04 27 18:00 271.0 0.0 0.00 65.6 18.7 57.18 n/a
2016 04 27 19:00 271.3 0.0 0.00 63.0 17.2 58.73 n/a
2016 04 27 20:00 272.2 0.0 0.00 60.1 15.6 65.28 n/a
2016 04 27 21:00 273.0 0.0 0.00 57.7 14.3 70.47 n/a
2016 04 27 22:00 273.1 0.0 0.00 56.8 13.8 74.95 n/a
2016 04 27 23:00 273.3 0.0 0.00 55.7 13.2 75.03 n/a
2016 04 27 24:00 273.1 0.0 0.00 54.6 12.6 72.67 n/a
2016 04 28 1:00 273.2 0.0 0.00 53.2 11.8 73.56 n/a
2016 04 28 2:00 273.8 0.0 0.00 50.6 10.4 75.88 n/a
2016 04 28 3:00 273.3 0.0 0.00 49.7 9.8 71.72 n/a
2016 04 28 4:00 273.1 0.0 0.00 47.8 8.8 69.72 n/a
2016 04 28 5:00 273.5 0.0 0.00 46.0 7.8 73.07 n/a
2016 04 28 6:00 273.7 0.0 0.00 45.1 7.3 76.57 n/a
2016 04 28 7:00 272.6 0.0 0.00 46.4 8.0 74.04 n/a
2016 04 28 8:00 272.2 0.0 0.00 47.9 8.8 72.2 n/a
2016 04 28 9:00 272.0 0.0 0.00 49.7 9.8 70.75 n/a
2016 04 28 10:00 276.2 0.0 0.00 53.1 11.7 67.96 n/a
2016 04 28 11:00 271.7 0.0 0.00 55.6 13.1 64.87 n/a
2016 04 28 12:00 271.7 0.0 0.00 58.3 14.6 62.94 n/a
2016 04 28 13:00 271.7 0.0 0.00 60.6 15.9 60.44 n/a
2016 04 28 14:00 271.6 0.0 0.00 62.9 17.2 56.92 n/a
2016 04 28 15:00 271.6 0.0 0.00 64.8 18.2 54 n/a
2016 04 28 16:00 271.6 0.0 0.00 65.8 18.8 51.48 n/a
2016 04 28 17:00 271.0 0.0 0.00 66.2 19.0 50.09 n/a
2016 04 28 18:00 270.8 0.0 0.00 65.9 18.8 50.31 n/a
2016 04 28 19:00 271.4 0.0 0.00 64.4 18.0 55.11 n/a
2016 04 28 20:00 272.7 0.0 0.00 60.9 16.0 64.7 n/a
2016 04 28 21:00 273.0 0.0 0.00 57.9 14.4 73.03 n/a
2016 04 28 22:00 273.7 0.0 0.00 54.5 12.5 77.17 n/a
2016 04 28 23:00 273.7 0.0 0.00 53.0 11.6 77.96 n/a
2016 04 28 24:00 273.8 0.0 0.00 52.4 11.3 78.74 n/a
2016 04 29 1:00 273.8 0.0 0.00 51.9 11.1 81.2 n/a
2016 04 29 2:00 273.8 0.0 0.00 51.4 10.8 80.1 n/a
2016 04 29 3:00 273.8 0.0 0.00 50.8 10.4 79.91 n/a
2016 04 29 4:00 273.8 0.0 0.00 49.7 9.8 81.1 n/a
2016 04 29 5:00 273.8 0.0 0.00 48.8 9.3 81.6 n/a
2016 04 29 6:00 273.1 0.0 0.00 48.0 8.9 84.2 n/a
2016 04 29 7:00 274.1 0.0 0.00 48.5 9.1 84.5 n/a
2016 04 29 8:00 274.4 0.0 0.00 49.6 9.8 82.7 n/a
2016 04 29 9:00 273.6 0.0 0.00 51.4 10.8 78.71 n/a
2016 04 29 10:00 272.7 0.0 0.00 54.6 12.5 72.99 n/a
2016 04 29 11:00 272.3 0.0 0.00 57.2 14.0 69.67 n/a
2016 04 29 12:00 272.1 0.0 0.00 59.8 15.5 66.83 n/a
2016 04 29 13:00 272.0 0.0 0.00 61.2 16.2 65.26 n/a
2016 04 29 14:00 271.7 0.0 0.00 62.3 16.8 64 n/a
2016 04 29 15:00 271.8 0.0 0.00 63.3 17.4 62.9 n/a
2016 04 29 16:00 272.4 0.0 0.00 62.5 16.9 64.77 n/a
2016 04 29 17:00 Wet 406.2 0.1 2.54 59.3 15.2 77.3 n/a
2016 04 29 18:00 Wet 407.8 0.1 2.03 56.3 13.5 88.2 n/a
2016 04 29 19:00 Wet 461.6 0.1 3.30 54.9 12.7 92.2 n/a
2016 04 29 20:00 Wet 437.2 0.1 2.79 55.0 12.8 93.5 n/a
2016 04 29 21:00 Wet 398.4 0.1 1.52 56.3 13.5 92.9 n/a
2016 04 29 22:00 Wet 334.2 0.0 0.25 57.3 14.1 90.3 n/a
2016 04 29 23:00 Wet 397.3 0.1 2.29 56.9 13.8 93.6 n/a
2016 04 29 24:00 Wet 296.4 0.0 0.00 58.0 14.4 93.2 n/a
2016 04 30 1:00 276.8 0.0 0.00 58.6 14.8 91.2 n/a
2016 04 30 2:00 275.1 0.0 0.00 58.6 14.8 90.5 n/a
2016 04 30 3:00 275.1 0.0 0.00 58.6 14.8 91.5 n/a
2016 04 30 4:00 275.1 0.0 0.00 58.5 14.7 92.5 n/a
2016 04 30 5:00 275.1 0.0 0.00 58.4 14.7 93.1 n/a
2016 04 30 6:00 275.1 0.0 0.00 58.7 14.9 93.2 n/a
2016 04 30 7:00 274.8 0.0 0.00 59.6 15.3 92.5 n/a
2016 04 30 8:00 274.2 0.0 0.00 61.5 16.4 91.1 n/a
2016 04 30 9:00 273.4 0.0 0.00 64.3 17.9 86.3 n/a
2016 04 30 10:00 272.5 0.0 0.00 66.5 19.1 75.04 n/a
2016 04 30 11:00 271.7 0.0 0.00 66.4 19.1 69.31 n/a
2016 04 30 12:00 271.6 0.0 0.00 65.7 18.7 66.99 n/a
2016 04 30 13:00 271.5 0.0 0.00 66.0 18.9 63.22 n/a
2016 04 30 14:00 271.6 0.0 0.00 66.8 19.3 62.99 n/a
2016 04 30 15:00 271.6 0.0 0.00 66.7 19.3 59.13 n/a
2016 04 30 16:00 271.6 0.0 0.00 67.1 19.5 56.43 n/a
2016 04 30 17:00 271.1 0.0 0.00 67.2 19.6 56.2 n/a
2016 04 30 18:00 270.9 0.0 0.00 66.4 19.1 55.62 n/a
2016 04 30 19:00 271.5 0.0 0.00 63.2 17.3 56.95 n/a
2016 04 30 20:00 272.2 0.0 0.00 59.9 15.5 61.69 n/a
2016 04 30 21:00 273.1 0.0 0.00 57.6 14.2 67.02 n/a
2016 04 30 22:00 273.7 0.0 0.00 56.0 13.3 71.35 n/a
2016 04 30 23:00 274.2 0.0 0.00 54.8 12.7 74.56 n/a
2016 04 30 24:00 274.4 0.0 0.00 53.2 11.8 80.1 n/a
2016 05 01 1:00 274.0 0.0 0.00 52.3 11.3 81.8 n/a
2016 05 01 2:00 275.7 0.0 0.00 51.1 10.6 83.8 n/a
2016 05 01 3:00 Wet 286.0 0.0 0.00 49.3 9.6 88 n/a
2016 05 01 4:00 Wet 308.7 0.0 0.00 48.2 9.0 91.3 n/a
2016 05 01 5:00 Wet 352.5 0.0 0.00 47.1 8.4 94.4 n/a
2016 05 01 6:00 Wet 413.9 0.0 0.00 46.3 7.9 95.6 n/a
2016 05 01 7:00 Wet 436.1 0.0 0.00 47.7 8.7 94.1 n/a
2016 05 01 8:00 Wet 340.3 0.0 0.00 50.6 10.4 86.2 n/a
2016 05 01 9:00 272.5 0.0 0.00 53.9 12.1 74.81 n/a
2016 05 01 10:00 271.4 0.0 0.00 56.5 13.6 64.22 n/a
2016 05 01 11:00 271.3 0.0 0.00 57.6 14.2 59.2 n/a
2016 05 01 12:00 271.1 0.0 0.00 58.7 14.8 55.08 n/a
2016 05 01 13:00 271.0 0.0 0.00 59.4 15.2 54.03 n/a
2016 05 01 14:00 270.9 0.0 0.00 60.4 15.8 51.26 n/a
2016 05 01 15:00 271.0 0.0 0.00 61.1 16.2 51.41 n/a
2016 05 01 16:00 271.0 0.0 0.00 60.9 16.0 52.7 n/a
2016 05 01 17:00 271.0 0.0 0.00 60.3 15.7 52.59 n/a
2016 05 01 18:00 271.3 0.0 0.00 59.2 15.1 57.76 n/a
2016 05 01 19:00 271.8 0.0 0.00 57.3 14.1 63.66 n/a
2016 05 01 20:00 272.9 0.0 0.00 54.1 12.3 72.02 n/a
2016 05 01 21:00 273.0 0.0 0.00 54.4 12.4 73.32 n/a
2016 05 01 22:00 273.1 0.0 0.00 52.4 11.4 75.46 n/a
2016 05 01 23:00 273.1 0.0 0.00 51.1 10.6 78.04 n/a
2016 05 01 24:00 273.3 0.0 0.00 50.0 10.0 82.3 n/a
2016 05 02 1:00 273.8 0.0 0.00 49.2 9.6 84.5 n/a
2016 05 02 2:00 273.8 0.0 0.00 48.8 9.3 85.3 n/a
2016 05 02 3:00 273.8 0.0 0.00 48.5 9.1 86 n/a
2016 05 02 4:00 275.1 0.0 0.00 48.2 9.0 87.1 n/a
2016 05 02 5:00 Wet 313.6 0.0 0.00 47.8 8.8 88.4 n/a
2016 05 02 6:00 Wet 323.0 0.0 0.00 47.7 8.7 89.7 n/a
2016 05 02 7:00 Wet 302.8 0.0 0.00 48.0 8.9 88.9 n/a
2016 05 02 8:00 282.5 0.0 0.00 49.5 9.7 83.8 n/a
2016 05 02 9:00 273.1 0.0 0.00 51.3 10.7 77 n/a
2016 05 02 10:00 273.1 0.0 0.00 51.3 10.7 74.78 n/a
2016 05 02 11:00 272.6 0.0 0.00 52.6 11.5 70.6 n/a
2016 05 02 12:00 272.3 0.0 0.00 53.4 11.9 68.44 n/a
2016 05 02 13:00 272.1 0.0 0.00 53.9 12.2 67.35 n/a
2016 05 02 14:00 272.3 0.0 0.00 54.0 12.3 65.18 n/a
2016 05 02 15:00 272.3 0.0 0.00 53.2 11.8 67.99 n/a
2016 05 02 16:00 272.3 0.0 0.00 53.6 12.0 67.58 n/a
2016 05 02 17:00 272.4 0.0 0.00 54.4 12.4 66.24 n/a
2016 05 02 18:00 272.4 0.0 0.00 54.5 12.5 67.7 n/a
2016 05 02 19:00 272.9 0.0 0.00 53.5 12.0 71.09 n/a
2016 05 02 20:00 274.1 0.0 0.00 51.7 10.9 77.68 n/a
2016 05 02 21:00 Wet 290.2 0.0 0.00 48.7 9.3 86.5 n/a
2016 05 02 22:00 Wet 331.4 0.0 0.00 46.8 8.2 91.7 n/a
2016 05 02 23:00 Wet 388.1 0.0 0.00 45.7 7.6 94.7 n/a
2016 05 02 24:00 Wet 471.2 0.0 0.00 44.3 6.8 96 n/a
2016 05 03 1:00 Wet 535.4 0.0 0.00 43.0 6.1 96.7 n/a
2016 05 03 2:00 Wet 521.5 0.0 0.00 41.4 5.2 97 n/a
2016 05 03 3:00 Wet 425.1 0.0 0.00 41.7 5.4 97.7 n/a
2016 05 03 4:00 Wet 398.3 0.0 0.00 41.1 5.1 98 n/a
2016 05 03 5:00 Wet 395.0 0.0 0.00 41.1 5.1 98 n/a
2016 05 03 6:00 Wet 376.7 0.0 0.00 39.0 3.9 97.9 n/a
2016 05 03 7:00 Wet 320.6 0.0 0.00 42.0 5.5 97.8 n/a
2016 05 03 8:00 280.9 0.0 0.00 48.5 9.1 91.8 n/a
2016 05 03 9:00 271.4 0.0 0.00 55.3 13.0 70.37 n/a
2016 05 03 10:00 270.9 0.0 0.00 59.3 15.1 60.56 n/a
2016 05 03 11:00 270.1 0.0 0.00 61.8 16.6 47.68 n/a
2016 05 03 12:00 269.7 0.0 0.00 63.2 17.4 43.36 n/a
2016 05 03 13:00 269.8 0.0 0.00 64.4 18.0 41.35 n/a
2016 05 03 14:00 269.9 0.0 0.00 65.5 18.6 38.24 n/a
2016 05 03 15:00 269.9 0.0 0.00 65.9 18.8 38.8 n/a
2016 05 03 16:00 269.8 0.0 0.00 67.2 19.5 36.83 n/a
2016 05 03 17:00 269.5 0.0 0.00 67.6 19.8 35.6 n/a
2016 05 03 18:00 269.5 0.0 0.00 67.3 19.6 37.1 n/a
2016 05 03 19:00 270.0 0.0 0.00 65.2 18.4 42.27 n/a
2016 05 03 20:00 271.5 0.0 0.00 60.4 15.8 53.4 n/a
2016 05 03 21:00 272.3 0.0 0.00 57.1 14.0 61.61 n/a
2016 05 03 22:00 272.6 0.0 0.00 56.2 13.5 65.68 n/a
2016 05 03 23:00 272.7 0.0 0.00 55.5 13.1 69.53 n/a
2016 05 03 24:00 273.1 0.0 0.00 54.3 12.4 72.27 n/a
2016 05 04 1:00 273.3 0.0 0.00 53.6 12.0 73.61 n/a
2016 05 04 2:00 273.3 0.0 0.00 53.3 11.8 73.88 n/a
2016 05 04 3:00 273.9 0.0 0.00 52.1 11.2 77.27 n/a
2016 05 04 4:00 274.4 0.0 0.00 50.8 10.4 80.4 n/a
2016 05 04 5:00 273.8 0.0 0.00 51.8 11.0 77.89 n/a
2016 05 04 6:00 273.6 0.0 0.00 53.0 11.7 72.84 n/a
2016 05 04 7:00 272.1 0.0 0.00 55.3 12.9 67.52 n/a
2016 05 04 8:00 271.5 0.0 0.00 57.9 14.4 60.47 n/a
2016 05 04 9:00 271.0 0.0 0.00 60.9 16.1 50.74 n/a
2016 05 04 10:00 270.3 0.0 0.00 64.1 17.8 42.09 n/a
2016 05 04 11:00 269.9 0.0 0.00 66.2 19.0 34.09 n/a
2016 05 04 12:00 269.5 0.0 0.00 66.9 19.4 33.25 n/a
2016 05 04 13:00 269.5 0.0 0.00 67.8 19.9 34.2 n/a
2016 05 04 14:00 269.5 0.0 0.00 68.7 20.4 32.08 n/a
2016 05 04 15:00 269.5 0.0 0.00 69.4 20.8 29.77 n/a
2016 05 04 16:00 269.3 0.0 0.00 69.6 20.9 30.12 n/a
2016 05 04 17:00 268.9 0.0 0.00 69.2 20.7 29.33 n/a
2016 05 04 18:00 268.8 0.0 0.00 68.4 20.2 29.08 n/a
2016 05 04 19:00 269.2 0.0 0.00 65.5 18.6 36.17 n/a
2016 05 04 20:00 270.2 0.0 0.00 61.1 16.2 42.14 n/a
2016 05 04 21:00 270.9 0.0 0.00 57.7 14.3 47.84 n/a
2016 05 04 22:00 271.3 0.0 0.00 55.6 13.1 51 n/a
2016 05 04 23:00 271.7 0.0 0.00 53.7 12.1 55.54 n/a
2016 05 04 24:00 272.0 0.0 0.00 53.0 11.7 56.59 n/a
2016 05 05 1:00 273.8 0.0 0.00 48.0 8.9 73 n/a
2016 05 05 2:00 275.4 0.0 0.00 46.6 8.1 77.48 n/a
2016 05 05 3:00 280.5 0.0 0.00 45.2 7.4 82.1 n/a
2016 05 05 4:00 281.9 0.0 0.00 45.6 7.6 80.7 n/a
2016 05 05 5:00 Wet 284.0 0.0 0.00 44.2 6.8 85.9 n/a
2016 05 05 6:00 Wet 286.7 0.0 0.00 44.9 7.2 85.2 n/a
2016 05 05 7:00 273.5 0.0 0.00 48.4 9.1 78.98 n/a
2016 05 05 8:00 271.6 0.0 0.00 55.3 12.9 64.38 n/a
2016 05 05 9:00 270.7 0.0 0.00 60.8 16.0 50.57 n/a
2016 05 05 10:00 270.2 0.0 0.00 63.4 17.4 46.68 n/a
2016 05 05 11:00 269.6 0.0 0.00 66.1 18.9 38.27 n/a
2016 05 05 12:00 269.4 0.0 0.00 67.8 19.9 33.83 n/a
2016 05 05 13:00 269.2 0.0 0.00 69.3 20.7 31.39 n/a
2016 05 05 14:00 268.9 0.0 0.00 70.2 21.2 30.37 n/a
2016 05 05 15:00 268.8 0.0 0.00 71.0 21.7 27.03 n/a
2016 05 05 16:00 268.8 0.0 0.00 71.5 21.9 26.29 n/a
2016 05 05 17:00 268.3 0.0 0.00 71.5 21.9 26.33 n/a
2016 05 05 18:00 268.2 0.0 0.00 71.1 21.7 26.82 n/a
2016 05 05 19:00 268.9 0.0 0.00 68.8 20.4 31.26 n/a
2016 05 05 20:00 270.0 0.0 0.00 62.5 16.9 44.09 n/a
2016 05 05 21:00 270.9 0.0 0.00 58.4 14.7 52.6 n/a
2016 05 05 22:00 271.0 0.0 0.00 56.7 13.7 51.54 n/a
2016 05 05 23:00 271.7 0.0 0.00 53.7 12.0 59.38 n/a
2016 05 05 24:00 272.2 0.0 0.00 51.6 10.9 66.92 n/a
2016 05 06 1:00 273.4 0.0 0.00 50.1 10.1 73.92 n/a
2016 05 06 2:00 275.4 0.0 0.00 48.4 9.1 80.8 n/a
2016 05 06 3:00 280.1 0.0 0.00 47.0 8.3 85.3 n/a
2016 05 06 4:00 Wet 298.1 0.0 0.00 46.3 7.9 89 n/a
2016 05 06 5:00 Wet 320.1 0.0 0.00 45.4 7.4 91 n/a
2016 05 06 6:00 Wet 348.3 0.0 0.00 45.7 7.6 90.4 n/a
2016 05 06 7:00 Wet 302.4 0.0 0.00 52.1 11.2 76.61 n/a
2016 05 06 8:00 271.4 0.0 0.00 56.5 13.6 67.99 n/a
2016 05 06 9:00 270.4 0.0 0.00 62.0 16.7 54.63 n/a
2016 05 06 10:00 269.2 0.0 0.00 67.6 19.8 39.17 n/a
2016 05 06 11:00 268.8 0.0 0.00 70.8 21.5 36.85 n/a
2016 05 06 12:00 268.7 0.0 0.00 73.2 22.9 35.97 n/a
2016 05 06 13:00 268.8 0.0 0.00 75.2 24.0 35.61 n/a
2016 05 06 14:00 268.8 0.0 0.00 76.9 24.9 34.31 n/a
2016 05 06 15:00 268.8 0.0 0.00 78.1 25.6 33.55 n/a
2016 05 06 16:00 268.8 0.0 0.00 78.5 25.8 34.69 n/a
2016 05 06 17:00 268.5 0.0 0.00 78.1 25.6 35.36 n/a
2016 05 06 18:00 268.8 0.0 0.00 76.4 24.7 37.97 n/a
2016 05 06 19:00 269.7 0.0 0.00 72.4 22.4 44.94 n/a
2016 05 06 20:00 270.7 0.0 0.00 68.2 20.1 52.02 n/a
2016 05 06 21:00 271.3 0.0 0.00 65.6 18.6 58.7 n/a
2016 05 06 22:00 272.1 0.0 0.00 62.9 17.2 64.72 n/a
2016 05 06 23:00 272.3 0.0 0.00 61.2 16.2 68.07 n/a
2016 05 06 24:00 272.7 0.0 0.00 60.0 15.6 70.04 n/a
2016 05 07 1:00 273.1 0.0 0.00 59.6 15.3 70.7 n/a
2016 05 07 2:00 273.1 0.0 0.00 58.9 14.9 71.54 n/a
2016 05 07 3:00 273.1 0.0 0.00 58.2 14.6 72.53 n/a
2016 05 07 4:00 273.1 0.0 0.00 58.1 14.5 73.58 n/a
2016 05 07 5:00 273.1 0.0 0.00 57.1 14.0 76.42 n/a
2016 05 07 6:00 273.0 0.0 0.00 56.8 13.8 77.61 n/a
2016 05 07 7:00 271.8 0.0 0.00 60.2 15.7 72.09 n/a
2016 05 07 8:00 270.8 0.0 0.00 64.7 18.2 63.79 n/a
2016 05 07 9:00 270.0 0.0 0.00 69.6 20.9 55.91 n/a
2016 05 07 10:00 269.5 0.0 0.00 72.8 22.7 52 n/a
2016 05 07 11:00 269.2 0.0 0.00 75.7 24.3 48.71 n/a
2016 05 07 12:00 268.9 0.0 0.00 78.3 25.7 46.11 n/a
2016 05 07 13:00 268.8 0.0 0.00 80.1 26.7 42.08 n/a
2016 05 07 14:00 268.8 0.0 0.00 81.5 27.5 38.41 n/a
2016 05 07 15:00 268.8 0.0 0.00 82.3 28.0 34.53 n/a
2016 05 07 16:00 268.5 0.0 0.00 82.5 28.1 30.76 n/a
2016 05 07 17:00 268.1 0.0 0.00 82.7 28.2 28.53 n/a
2016 05 07 18:00 268.1 0.0 0.00 81.1 27.3 30.42 n/a
2016 05 07 19:00 269.0 0.0 0.00 76.9 24.9 39.23 n/a
2016 05 07 20:00 270.2 0.0 0.00 73.0 22.8 47.97 n/a
2016 05 07 21:00 270.7 0.0 0.00 70.8 21.6 52.14 n/a
2016 05 07 22:00 271.1 0.0 0.00 67.9 20.0 56.19 n/a
2016 05 07 23:00 271.4 0.0 0.00 66.4 19.1 59.86 n/a
2016 05 07 24:00 271.6 0.0 0.00 66.6 19.2 58.83 n/a
2016 05 08 1:00 271.7 0.0 0.00 64.9 18.3 63.59 n/a
2016 05 08 2:00 272.4 0.0 0.00 62.9 17.2 69.35 n/a
2016 05 08 3:00 272.8 0.0 0.00 62.3 16.8 71.46 n/a
2016 05 08 4:00 273.0 0.0 0.00 61.0 16.1 74.96 n/a
2016 05 08 5:00 273.0 0.0 0.00 61.0 16.1 75.32 n/a
2016 05 08 6:00 273.0 0.0 0.00 61.4 16.3 73.14 n/a
2016 05 08 7:00 271.3 0.0 0.00 63.9 17.7 66.35 n/a
2016 05 08 8:00 270.4 0.0 0.00 66.6 19.2 64.22 n/a
2016 05 08 9:00 270.3 0.0 0.00 70.1 21.2 60.99 n/a
2016 05 08 10:00 270.8 0.0 0.00 70.5 21.4 61.11 n/a
2016 05 08 11:00 278.4 0.0 0.00 69.2 20.7 65.84 n/a
2016 05 08 12:00 Wet 300.3 0.0 0.00 69.1 20.6 72.32 n/a
2016 05 08 13:00 Wet 304.6 0.0 0.25 68.0 20.0 77.02 n/a
2016 05 08 14:00 283.2 0.0 0.00 69.3 20.8 76.32 n/a
2016 05 08 15:00 Wet 288.6 0.0 0.25 70.8 21.5 68.17 n/a
2016 05 08 16:00 Wet 351.2 0.1 1.27 66.9 19.4 85.4 n/a
2016 05 08 17:00 277.2 0.0 0.00 67.6 19.8 89.5 n/a
2016 05 08 18:00 272.9 0.0 0.00 69.0 20.6 82.6 n/a
2016 05 08 19:00 274.1 0.0 0.00 66.6 19.2 92.6 n/a
2016 05 08 20:00 274.6 0.0 0.00 65.4 18.6 93.7 n/a
2016 05 08 21:00 Wet 301.5 0.0 0.00 66.0 18.9 90.4 n/a
2016 05 08 22:00 275.6 0.0 0.00 66.6 19.2 76.29 n/a
2016 05 08 23:00 273.7 0.0 0.00 66.1 19.0 77.6 n/a
2016 05 08 24:00 273.7 0.0 0.00 65.8 18.8 77.91 n/a
2016 05 09 1:00 273.7 0.0 0.00 65.4 18.6 75.94 n/a
2016 05 09 2:00 273.6 0.0 0.00 64.8 18.2 76.57 n/a
2016 05 09 3:00 273.7 0.0 0.00 63.8 17.7 78.45 n/a
2016 05 09 4:00 273.7 0.0 0.00 63.1 17.3 80.4 n/a
2016 05 09 5:00 273.8 0.0 0.00 62.2 16.8 83.3 n/a
2016 05 09 6:00 274.4 0.0 0.00 61.6 16.5 85.3 n/a
2016 05 09 7:00 273.9 0.0 0.00 62.5 17.0 84.4 n/a
2016 05 09 8:00 273.7 0.0 0.00 64.1 17.8 82.7 n/a
2016 05 09 9:00 273.5 0.0 0.00 65.3 18.5 81.4 n/a
2016 05 09 10:00 Wet 290.9 0.0 0.25 64.5 18.1 85 n/a
2016 05 09 11:00 Wet 381.9 0.1 3.05 63.2 17.3 91 n/a
2016 05 09 12:00 Wet 330.1 0.0 0.25 63.4 17.5 89.8 n/a
2016 05 09 13:00 279.1 0.0 0.00 65.1 18.4 85.6 n/a
2016 05 09 14:00 Wet 288.6 0.0 0.00 68.1 20.0 78.88 n/a
2016 05 09 15:00 272.2 0.0 0.00 71.3 21.8 68.58 n/a
2016 05 09 16:00 272.0 0.0 0.00 73.7 23.1 60.92 n/a
2016 05 09 17:00 271.1 0.0 0.00 73.8 23.2 56.62 n/a
2016 05 09 18:00 271.5 0.0 0.00 71.9 22.1 63.84 n/a
2016 05 09 19:00 272.4 0.0 0.00 69.2 20.7 71.96 n/a
2016 05 09 20:00 Wet 288.9 0.0 0.00 67.4 19.7 77.94 n/a
2016 05 09 21:00 274.4 0.0 0.00 66.3 19.0 81.8 n/a
2016 05 09 22:00 Wet 296.8 0.0 0.76 63.7 17.6 77.79 n/a
2016 05 09 23:00 Wet 334.1 0.0 0.25 57.4 14.1 91.6 n/a
2016 05 09 24:00 Wet 296.7 0.0 0.00 57.0 13.9 94.2 n/a
2016 05 10 1:00 Wet 285.2 0.0 0.00 57.4 14.1 91.4 n/a
2016 05 10 2:00 277.0 0.0 0.00 57.1 13.9 91.4 n/a
2016 05 10 3:00 Wet 304.5 0.0 0.00 56.8 13.8 94 n/a
2016 05 10 4:00 Wet 305.6 0.0 0.00 56.4 13.5 94.3 n/a
2016 05 10 5:00 Wet 314.0 0.0 0.00 55.8 13.2 95.9 n/a
2016 05 10 6:00 Wet 327.2 0.0 0.00 55.0 12.8 96.7 n/a
2016 05 10 7:00 Wet 290.5 0.0 0.00 57.5 14.2 93.8 n/a
2016 05 10 8:00 271.8 0.0 0.25 62.2 16.8 81.2 n/a
2016 05 10 9:00 271.3 0.0 0.00 65.3 18.5 79.2 n/a
2016 05 10 10:00 271.0 0.0 0.00 68.3 20.1 76.44 n/a
2016 05 10 11:00 270.8 0.0 0.00 71.4 21.9 69.48 n/a
2016 05 10 12:00 270.7 0.0 0.00 73.7 23.1 64.95 n/a
2016 05 10 13:00 270.6 0.0 0.00 75.7 24.3 61.4 n/a
2016 05 10 14:00 270.4 0.0 0.00 78.0 25.6 58.24 n/a
2016 05 10 15:00 270.7 0.0 0.00 79.5 26.4 53.09 n/a
2016 05 10 16:00 270.5 0.0 0.00 80.7 27.1 49.73 n/a
2016 05 10 17:00 269.6 0.0 0.00 81.1 27.3 48.99 n/a
2016 05 10 18:00 269.5 0.0 0.00 80.9 27.2 48.66 n/a
2016 05 10 19:00 270.1 0.0 0.00 79.3 26.3 52.61 n/a
2016 05 10 20:00 271.7 0.0 0.00 74.6 23.7 63.83 n/a
2016 05 10 21:00 272.5 0.0 0.00 71.3 21.8 70.71 n/a
2016 05 10 22:00 272.9 0.0 0.00 69.6 20.9 74.25 n/a
2016 05 10 23:00 273.3 0.0 0.00 68.2 20.1 76.5 n/a
2016 05 10 24:00 273.7 0.0 0.00 67.0 19.5 77.92 n/a
2016 05 11 1:00 273.7 0.0 0.00 66.6 19.2 78.66 n/a
2016 05 11 2:00 273.5 0.0 0.00 66.7 19.3 77.76 n/a
2016 05 11 3:00 273.1 0.0 0.00 68.3 20.1 73.15 n/a
2016 05 11 4:00 273.3 0.0 0.00 65.6 18.7 71.75 n/a
2016 05 11 5:00 Wet 293.6 0.0 0.00 65.5 18.6 69.58 n/a
2016 05 11 6:00 275.8 0.0 0.00 64.2 17.9 77.59 n/a
2016 05 11 7:00 Wet 287.6 0.0 0.00 65.0 18.4 75.49 n/a
2016 05 11 8:00 Wet 316.6 0.0 0.00 66.4 19.1 76.62 n/a
2016 05 11 9:00 278.4 0.0 0.00 70.7 21.5 69.38 n/a
2016 05 11 10:00 270.9 0.0 0.00 74.1 23.4 67.7 n/a
2016 05 11 11:00 270.2 0.0 0.00 78.0 25.6 60.3 n/a
2016 05 11 12:00 270.2 0.0 0.00 78.6 25.9 56.82 n/a
2016 05 11 13:00 270.2 0.0 0.00 79.4 26.4 54.54 n/a
2016 05 11 14:00 270.2 0.0 0.00 78.7 26.0 55.49 n/a
2016 05 11 15:00 270.4 0.0 0.00 78.2 25.6 56.83 n/a
2016 05 11 16:00 270.8 0.0 0.00 76.8 24.9 62.43 n/a
2016 05 11 17:00 271.6 0.0 0.00 74.9 23.8 69.51 n/a
2016 05 11 18:00 271.9 0.0 0.00 73.4 23.0 72.39 n/a
2016 05 11 19:00 272.2 0.0 0.00 70.1 21.1 76.36 n/a
2016 05 11 20:00 272.9 0.0 0.00 67.0 19.5 79.73 n/a
2016 05 11 21:00 273.5 0.0 0.00 65.2 18.4 82 n/a
2016 05 11 22:00 273.6 0.0 0.00 64.3 17.9 79.55 n/a
2016 05 11 23:00 273.7 0.0 0.00 63.6 17.6 80 n/a
2016 05 11 24:00 274.4 0.0 0.00 61.5 16.4 83.1 n/a
2016 05 12 1:00 274.8 0.0 0.00 60.5 15.8 84.3 n/a
2016 05 12 2:00 274.6 0.0 0.00 59.6 15.3 84.2 n/a
2016 05 12 3:00 274.0 0.0 0.00 60.0 15.5 80.7 n/a
2016 05 12 4:00 274.0 0.0 0.00 59.0 15.0 81.9 n/a
2016 05 12 5:00 274.6 0.0 0.00 57.1 13.9 85.6 n/a
2016 05 12 6:00 274.4 0.0 0.00 57.1 13.9 86.6 n/a
2016 05 12 7:00 273.8 0.0 0.00 57.5 14.2 78.93 n/a
2016 05 12 8:00 272.5 0.0 0.00 58.7 14.8 62.92 n/a
2016 05 12 9:00 271.1 0.0 0.00 62.4 16.9 49.72 n/a
2016 05 12 10:00 270.5 0.0 0.00 65.1 18.4 41.22 n/a
2016 05 12 11:00 270.2 0.0 0.00 66.7 19.3 37.23 n/a
2016 05 12 12:00 269.9 0.0 0.00 67.6 19.8 35.76 n/a
2016 05 12 13:00 269.6 0.0 0.00 68.8 20.5 33.99 n/a
2016 05 12 14:00 269.5 0.0 0.00 69.6 20.9 34.28 n/a
2016 05 12 15:00 269.5 0.0 0.00 70.1 21.1 34.24 n/a
2016 05 12 16:00 269.5 0.0 0.00 70.6 21.5 31.95 n/a
2016 05 12 17:00 268.9 0.0 0.00 70.5 21.4 32.61 n/a
2016 05 12 18:00 268.9 0.0 0.00 70.1 21.2 33.71 n/a
2016 05 12 19:00 269.5 0.0 0.00 68.3 20.1 36.86 n/a
2016 05 12 20:00 270.5 0.0 0.00 64.1 17.8 42.51 n/a
2016 05 12 21:00 271.0 0.0 0.00 60.7 15.9 49.11 n/a
2016 05 12 22:00 272.0 0.0 0.00 56.9 13.8 61.43 n/a
2016 05 12 23:00 273.0 0.0 0.00 54.8 12.7 67.06 n/a
2016 05 12 24:00 273.8 0.0 0.00 53.0 11.7 73.39 n/a
2016 05 13 1:00 277.1 0.0 0.00 50.8 10.5 82.7 n/a
2016 05 13 2:00 Wet 292.0 0.0 0.00 48.8 9.3 88.3 n/a
2016 05 13 3:00 Wet 315.4 0.0 0.00 48.8 9.3 88.7 n/a
2016 05 13 4:00 Wet 328.3 0.0 0.00 48.7 9.3 89.5 n/a
2016 05 13 5:00 Wet 351.5 0.0 0.00 48.4 9.1 89.9 n/a
2016 05 13 6:00 Wet 371.1 0.0 0.00 49.4 9.7 86.8 n/a
2016 05 13 7:00 Wet 285.4 0.0 0.00 54.4 12.5 75.37 n/a
2016 05 13 8:00 271.4 0.0 0.00 59.1 15.0 69.61 n/a
2016 05 13 9:00 270.3 0.0 0.00 66.3 19.1 52.88 n/a
2016 05 13 10:00 269.2 0.0 0.00 71.6 22.0 41.09 n/a
2016 05 13 11:00 268.8 0.0 0.00 73.9 23.3 40.06 n/a
2016 05 13 12:00 268.8 0.0 0.00 75.5 24.2 38.59 n/a
2016 05 13 13:00 268.8 0.0 0.00 77.3 25.2 37.07 n/a
2016 05 13 14:00 268.8 0.0 0.00 77.4 25.2 36.98 n/a
2016 05 13 15:00 268.8 0.0 0.00 77.0 25.0 37.37 n/a
2016 05 13 16:00 268.8 0.0 0.00 77.7 25.4 36.38 n/a
2016 05 13 17:00 270.4 0.0 0.00 73.5 23.1 43.58 n/a
2016 05 13 18:00 Wet 317.4 0.0 0.51 68.9 20.5 64.61 n/a
2016 05 13 19:00 272.5 0.0 0.00 67.7 19.8 70.87 n/a
2016 05 13 20:00 272.3 0.0 0.00 61.7 16.5 73.44 n/a
2016 05 13 21:00 272.3 0.0 0.00 56.9 13.8 65.84 n/a
2016 05 13 22:00 272.4 0.0 0.00 55.6 13.1 67.23 n/a
2016 05 13 23:00 272.4 0.0 0.00 51.2 10.7 62.47 n/a
2016 05 13 24:00 272.3 0.0 0.00 48.8 9.3 59.66 n/a
2016 05 14 1:00 272.4 0.0 0.00 46.7 8.2 65.54 n/a
2016 05 14 2:00 272.7 0.0 0.00 44.9 7.2 67.45 n/a
2016 05 14 3:00 273.2 0.0 0.00 42.9 6.1 71.95 n/a
2016 05 14 4:00 273.2 0.0 0.00 42.3 5.7 72.99 n/a
2016 05 14 5:00 273.2 0.0 0.00 42.5 5.9 75.85 n/a
2016 05 14 6:00 273.0 0.0 0.00 42.7 5.9 73.61 n/a
2016 05 14 7:00 272.5 0.0 0.00 44.2 6.8 60.79 n/a
2016 05 14 8:00 271.8 0.0 0.00 45.5 7.5 49.89 n/a
2016 05 14 9:00 271.4 0.0 0.00 47.1 8.4 48.2 n/a
2016 05 14 10:00 270.7 0.0 0.00 50.4 10.2 44.86 n/a
2016 05 14 11:00 270.5 0.0 0.00 51.6 10.9 43.65 n/a
2016 05 14 12:00 270.2 0.0 0.00 53.4 11.9 37.8 n/a
2016 05 14 13:00 269.7 0.0 0.00 55.7 13.1 35.34 n/a
2016 05 14 14:00 269.6 0.0 0.00 56.8 13.8 34.36 n/a
2016 05 14 15:00 269.6 0.0 0.00 57.2 14.0 34.93 n/a
2016 05 14 16:00 269.6 0.0 0.00 57.4 14.1 34.35 n/a
2016 05 14 17:00 269.5 0.0 0.00 58.9 14.9 33.1 n/a
2016 05 14 18:00 269.6 0.0 0.00 58.3 14.6 33.45 n/a
2016 05 14 19:00 269.6 0.0 0.00 56.8 13.8 36.21 n/a
2016 05 14 20:00 270.6 0.0 0.00 53.2 11.8 43.4 n/a
2016 05 14 21:00 271.3 0.0 0.00 49.5 9.7 52.17 n/a
2016 05 14 22:00 271.8 0.0 0.00 47.7 8.7 59.97 n/a
2016 05 14 23:00 272.7 0.0 0.00 45.7 7.6 68.48 n/a
2016 05 14 24:00 273.5 0.0 0.00 43.8 6.5 76.36 n/a
2016 05 15 1:00 273.1 0.0 0.00 44.9 7.2 70.26 n/a
2016 05 15 2:00 272.6 0.0 0.00 47.3 8.5 62.28 n/a
2016 05 15 3:00 278.5 0.0 0.00 42.5 5.8 85.5 n/a
2016 05 15 4:00 Wet 292.5 0.0 0.00 41.3 5.2 88.8 n/a
2016 05 15 5:00 Wet 308.7 0.0 0.00 40.3 4.6 89.8 n/a
2016 05 15 6:00 Wet 319.4 0.0 0.00 41.5 5.3 84.6 n/a
2016 05 15 7:00 273.9 0.0 0.00 47.9 8.8 69.04 n/a
2016 05 15 8:00 269.7 0.0 0.00 53.6 12.0 55.65 n/a
2016 05 15 9:00 268.9 0.0 0.00 57.7 14.3 41.79 n/a
2016 05 15 10:00 268.7 0.0 0.00 60.1 15.6 32.91 n/a
2016 05 15 11:00 268.3 0.0 0.00 61.5 16.4 31.01 n/a
2016 05 15 12:00 268.6 0.0 0.00 62.3 16.9 32.3 n/a
2016 05 15 13:00 268.4 0.0 0.00 63.2 17.4 30.5 n/a
2016 05 15 14:00 268.6 0.0 0.00 63.8 17.7 30.83 n/a
2016 05 15 15:00 268.7 0.0 0.00 64.3 17.9 31.87 n/a
2016 05 15 16:00 268.3 0.0 0.00 63.9 17.7 32.07 n/a
2016 05 15 17:00 268.9 0.0 0.00 62.8 17.1 35.11 n/a
2016 05 15 18:00 269.5 0.0 0.00 62.0 16.6 38.46 n/a
2016 05 15 19:00 270.0 0.0 0.00 60.2 15.6 44.36 n/a
2016 05 15 20:00 270.3 0.0 0.00 59.3 15.2 46.64 n/a
2016 05 15 21:00 270.8 0.0 0.00 58.4 14.7 51.58 n/a
2016 05 15 22:00 271.3 0.0 0.00 58.1 14.5 53.47 n/a
2016 05 15 23:00 Wet 286.3 0.0 0.00 56.7 13.7 59.92 n/a
2016 05 15 24:00 Wet 347.4 0.0 0.00 55.3 12.9 70.38 n/a
2016 05 16 1:00 Wet 298.9 0.0 0.25 54.2 12.3 75.74 n/a
2016 05 16 2:00 274.7 0.0 0.00 54.1 12.3 74.14 n/a
2016 05 16 3:00 Wet 306.4 0.0 0.00 53.3 11.8 79.8 n/a
2016 05 16 4:00 Wet 340.0 0.0 0.00 52.6 11.4 86.6 n/a
2016 05 16 5:00 Wet 293.6 0.0 0.00 52.2 11.2 85.6 n/a
2016 05 16 6:00 Wet 285.5 0.0 0.00 51.7 11.0 86.2 n/a
2016 05 16 7:00 Wet 427.9 0.0 1.02 51.3 10.7 90.3 n/a
2016 05 16 8:00 Wet 449.2 0.0 1.02 51.2 10.7 93.6 n/a
2016 05 16 9:00 Wet 464.6 0.1 1.52 51.1 10.6 92.9 n/a
2016 05 16 10:00 Wet 383.4 0.0 0.76 51.3 10.7 91.4 n/a
2016 05 16 11:00 Wet 311.7 0.0 0.00 52.0 11.1 89.4 n/a
2016 05 16 12:00 Wet 337.0 0.0 0.51 51.6 10.9 89 n/a
2016 05 16 13:00 Wet 464.2 0.1 2.54 51.3 10.7 92.9 n/a
2016 05 16 14:00 Wet 457.6 0.1 2.03 51.6 10.9 94.9 n/a
2016 05 16 15:00 Wet 338.7 0.0 0.00 52.3 11.3 93.7 n/a
2016 05 16 16:00 281.1 0.0 0.00 52.3 11.3 92.9 n/a
2016 05 16 17:00 Wet 434.7 0.0 0.51 52.2 11.2 94 n/a
2016 05 16 18:00 Wet 404.0 0.0 0.00 51.9 11.1 95.9 n/a
2016 05 16 19:00 Wet 381.7 0.0 0.25 51.7 10.9 96.4 n/a
2016 05 16 20:00 Wet 450.7 0.0 0.00 51.4 10.8 96.8 n/a
2016 05 16 21:00 Wet 434.5 0.0 0.25 50.9 10.5 96.6 n/a
2016 05 16 22:00 Wet 450.7 0.0 1.02 50.7 10.4 96.5 n/a
2016 05 16 23:00 Wet 439.9 0.1 2.03 50.3 10.2 96.5 n/a
2016 05 16 24:00 Wet 370.0 0.0 0.25 49.9 9.9 96.2 n/a
2016 05 17 1:00 Wet 450.3 0.1 1.27 49.5 9.7 95.9 n/a
2016 05 17 2:00 Wet 481.6 0.1 1.78 48.2 9.0 96.1 n/a
2016 05 17 3:00 Wet 426.5 0.0 0.25 47.5 8.6 95.4 n/a
2016 05 17 4:00 Wet 467.1 0.0 0.76 47.4 8.6 95.5 n/a
2016 05 17 5:00 Wet 485.1 0.0 0.76 47.4 8.6 95.8 n/a
2016 05 17 6:00 Wet 471.6 0.0 0.25 47.5 8.6 95.9 n/a
2016 05 17 7:00 Wet 449.2 0.0 0.51 47.7 8.7 95.4 n/a
2016 05 17 8:00 Wet 421.1 0.0 0.25 48.1 9.0 95 n/a
2016 05 17 9:00 Wet 329.9 0.0 0.00 48.7 9.3 93.8 n/a
2016 05 17 10:00 Wet 453.8 0.0 0.51 49.0 9.5 93.7 n/a
2016 05 17 11:00 Wet 481.6 0.0 0.51 49.9 10.0 93.9 n/a
2016 05 17 12:00 Wet 493.4 0.0 0.51 51.0 10.6 93.5 n/a
2016 05 17 13:00 Wet 366.2 0.0 0.00 52.2 11.2 90 n/a
2016 05 17 14:00 274.4 0.0 0.00 54.2 12.3 82.9 n/a
2016 05 17 15:00 273.7 0.0 0.00 54.9 12.7 79.27 n/a
2016 05 17 16:00 273.6 0.0 0.00 54.4 12.4 78.17 n/a
2016 05 17 17:00 273.7 0.0 0.00 53.8 12.1 79.77 n/a
2016 05 17 18:00 273.7 0.0 0.00 53.7 12.1 78.38 n/a
2016 05 17 19:00 273.7 0.0 0.00 53.6 12.0 77.45 n/a
2016 05 17 20:00 274.0 0.0 0.00 52.5 11.4 78.79 n/a
2016 05 17 21:00 276.9 0.0 0.00 49.7 9.8 85 n/a
2016 05 17 22:00 Wet 290.0 0.0 0.00 47.8 8.8 89.1 n/a
2016 05 17 23:00 Wet 337.2 0.0 0.00 46.1 7.8 94.4 n/a
2016 05 17 24:00 Wet 368.4 0.0 0.00 46.8 8.2 91.4 n/a
2016 05 18 1:00 Wet 407.1 0.0 0.00 46.3 7.9 91.3 n/a
2016 05 18 2:00 Wet 459.6 0.0 0.00 45.5 7.5 92.1 n/a
2016 05 18 3:00 Wet 534.3 0.0 0.00 44.7 7.0 94.4 n/a
2016 05 18 4:00 Wet 567.9 0.0 0.00 44.2 6.8 94.6 n/a
2016 05 18 5:00 Wet 567.1 0.0 0.00 44.0 6.7 95.2 n/a
2016 05 18 6:00 Wet 484.8 0.0 0.00 43.8 6.6 95.5 n/a
2016 05 18 7:00 Wet 372.4 0.0 0.00 48.8 9.3 87.1 n/a
2016 05 18 8:00 275.4 0.0 0.00 53.6 12.0 76.05 n/a
2016 05 18 9:00 271.9 0.0 0.00 57.5 14.2 66.21 n/a
2016 05 18 10:00 271.0 0.0 0.00 59.9 15.5 58.86 n/a
2016 05 18 11:00 271.3 0.0 0.00 61.1 16.2 57.16 n/a
2016 05 18 12:00 270.8 0.0 0.00 62.8 17.1 54.61 n/a
2016 05 18 13:00 270.6 0.0 0.00 63.7 17.6 51.79 n/a
2016 05 18 14:00 270.5 0.0 0.00 65.2 18.4 49.23 n/a
2016 05 18 15:00 270.3 0.0 0.00 66.4 19.1 44.44 n/a
2016 05 18 16:00 270.1 0.0 0.00 66.6 19.2 40.42 n/a
2016 05 18 17:00 269.7 0.0 0.00 66.4 19.1 40.92 n/a
2016 05 18 18:00 269.5 0.0 0.00 66.4 19.1 37.88 n/a
2016 05 18 19:00 269.8 0.0 0.00 64.8 18.2 43.12 n/a
2016 05 18 20:00 271.4 0.0 0.00 60.0 15.5 55.91 n/a
2016 05 18 21:00 272.7 0.0 0.00 55.2 12.9 67.89 n/a
2016 05 18 22:00 273.1 0.0 0.00 53.5 12.0 71.19 n/a
2016 05 18 23:00 273.8 0.0 0.00 51.5 10.9 76.28 n/a
2016 05 18 24:00 274.8 0.0 0.00 50.6 10.3 77.15 n/a
2016 05 19 1:00 275.2 0.0 0.00 50.0 10.0 77.16 n/a
2016 05 19 2:00 275.6 0.0 0.00 49.3 9.6 76.58 n/a
2016 05 19 3:00 Wet 285.2 0.0 0.00 46.8 8.2 84.4 n/a
2016 05 19 4:00 Wet 314.6 0.0 0.00 45.1 7.3 91 n/a
2016 05 19 5:00 Wet 367.5 0.0 0.00 44.0 6.7 93.8 n/a
2016 05 19 6:00 Wet 452.9 0.0 0.00 44.5 6.9 94.2 n/a
2016 05 19 7:00 Wet 345.7 0.0 0.00 52.1 11.2 73.88 n/a
2016 05 19 8:00 271.0 0.0 0.00 56.9 13.9 63.34 n/a
2016 05 19 9:00 270.5 0.0 0.00 60.9 16.1 54.01 n/a
2016 05 19 10:00 270.3 0.0 0.00 62.6 17.0 52.07 n/a
2016 05 19 11:00 270.0 0.0 0.00 63.5 17.5 49.5 n/a
2016 05 19 12:00 269.8 0.0 0.00 64.0 17.8 47.06 n/a
2016 05 19 13:00 269.6 0.0 0.00 64.5 18.0 46.16 n/a
2016 05 19 14:00 269.6 0.0 0.00 64.5 18.1 46.54 n/a
2016 05 19 15:00 269.8 0.0 0.00 64.6 18.1 47.44 n/a
2016 05 19 16:00 269.6 0.0 0.00 64.8 18.3 46.9 n/a
2016 05 19 17:00 270.0 0.0 0.00 64.5 18.1 48.28 n/a
2016 05 19 18:00 276.8 0.0 0.00 63.3 17.4 51.59 n/a
2016 05 19 19:00 Wet 297.6 0.0 0.00 61.4 16.3 59.09 n/a
2016 05 19 20:00 280.8 0.0 0.00 59.5 15.3 68.9 n/a
2016 05 19 21:00 279.7 0.0 0.00 59.1 15.1 69.79 n/a
2016 05 19 22:00 275.5 0.0 0.00 58.2 14.6 75.3 n/a
2016 05 19 23:00 273.1 0.0 0.00 57.4 14.1 78.74 n/a
2016 05 19 24:00 273.4 0.0 0.00 57.0 13.9 81 n/a
2016 05 20 1:00 273.7 0.0 0.00 56.7 13.7 84.4 n/a
2016 05 20 2:00 274.0 0.0 0.00 56.2 13.5 87.3 n/a
2016 05 20 3:00 Wet 311.5 0.0 0.00 55.8 13.2 87.9 n/a
2016 05 20 4:00 Wet 320.9 0.0 0.00 54.8 12.7 92.1 n/a
2016 05 20 5:00 Wet 311.1 0.0 0.25 54.6 12.5 93.4 n/a
2016 05 20 6:00 Wet 399.4 0.0 0.51 54.4 12.4 94.3 n/a
2016 05 20 7:00 Wet 336.5 0.0 0.00 54.8 12.7 94.3 n/a
2016 05 20 8:00 Wet 288.5 0.0 0.00 56.1 13.4 90.6 n/a
2016 05 20 9:00 276.1 0.0 0.00 57.9 14.4 83.5 n/a
2016 05 20 10:00 272.3 0.0 0.00 60.1 15.6 75.88 n/a
2016 05 20 11:00 272.1 0.0 0.00 61.1 16.2 70.2 n/a
2016 05 20 12:00 271.7 0.0 0.00 61.8 16.6 65.83 n/a
2016 05 20 13:00 270.8 0.0 0.00 64.0 17.8 59.46 n/a
2016 05 20 14:00 270.3 0.0 0.00 65.2 18.4 57.77 n/a
2016 05 20 15:00 270.2 0.0 0.00 66.1 19.0 55.62 n/a
2016 05 20 16:00 270.6 0.0 0.00 66.0 18.9 55.92 n/a
2016 05 20 17:00 270.6 0.0 0.00 65.8 18.8 56.59 n/a
2016 05 20 18:00 271.4 0.0 0.00 64.8 18.2 58.17 n/a
2016 05 20 19:00 271.6 0.0 0.00 63.9 17.7 63.1 n/a
2016 05 20 20:00 272.1 0.0 0.00 62.7 17.1 66.55 n/a
2016 05 20 21:00 272.3 0.0 0.00 61.8 16.6 70.57 n/a
2016 05 20 22:00 272.3 0.0 0.00 61.2 16.2 71.53 n/a
2016 05 20 23:00 272.7 0.0 0.00 60.4 15.8 73.87 n/a
2016 05 20 24:00 273.0 0.0 0.00 59.4 15.2 75.53 n/a
2016 05 21 1:00 273.1 0.0 0.00 58.3 14.6 78.38 n/a
2016 05 21 2:00 275.0 0.0 0.00 55.8 13.2 84.7 n/a
2016 05 21 3:00 283.2 0.0 0.00 53.8 12.1 90.5 n/a
2016 05 21 4:00 Wet 315.7 0.0 0.00 52.4 11.4 94 n/a
2016 05 21 5:00 Wet 357.3 0.0 0.00 51.8 11.0 94.8 n/a
2016 05 21 6:00 Wet 370.8 0.0 0.00 52.3 11.3 92.4 n/a
2016 05 21 7:00 283.1 0.0 0.00 56.2 13.4 83.1 n/a
2016 05 21 8:00 271.7 0.0 0.00 59.8 15.5 75.98 n/a
2016 05 21 9:00 270.8 0.0 0.00 62.9 17.1 66.43 n/a
2016 05 21 10:00 270.0 0.0 0.00 65.6 18.6 57.11 n/a
2016 05 21 11:00 269.6 0.0 0.00 67.9 19.9 50.03 n/a
2016 05 21 12:00 269.6 0.0 0.00 69.4 20.8 48.47 n/a
2016 05 21 13:00 269.7 0.0 0.00 70.6 21.5 45.81 n/a
2016 05 21 14:00 269.6 0.0 0.00 71.3 21.9 42.76 n/a
2016 05 21 15:00 270.1 0.0 0.00 72.1 22.3 43.35 n/a
2016 05 21 16:00 269.7 0.0 0.00 72.3 22.4 43.56 n/a
2016 05 21 17:00 269.5 0.0 0.00 72.1 22.3 44 n/a
2016 05 21 18:00 269.9 0.0 0.00 71.1 21.7 46.82 n/a
2016 05 21 19:00 270.9 0.0 0.00 69.7 20.9 50.5 n/a
2016 05 21 20:00 272.0 0.0 0.00 67.5 19.7 55.3 n/a
2016 05 21 21:00 Wet 288.9 0.0 0.25 64.1 17.8 67.81 n/a
2016 05 21 22:00 272.4 0.0 0.00 62.6 17.0 71.12 n/a
2016 05 21 23:00 272.8 0.0 0.00 62.0 16.6 73.71 n/a
2016 05 21 24:00 273.0 0.0 0.00 61.3 16.3 76.49 n/a
2016 05 22 1:00 273.6 0.0 0.00 59.9 15.5 79.11 n/a
2016 05 22 2:00 273.0 0.0 0.00 60.4 15.8 72.41 n/a
2016 05 22 3:00 273.0 0.0 0.00 59.6 15.3 69.22 n/a
2016 05 22 4:00 273.2 0.0 0.00 57.9 14.4 71.75 n/a
2016 05 22 5:00 273.5 0.0 0.00 57.0 13.9 72.74 n/a
2016 05 22 6:00 273.0 0.0 0.00 57.3 14.0 72.43 n/a
2016 05 22 7:00 271.1 0.0 0.00 61.7 16.5 65.25 n/a
2016 05 22 8:00 270.2 0.0 0.00 66.1 19.0 59.08 n/a
2016 05 22 9:00 269.6 0.0 0.00 68.7 20.4 56.64 n/a
2016 05 22 10:00 269.5 0.0 0.00 71.5 22.0 54.2 n/a
2016 05 22 11:00 269.5 0.0 0.00 73.7 23.1 53.34 n/a
2016 05 22 12:00 269.5 0.0 0.00 75.1 24.0 53.24 n/a
2016 05 22 13:00 269.7 0.0 0.00 76.3 24.6 52.9 n/a
2016 05 22 14:00 270.0 0.0 0.00 77.4 25.2 52.65 n/a
2016 05 22 15:00 270.2 0.0 0.00 78.0 25.6 51.7 n/a
2016 05 22 16:00 269.9 0.0 0.00 78.7 25.9 50.92 n/a
2016 05 22 17:00 269.5 0.0 0.00 78.9 26.0 50.6 n/a
2016 05 22 18:00 270.1 0.0 0.00 77.1 25.1 51.21 n/a
2016 05 22 19:00 270.3 0.0 0.00 75.8 24.3 51.59 n/a
2016 05 22 20:00 271.0 0.0 0.00 72.6 22.6 55.72 n/a
2016 05 22 21:00 271.6 0.0 0.00 70.0 21.1 59.97 n/a
2016 05 22 22:00 271.6 0.0 0.00 68.3 20.1 62.85 n/a
2016 05 22 23:00 271.9 0.0 0.00 67.1 19.5 64.55 n/a
2016 05 22 24:00 272.3 0.0 0.00 65.8 18.8 65.04 n/a
2016 05 23 1:00 272.3 0.0 0.00 64.7 18.1 66.08 n/a
2016 05 23 2:00 272.3 0.0 0.00 63.3 17.4 70.18 n/a
2016 05 23 3:00 272.3 0.0 0.00 62.9 17.1 71.62 n/a
2016 05 23 4:00 272.6 0.0 0.00 62.3 16.8 73.15 n/a
2016 05 23 5:00 273.0 0.0 0.00 61.7 16.5 74.33 n/a
2016 05 23 6:00 272.7 0.0 0.00 61.6 16.5 73.7 n/a
2016 05 23 7:00 271.6 0.0 0.00 63.9 17.7 68.29 n/a
2016 05 23 8:00 270.6 0.0 0.00 67.4 19.6 63.15 n/a
2016 05 23 9:00 270.8 0.0 0.00 68.9 20.5 61.58 n/a
2016 05 23 10:00 270.2 0.0 0.00 71.9 22.2 58.83 n/a
2016 05 23 11:00 270.4 0.0 0.00 73.3 22.9 56.81 n/a
2016 05 23 12:00 269.8 0.0 0.00 75.7 24.3 55.95 n/a
2016 05 23 13:00 269.6 0.0 0.00 77.8 25.5 52.99 n/a
2016 05 23 14:00 270.5 0.0 0.00 73.7 23.2 57.82 n/a
2016 05 23 15:00 270.5 0.0 0.00 72.8 22.6 61.4 n/a
2016 05 23 16:00 270.8 0.0 0.00 72.4 22.4 63.59 n/a
2016 05 23 17:00 271.1 0.0 0.00 72.4 22.4 65.7 n/a
2016 05 23 18:00 271.6 0.0 0.00 71.7 22.0 67.91 n/a
2016 05 23 19:00 271.6 0.0 0.00 71.7 22.0 66.35 n/a
2016 05 23 20:00 272.3 0.0 0.00 68.8 20.4 73.66 n/a
2016 05 23 21:00 273.3 0.0 0.00 66.2 19.0 82 n/a
2016 05 23 22:00 274.0 0.0 0.00 64.8 18.2 84.7 n/a
2016 05 23 23:00 274.9 0.0 0.00 63.6 17.5 87.6 n/a
2016 05 23 24:00 278.0 0.0 0.00 62.5 16.9 90.4 n/a
2016 05 24 1:00 277.1 0.0 0.00 62.3 16.8 91.6 n/a
2016 05 24 2:00 275.2 0.0 0.00 62.8 17.1 91.3 n/a
2016 05 24 3:00 275.1 0.0 0.00 63.0 17.2 90.4 n/a
2016 05 24 4:00 275.2 0.0 0.00 62.9 17.1 90.4 n/a
2016 05 24 5:00 275.0 0.0 0.00 63.4 17.4 89.4 n/a
2016 05 24 6:00 274.8 0.0 0.00 63.5 17.5 89.8 n/a
2016 05 24 7:00 274.4 0.0 0.00 64.3 18.0 88.4 n/a
2016 05 24 8:00 Wet 371.9 0.0 0.76 64.1 17.8 91.2 n/a
2016 05 24 9:00 Wet 284.3 0.0 0.00 65.3 18.5 92.2 n/a
2016 05 24 10:00 Wet 289.0 0.0 0.00 66.7 19.3 92 n/a
2016 05 24 11:00 282.9 0.0 0.25 66.8 19.3 92.6 n/a
2016 05 24 12:00 Wet 301.0 0.0 0.00 66.3 19.0 94.1 n/a
2016 05 24 13:00 280.7 0.0 0.00 66.7 19.3 92.5 n/a
2016 05 24 14:00 272.5 0.0 0.00 70.2 21.2 78.28 n/a
2016 05 24 15:00 272.4 0.0 0.00 73.6 23.1 73.02 n/a
2016 05 24 16:00 272.4 0.0 0.00 75.1 24.0 71.38 n/a
2016 05 24 17:00 272.2 0.0 0.00 76.7 24.8 73.74 n/a
2016 05 24 18:00 272.3 0.0 0.00 77.4 25.2 74.38 n/a
2016 05 24 19:00 272.7 0.0 0.00 75.2 24.0 74.14 n/a
2016 05 24 20:00 273.4 0.0 0.00 73.1 22.8 80 n/a
2016 05 24 21:00 273.6 0.0 0.00 69.8 21.0 79.99 n/a
2016 05 24 22:00 274.0 0.0 0.00 67.3 19.6 83.6 n/a
2016 05 24 23:00 274.3 0.0 0.00 66.5 19.2 86.4 n/a
2016 05 24 24:00 274.8 0.0 0.00 65.9 18.8 89.1 n/a
2016 05 25 1:00 275.1 0.0 0.00 65.9 18.8 90.5 n/a
2016 05 25 2:00 276.7 0.0 0.00 65.9 18.8 92.1 n/a
2016 05 25 3:00 Wet 315.4 0.0 0.51 66.6 19.2 91.5 n/a
2016 05 25 4:00 Wet 288.0 0.0 0.00 65.8 18.8 88.5 n/a
2016 05 25 5:00 Wet 290.7 0.0 0.00 64.6 18.1 86.8 n/a
2016 05 25 6:00 275.8 0.0 0.00 64.5 18.1 80.5 n/a
2016 05 25 7:00 273.8 0.0 0.00 66.6 19.2 73.62 n/a
2016 05 25 8:00 273.0 0.0 0.00 69.2 20.7 63.55 n/a
2016 05 25 9:00 272.6 0.0 0.00 69.4 20.8 65.49 n/a
2016 05 25 10:00 272.1 0.0 0.00 71.6 22.0 65.35 n/a
2016 05 25 11:00 270.7 0.0 0.00 74.6 23.7 58.55 n/a
2016 05 25 12:00 269.9 0.0 0.00 77.1 25.1 55.42 n/a
2016 05 25 13:00 269.7 0.0 0.00 79.7 26.5 53.65 n/a
2016 05 25 14:00 269.6 0.0 0.00 80.8 27.1 53.03 n/a
2016 05 25 15:00 270.3 0.0 0.00 81.0 27.2 53.44 n/a
2016 05 25 16:00 270.4 0.0 0.00 82.2 27.9 54.46 n/a
2016 05 25 17:00 270.2 0.0 0.00 82.2 27.9 57.27 n/a
2016 05 25 18:00 270.7 0.0 0.00 81.5 27.5 62.77 n/a
2016 05 25 19:00 271.4 0.0 0.00 79.7 26.5 68.35 n/a
2016 05 25 20:00 272.4 0.0 0.00 77.5 25.3 73.94 n/a
2016 05 25 21:00 272.9 0.0 0.00 76.0 24.5 77.46 n/a
2016 05 25 22:00 272.9 0.0 0.00 75.7 24.3 78.37 n/a
2016 05 25 23:00 273.3 0.0 0.00 74.8 23.8 81.6 n/a
2016 05 25 24:00 273.6 0.0 0.00 74.0 23.4 84.7 n/a
2016 05 26 1:00 273.9 0.0 0.00 73.7 23.1 86.4 n/a
2016 05 26 2:00 274.3 0.0 0.00 73.2 22.9 88.3 n/a
2016 05 26 3:00 276.3 0.0 0.00 69.7 20.9 74.73 n/a
2016 05 26 4:00 Wet 315.0 0.0 0.25 64.6 18.1 91.3 n/a
2016 05 26 5:00 Wet 310.8 0.0 0.51 64.8 18.2 92.2 n/a
2016 05 26 6:00 Wet 325.2 0.0 0.25 65.0 18.3 93.1 n/a
2016 05 26 7:00 283.1 0.0 0.00 64.7 18.2 91.9 n/a
2016 05 26 8:00 273.9 0.0 0.00 66.4 19.1 89.5 n/a
2016 05 26 9:00 271.8 0.0 0.00 70.6 21.4 78.97 n/a
2016 05 26 10:00 270.9 0.0 0.00 75.2 24.0 71.26 n/a
2016 05 26 11:00 270.9 0.0 0.00 78.6 25.9 69.21 n/a
2016 05 26 12:00 270.7 0.0 0.00 81.9 27.7 66.23 n/a
2016 05 26 13:00 271.0 0.0 0.00 83.4 28.6 65.97 n/a
2016 05 26 14:00 270.9 0.0 0.00 85.0 29.5 64.11 n/a
2016 05 26 15:00 270.8 0.0 0.00 85.8 29.9 59.9 n/a
2016 05 26 16:00 270.8 0.0 0.00 85.2 29.6 58.54 n/a
2016 05 26 17:00 270.8 0.0 0.00 84.1 28.9 61.02 n/a
2016 05 26 18:00 272.1 0.0 0.00 81.5 27.5 63.17 n/a
2016 05 26 19:00 Wet 359.2 0.1 3.56 64.5 18.1 89.3 n/a
2016 05 26 20:00 Wet 328.4 0.1 1.27 63.6 17.6 94.2 n/a
2016 05 26 21:00 281.8 0.0 0.00 63.6 17.5 94.7 n/a
2016 05 26 22:00 Wet 287.0 0.0 0.00 63.5 17.5 96 n/a
2016 05 26 23:00 278.4 0.0 0.00 63.9 17.7 94.6 n/a
2016 05 26 24:00 275.9 0.0 0.00 63.8 17.6 93.8 n/a
2016 05 27 1:00 277.4 0.0 0.00 63.2 17.3 95 n/a
2016 05 27 2:00 276.6 0.0 0.00 63.4 17.4 95.7 n/a
2016 05 27 3:00 Wet 343.4 0.1 3.05 63.1 17.3 92.9 n/a
2016 05 27 4:00 Wet 284.8 0.0 0.00 60.8 16.0 85.5 n/a
2016 05 27 5:00 280.2 0.0 0.00 58.9 15.0 88.6 n/a
2016 05 27 6:00 Wet 291.4 0.0 0.00 58.0 14.5 93.1 n/a
2016 05 27 7:00 273.4 0.0 0.00 61.2 16.2 87.2 n/a
2016 05 27 8:00 271.9 0.0 0.00 65.2 18.4 79.17 n/a
2016 05 27 9:00 271.3 0.0 0.00 69.2 20.7 70.64 n/a
2016 05 27 10:00 272.1 0.0 0.00 70.5 21.4 71.1 n/a
2016 05 27 11:00 272.2 0.0 0.00 71.9 22.1 73.66 n/a
2016 05 27 12:00 271.6 0.0 0.00 74.5 23.6 74.26 n/a
2016 05 27 13:00 271.6 0.0 0.00 75.5 24.2 72.47 n/a
2016 05 27 14:00 271.6 0.0 0.00 76.9 24.9 70.07 n/a
2016 05 27 15:00 272.0 0.0 0.00 75.6 24.2 70.38 n/a
2016 05 27 16:00 274.7 0.0 0.00 73.2 22.9 77.73 n/a
2016 05 27 17:00 275.2 0.0 0.00 71.7 22.1 75.15 n/a
2016 05 27 18:00 272.7 0.0 0.00 71.7 22.0 75.59 n/a
2016 05 27 19:00 273.1 0.0 0.00 70.7 21.5 79.45 n/a
2016 05 27 20:00 273.7 0.0 0.00 68.9 20.5 83.5 n/a
2016 05 27 21:00 274.6 0.0 0.00 67.5 19.7 87.7 n/a
2016 05 27 22:00 Wet 313.9 0.3 6.35 65.3 18.5 90 n/a
2016 05 27 23:00 Wet 401.2 0.3 6.60 58.9 14.9 96.3 n/a
2016 05 27 24:00 Wet 320.6 0.0 0.25 59.0 15.0 96.9 n/a
2016 05 28 1:00 Wet 341.3 0.0 0.25 58.8 14.9 97.1 n/a
2016 05 28 2:00 Wet 319.6 0.0 0.00 58.5 14.8 96.3 n/a
2016 05 28 3:00 Wet 319.5 0.0 0.00 58.8 14.9 95.9 n/a
2016 05 28 4:00 Wet 308.8 0.0 0.00 59.2 15.1 94.6 n/a
2016 05 28 5:00 281.1 0.0 0.00 61.2 16.2 92.1 n/a
2016 05 28 6:00 277.8 0.0 0.00 62.2 16.8 92.5 n/a
2016 05 28 7:00 274.2 0.0 0.00 63.9 17.7 90.2 n/a
2016 05 28 8:00 273.8 0.0 0.00 65.8 18.8 86.5 n/a
2016 05 28 9:00 273.0 0.0 0.00 67.7 19.9 79.31 n/a
2016 05 28 10:00 272.1 0.0 0.00 70.3 21.3 74.29 n/a
2016 05 28 11:00 271.8 0.0 0.00 71.7 22.1 70 n/a
2016 05 28 12:00 271.3 0.0 0.00 73.1 22.8 65.89 n/a
2016 05 28 13:00 271.1 0.0 0.00 74.3 23.5 62.86 n/a
2016 05 28 14:00 270.9 0.0 0.00 75.6 24.2 59.54 n/a
2016 05 28 15:00 271.0 0.0 0.00 76.1 24.5 57.96 n/a
2016 05 28 16:00 270.9 0.0 0.00 77.1 25.0 56.42 n/a
2016 05 28 17:00 270.9 0.0 0.00 76.9 24.9 57.42 n/a
2016 05 28 18:00 271.3 0.0 0.00 76.0 24.4 58.53 n/a
2016 05 28 19:00 270.9 0.0 0.00 75.9 24.4 58.11 n/a
2016 05 28 20:00 271.9 0.0 0.00 73.1 22.8 63.93 n/a
2016 05 28 21:00 273.0 0.0 0.00 69.7 21.0 72.09 n/a
2016 05 28 22:00 275.4 0.0 0.00 67.0 19.4 80.1 n/a
2016 05 28 23:00 280.5 0.0 0.00 64.9 18.3 86.8 n/a
2016 05 28 24:00 Wet 288.9 0.0 0.00 64.4 18.0 87.5 n/a
2016 05 29 1:00 Wet 284.7 0.0 0.00 64.0 17.8 86.9 n/a
2016 05 29 2:00 Wet 305.7 0.0 0.00 62.4 16.9 92.1 n/a
2016 05 29 3:00 Wet 334.7 0.0 0.00 62.3 16.8 94.1 n/a
2016 05 29 4:00 Wet 369.1 0.0 0.00 61.8 16.6 95.3 n/a
2016 05 29 5:00 Wet 438.0 0.0 0.00 61.1 16.2 96.2 n/a
2016 05 29 6:00 Wet 485.5 0.0 0.00 61.8 16.5 97.2 n/a
2016 05 29 7:00 Wet 328.7 0.0 0.00 66.3 19.0 90.4 n/a
2016 05 29 8:00 271.6 0.0 0.00 70.3 21.3 83.2 n/a
2016 05 29 9:00 270.9 0.0 0.00 74.5 23.6 75.91 n/a
2016 05 29 10:00 270.4 0.0 0.00 77.7 25.4 69.39 n/a
2016 05 29 11:00 270.2 0.0 0.00 79.6 26.5 62.96 n/a
2016 05 29 12:00 269.8 0.0 0.00 81.3 27.4 55.88 n/a
2016 05 29 13:00 269.2 0.0 0.00 83.0 28.4 48.4 n/a
2016 05 29 14:00 269.2 0.0 0.00 84.0 28.9 44.93 n/a
2016 05 29 15:00 269.4 0.0 0.00 84.1 29.0 42.42 n/a
2016 05 29 16:00 269.2 0.0 0.00 83.8 28.8 39.63 n/a
2016 05 29 17:00 269.0 0.0 0.00 83.2 28.4 39.29 n/a
2016 05 29 18:00 268.7 0.0 0.00 84.5 29.2 40.51 n/a
2016 05 29 19:00 270.4 0.0 0.00 79.9 26.6 50.69 n/a
2016 05 29 20:00 271.4 0.0 0.00 76.5 24.7 60.73 n/a
2016 05 29 21:00 272.2 0.0 0.00 74.0 23.3 66.56 n/a
2016 05 29 22:00 272.7 0.0 0.00 72.7 22.6 68.95 n/a
2016 05 29 23:00 275.3 0.0 0.00 68.6 20.4 81.2 n/a
2016 05 29 24:00 279.6 0.0 0.00 67.0 19.4 85.3 n/a
2016 05 30 1:00 Wet 291.0 0.0 0.00 66.0 18.9 89.2 n/a
2016 05 30 2:00 Wet 300.8 0.0 0.00 65.3 18.5 90.1 n/a
2016 05 30 3:00 Wet 317.4 0.0 0.00 65.1 18.4 91.7 n/a
2016 05 30 4:00 Wet 345.5 0.0 0.00 64.3 17.9 93.5 n/a
2016 05 30 5:00 Wet 382.4 0.0 0.00 64.0 17.8 95.4 n/a
2016 05 30 6:00 Wet 429.7 0.0 0.00 64.8 18.2 95.1 n/a
2016 05 30 7:00 Wet 309.3 0.0 0.00 68.2 20.1 88.4 n/a
2016 05 30 8:00 271.3 0.0 0.00 72.2 22.3 80.5 n/a
2016 05 30 9:00 270.2 0.0 0.00 75.8 24.3 70.39 n/a
2016 05 30 10:00 270.3 0.0 0.00 78.2 25.6 69.63 n/a
2016 05 30 11:00 270.3 0.0 0.00 79.8 26.5 66.35 n/a
2016 05 30 12:00 273.2 0.0 0.00 77.8 25.4 66.93 n/a
2016 05 30 13:00 Wet 290.1 0.0 0.51 74.0 23.4 73.56 n/a
2016 05 30 14:00 Wet 321.8 0.2 3.81 68.1 20.1 82.3 n/a
2016 05 30 15:00 Wet 309.8 0.1 1.52 65.4 18.6 86.6 n/a
2016 05 30 16:00 272.6 0.0 0.00 68.1 20.1 78.27 n/a
2016 05 30 17:00 272.9 0.0 0.00 67.9 19.9 77.4 n/a
2016 05 30 18:00 273.0 0.0 0.00 66.6 19.2 83.5 n/a
2016 05 30 19:00 272.7 0.0 0.00 68.0 20.0 83.6 n/a
2016 05 30 20:00 275.2 0.0 0.00 65.3 18.5 88.4 n/a
2016 05 30 21:00 Wet 287.9 0.0 0.00 63.5 17.5 92.5 n/a
2016 05 30 22:00 Wet 317.1 0.0 0.00 62.5 16.9 94.4 n/a
2016 05 30 23:00 Wet 350.2 0.0 0.00 61.5 16.4 96 n/a
2016 05 30 24:00 Wet 414.5 0.0 0.00 61.5 16.4 96.7 n/a
2016 05 31 1:00 Wet 424.1 0.0 0.00 62.0 16.6 96.3 n/a
2016 05 31 2:00 Wet 425.3 0.0 0.00 62.1 16.7 95.4 n/a
2016 05 31 3:00 Wet 451.8 0.0 0.00 62.1 16.7 94.5 n/a
2016 05 31 4:00 Wet 418.4 0.0 0.00 62.8 17.1 93.8 n/a
2016 05 31 5:00 Wet 423.1 0.0 0.00 62.0 16.7 94.9 n/a
2016 05 31 6:00 Wet 436.6 0.0 0.00 62.0 16.7 94.7 n/a
2016 05 31 7:00 Wet 350.6 0.0 0.00 64.1 17.8 92.5 n/a
2016 05 31 8:00 275.7 0.0 0.00 65.9 18.9 90.3 n/a
2016 05 31 9:00 273.1 0.0 0.00 68.8 20.4 85.3 n/a
2016 05 31 10:00 272.7 0.0 0.00 70.2 21.2 81.8 n/a
2016 05 31 11:00 271.6 0.0 0.00 72.8 22.6 75.63 n/a
2016 05 31 12:00 274.0 0.0 0.00 73.1 22.8 75.23 n/a
2016 05 31 13:00 271.4 0.0 0.00 75.1 24.0 69 n/a
2016 05 31 14:00 270.9 0.0 0.00 76.7 24.9 63.12 n/a
2016 05 31 15:00 270.7 0.0 0.00 77.8 25.5 60.48 n/a
2016 05 31 16:00 271.5 0.0 0.00 76.1 24.5 63.84 n/a
2016 05 31 17:00 271.3 0.0 0.00 76.8 24.9 63.19 n/a
2016 05 31 18:00 271.1 0.0 0.00 77.2 25.1 62.73 n/a
2016 05 31 19:00 271.3 0.0 0.00 77.4 25.2 61.23 n/a
2016 05 31 20:00 272.3 0.0 0.00 75.1 23.9 67.19 n/a
2016 05 31 21:00 273.1 0.0 0.00 72.6 22.6 74.45 n/a
2016 05 31 22:00 273.5 0.0 0.00 71.3 21.8 79.88 n/a
2016 05 31 23:00 274.1 0.0 0.00 70.3 21.3 86.3 n/a
2016 05 31 24:00 274.4 0.0 0.00 69.7 20.9 88 n/a
2016 06 01 1:00 275.0 0.0 0.00 68.8 20.5 88.5 n/a
2016 06 01 2:00 274.5 0.0 0.00 67.8 19.9 85.7 n/a
2016 06 01 3:00 276.0 0.0 0.00 65.9 18.9 90 n/a
2016 06 01 4:00 Wet 286.7 0.0 0.00 64.7 18.1 93.3 n/a
2016 06 01 5:00 Wet 304.5 0.0 0.00 64.0 17.8 92.7 n/a
2016 06 01 6:00 Wet 319.2 0.0 0.00 64.0 17.8 92.3 n/a
2016 06 01 7:00 276.0 0.0 0.00 67.7 19.8 84.3 n/a
2016 06 01 8:00 272.6 0.0 0.00 70.1 21.1 80.2 n/a
2016 06 01 9:00 270.8 0.0 0.00 74.1 23.4 69.99 n/a
2016 06 01 10:00 270.5 0.0 0.00 76.2 24.5 63.43 n/a
2016 06 01 11:00 270.3 0.0 0.00 77.5 25.3 58.92 n/a
2016 06 01 12:00 270.6 0.0 0.00 77.6 25.3 58.79 n/a
2016 06 01 13:00 270.2 0.0 0.00 79.6 26.4 54.66 n/a
2016 06 01 14:00 270.2 0.0 0.00 80.6 27.0 52.46 n/a
2016 06 01 15:00 270.3 0.0 0.00 80.5 26.9 51.35 n/a
2016 06 01 16:00 270.2 0.0 0.00 80.4 26.9 48.24 n/a
2016 06 01 17:00 270.2 0.0 0.00 79.7 26.5 48.75 n/a
2016 06 01 18:00 270.4 0.0 0.00 77.7 25.4 52.45 n/a
2016 06 01 19:00 271.1 0.0 0.00 75.3 24.1 57.63 n/a
2016 06 01 20:00 272.6 0.0 0.00 71.2 21.8 69.17 n/a
2016 06 01 21:00 273.8 0.0 0.00 68.1 20.0 77.84 n/a
2016 06 01 22:00 274.6 0.0 0.00 66.5 19.2 80.2 n/a
2016 06 01 23:00 274.9 0.0 0.00 65.5 18.6 81.4 n/a
2016 06 01 24:00 275.4 0.0 0.00 65.0 18.3 79.19 n/a
2016 06 02 1:00 276.0 0.0 0.00 63.7 17.6 82 n/a
2016 06 02 2:00 274.0 0.0 0.00 65.7 18.7 77.57 n/a
2016 06 02 3:00 274.4 0.0 0.00 64.3 18.0 79.43 n/a
2016 06 02 4:00 274.4 0.0 0.00 63.5 17.5 78.52 n/a
2016 06 02 5:00 274.4 0.0 0.00 62.4 16.9 79.46 n/a
2016 06 02 6:00 275.2 0.0 0.00 61.1 16.2 83.2 n/a
2016 06 02 7:00 272.2 0.0 0.00 65.5 18.6 72.02 n/a
2016 06 02 8:00 270.6 0.0 0.00 70.4 21.4 60.76 n/a
2016 06 02 9:00 269.8 0.0 0.00 74.0 23.4 51.4 n/a
2016 06 02 10:00 269.3 0.0 0.00 76.4 24.6 47.11 n/a
2016 06 02 11:00 268.8 0.0 0.00 78.2 25.7 38.32 n/a
2016 06 02 12:00 268.7 0.0 0.00 79.3 26.3 35.56 n/a
2016 06 02 13:00 268.8 0.0 0.00 79.6 26.4 34.84 n/a
2016 06 02 14:00 268.8 0.0 0.00 79.7 26.5 34.21 n/a
2016 06 02 15:00 268.8 0.0 0.00 80.3 26.9 33.34 n/a
2016 06 02 16:00 268.5 0.0 0.00 80.9 27.2 29.78 n/a
2016 06 02 17:00 268.2 0.0 0.00 81.0 27.2 32.01 n/a
2016 06 02 18:00 268.2 0.0 0.00 80.5 27.0 34 n/a
2016 06 02 19:00 268.2 0.0 0.00 80.0 26.6 36.14 n/a
2016 06 02 20:00 269.7 0.0 0.00 75.9 24.4 43.95 n/a
2016 06 02 21:00 270.9 0.0 0.00 71.1 21.7 55.61 n/a
2016 06 02 22:00 271.8 0.0 0.00 68.0 20.0 64.42 n/a
2016 06 02 23:00 271.8 0.0 0.00 68.5 20.3 62.5 n/a
2016 06 02 24:00 272.3 0.0 0.00 67.3 19.6 68.01 n/a
2016 06 03 1:00 272.8 0.0 0.00 66.3 19.0 75.23 n/a
2016 06 03 2:00 273.4 0.0 0.00 65.4 18.6 79.22 n/a
2016 06 03 3:00 273.9 0.0 0.00 65.0 18.3 82.4 n/a
2016 06 03 4:00 274.2 0.0 0.00 64.4 18.0 84.3 n/a
2016 06 03 5:00 274.7 0.0 0.00 63.7 17.6 86.9 n/a
2016 06 03 6:00 274.6 0.0 0.00 63.6 17.6 87.8 n/a
2016 06 03 7:00 273.0 0.0 0.00 65.9 18.9 84 n/a
2016 06 03 8:00 271.4 0.0 0.00 70.5 21.4 79.57 n/a
2016 06 03 9:00 271.6 0.0 0.00 72.1 22.3 80.1 n/a
2016 06 03 10:00 271.6 0.0 0.00 73.4 23.0 78.52 n/a
2016 06 03 11:00 271.5 0.0 0.00 73.8 23.3 77.27 n/a
2016 06 03 12:00 271.3 0.0 0.00 74.9 23.8 75.91 n/a
2016 06 03 13:00 270.9 0.0 0.00 77.3 25.2 70.75 n/a
2016 06 03 14:00 271.0 0.0 0.00 77.8 25.5 68.88 n/a
2016 06 03 15:00 270.9 0.0 0.00 77.7 25.4 67.52 n/a
2016 06 03 16:00 270.9 0.0 0.00 77.6 25.3 65.22 n/a
2016 06 03 17:00 271.3 0.0 0.00 76.5 24.7 67.83 n/a
2016 06 03 18:00 271.8 0.0 0.00 75.7 24.3 71.3 n/a
2016 06 03 19:00 272.2 0.0 0.00 74.9 23.8 73.57 n/a
2016 06 03 20:00 272.9 0.0 0.00 73.8 23.2 76.13 n/a
2016 06 03 21:00 274.1 0.0 0.00 71.2 21.8 83.8 n/a
2016 06 03 22:00 275.8 0.0 0.00 69.4 20.8 88.7 n/a
2016 06 03 23:00 Wet 298.8 0.0 0.00 67.8 19.9 93.5 n/a
2016 06 03 24:00 Wet 320.6 0.0 0.00 67.4 19.7 95.8 n/a
2016 06 04 1:00 Wet 337.9 0.0 0.00 66.8 19.3 95.8 n/a
2016 06 04 2:00 Wet 372.1 0.0 0.00 66.1 18.9 96.9 n/a
2016 06 04 3:00 Wet 377.0 0.0 0.00 65.4 18.5 97.6 n/a
2016 06 04 4:00 Wet 363.7 0.0 0.51 66.8 19.3 95.3 n/a
2016 06 04 5:00 Wet 352.8 0.0 0.25 65.3 18.5 92.4 n/a
2016 06 04 6:00 Wet 323.2 0.0 0.25 65.2 18.4 95.6 n/a
2016 06 04 7:00 276.9 0.0 0.00 66.5 19.2 94 n/a
2016 06 04 8:00 272.8 0.0 0.00 69.7 20.9 84.7 n/a
2016 06 04 9:00 272.3 0.0 0.00 71.5 21.9 78.81 n/a
2016 06 04 10:00 271.5 0.0 0.00 74.3 23.5 71.7 n/a
2016 06 04 11:00 271.1 0.0 0.00 77.3 25.2 62.15 n/a
2016 06 04 12:00 270.5 0.0 0.00 79.4 26.3 52.62 n/a
2016 06 04 13:00 270.0 0.0 0.00 80.6 27.0 44.9 n/a
2016 06 04 14:00 270.1 0.0 0.00 80.0 26.7 43.45 n/a
2016 06 04 15:00 269.6 0.0 0.00 81.1 27.3 36.87 n/a
2016 06 04 16:00 269.6 0.0 0.00 80.8 27.1 39.72 n/a
2016 06 04 17:00 269.4 0.0 0.00 80.4 26.9 37.97 n/a
2016 06 04 18:00 269.4 0.0 0.00 79.8 26.5 40.18 n/a
2016 06 04 19:00 269.5 0.0 0.00 78.2 25.6 44.49 n/a
2016 06 04 20:00 270.7 0.0 0.00 74.5 23.6 52.7 n/a
2016 06 04 21:00 271.6 0.0 0.00 70.4 21.3 58.73 n/a
2016 06 04 22:00 272.0 0.0 0.00 68.7 20.4 62.07 n/a
2016 06 04 23:00 272.1 0.0 0.00 66.9 19.4 64.12 n/a
2016 06 04 24:00 272.8 0.0 0.00 64.5 18.1 69.7 n/a
2016 06 05 1:00 272.8 0.0 0.00 64.4 18.0 68.76 n/a
2016 06 05 2:00 273.0 0.0 0.00 63.9 17.7 69.79 n/a
2016 06 05 3:00 273.0 0.0 0.00 63.3 17.4 70.58 n/a
2016 06 05 4:00 273.7 0.0 0.00 61.3 16.3 75.65 n/a
2016 06 05 5:00 280.5 0.0 0.00 58.5 14.7 85 n/a
2016 06 05 6:00 281.2 0.0 0.00 58.6 14.8 86.2 n/a
2016 06 05 7:00 271.9 0.0 0.00 62.6 17.0 81.6 n/a
2016 06 05 8:00 271.6 0.0 0.00 66.9 19.4 73.53 n/a
2016 06 05 9:00 271.0 0.0 0.00 71.2 21.8 63.1 n/a
2016 06 05 10:00 270.8 0.0 0.00 73.1 22.9 56.74 n/a
2016 06 05 11:00 270.5 0.0 0.00 74.4 23.6 52.8 n/a
2016 06 05 12:00 270.2 0.0 0.00 75.7 24.3 49.2 n/a
2016 06 05 13:00 270.0 0.0 0.00 76.9 25.0 47.6 n/a
2016 06 05 14:00 269.9 0.0 0.00 77.6 25.3 45.67 n/a
2016 06 05 15:00 270.1 0.0 0.00 78.7 25.9 44.21 n/a
2016 06 05 16:00 269.7 0.0 0.00 79.7 26.5 41.12 n/a
2016 06 05 17:00 269.4 0.0 0.00 79.9 26.6 39.97 n/a
2016 06 05 18:00 269.4 0.0 0.00 79.7 26.5 38.72 n/a
2016 06 05 19:00 269.5 0.0 0.00 78.6 25.9 40.82 n/a
2016 06 05 20:00 270.2 0.0 0.00 75.9 24.4 46.26 n/a
2016 06 05 21:00 271.5 0.0 0.00 69.4 20.8 59.03 n/a
2016 06 05 22:00 272.5 0.0 0.00 66.4 19.1 67.59 n/a
2016 06 05 23:00 274.1 0.0 0.00 63.3 17.4 77.63 n/a
2016 06 05 24:00 276.1 0.0 0.00 62.1 16.7 81.5 n/a
2016 06 06 1:00 276.3 0.0 0.00 60.5 15.9 85.1 n/a
2016 06 06 2:00 Wet 290.3 0.0 0.00 58.7 14.8 89.5 n/a
2016 06 06 3:00 Wet 320.2 0.0 0.00 58.5 14.7 90.5 n/a
2016 06 06 4:00 Wet 319.7 0.0 0.00 58.2 14.6 87.4 n/a
2016 06 06 5:00 Wet 314.6 0.0 0.00 57.9 14.4 86.2 n/a
2016 06 06 6:00 Wet 296.4 0.0 0.00 59.4 15.2 81.5 n/a
2016 06 06 7:00 271.3 0.0 0.00 65.3 18.5 69.97 n/a
2016 06 06 8:00 270.6 0.0 0.00 69.7 20.9 64.3 n/a
2016 06 06 9:00 269.8 0.0 0.00 74.6 23.7 54.62 n/a
2016 06 06 10:00 269.3 0.0 0.00 78.1 25.6 48.08 n/a
2016 06 06 11:00 269.0 0.0 0.00 80.5 26.9 44.94 n/a
2016 06 06 12:00 268.8 0.0 0.00 82.7 28.2 38.96 n/a
2016 06 06 13:00 268.3 0.0 0.00 84.6 29.2 35.28 n/a
2016 06 06 14:00 268.3 0.0 0.00 86.1 30.1 33.34 n/a
2016 06 06 15:00 268.8 0.0 0.00 86.9 30.5 32.9 n/a
2016 06 06 16:00 268.3 0.0 0.00 87.3 30.7 31.81 n/a
2016 06 06 17:00 268.1 0.0 0.00 87.2 30.7 31.82 n/a
2016 06 06 18:00 268.1 0.0 0.00 86.7 30.4 33.37 n/a
2016 06 06 19:00 268.4 0.0 0.00 85.0 29.4 37.25 n/a
2016 06 06 20:00 269.6 0.0 0.00 80.7 27.0 44.93 n/a
2016 06 06 21:00 Wet 321.2 0.1 1.78 73.4 23.0 65.2 n/a
2016 06 06 22:00 278.0 0.0 0.00 73.0 22.8 64.74 n/a
2016 06 06 23:00 273.3 0.0 0.00 71.3 21.8 71.48 n/a
2016 06 06 24:00 271.4 0.0 0.00 72.8 22.6 52.68 n/a
2016 06 07 1:00 270.9 0.0 0.00 70.6 21.5 49.6 n/a
2016 06 07 2:00 270.9 0.0 0.00 68.6 20.4 50.32 n/a
2016 06 07 3:00 271.2 0.0 0.00 65.9 18.9 53.91 n/a
2016 06 07 4:00 271.6 0.0 0.00 63.8 17.6 58.03 n/a
2016 06 07 5:00 272.1 0.0 0.00 61.1 16.2 65.35 n/a
2016 06 07 6:00 272.1 0.0 0.00 60.8 16.0 69.28 n/a
2016 06 07 7:00 270.2 0.0 0.00 65.8 18.8 58.44 n/a
2016 06 07 8:00 269.5 0.0 0.00 68.2 20.1 53.68 n/a
2016 06 07 9:00 268.9 0.0 0.00 70.3 21.3 46.5 n/a
2016 06 07 10:00 268.8 0.0 0.00 71.7 22.1 45.09 n/a
2016 06 07 11:00 268.7 0.0 0.00 72.8 22.7 44.75 n/a
2016 06 07 12:00 268.7 0.0 0.00 74.5 23.6 44.42 n/a
2016 06 07 13:00 268.8 0.0 0.00 75.7 24.3 41.55 n/a
2016 06 07 14:00 268.8 0.0 0.00 77.1 25.1 40.32 n/a
2016 06 07 15:00 268.9 0.0 0.00 77.9 25.5 37.45 n/a
2016 06 07 16:00 268.7 0.0 0.00 78.4 25.8 36.81 n/a
2016 06 07 17:00 268.2 0.0 0.00 79.3 26.3 36.53 n/a
2016 06 07 18:00 268.2 0.0 0.00 79.3 26.3 35.56 n/a
2016 06 07 19:00 268.2 0.0 0.00 79.4 26.3 35.5 n/a
2016 06 07 20:00 269.8 0.0 0.00 73.8 23.2 48.14 n/a
2016 06 07 21:00 270.9 0.0 0.00 69.1 20.6 58.78 n/a
2016 06 07 22:00 271.8 0.0 0.00 66.6 19.2 64.3 n/a
2016 06 07 23:00 272.3 0.0 0.00 64.8 18.3 66.87 n/a
2016 06 07 24:00 272.3 0.0 0.00 64.4 18.0 65.91 n/a
2016 06 08 1:00 273.0 0.0 0.00 62.5 16.9 73.08 n/a
2016 06 08 2:00 273.2 0.0 0.00 61.7 16.5 73.96 n/a
2016 06 08 3:00 274.2 0.0 0.00 60.3 15.7 78.53 n/a
2016 06 08 4:00 274.2 0.0 0.00 60.2 15.6 78.15 n/a
2016 06 08 5:00 273.8 0.0 0.00 60.4 15.8 76.8 n/a
2016 06 08 6:00 272.8 0.0 0.00 61.8 16.6 73.87 n/a
2016 06 08 7:00 270.7 0.0 0.00 66.2 19.0 67.81 n/a
2016 06 08 8:00 270.3 0.0 0.00 69.0 20.6 63.53 n/a
2016 06 08 9:00 269.2 0.0 0.00 72.6 22.6 56.96 n/a
2016 06 08 10:00 268.8 0.0 0.00 75.6 24.2 50.17 n/a
2016 06 08 11:00 268.5 0.0 0.00 78.0 25.6 46.97 n/a
2016 06 08 12:00 268.2 0.0 0.00 79.8 26.6 42.38 n/a
2016 06 08 13:00 268.4 0.0 0.00 81.0 27.2 42.2 n/a
2016 06 08 14:00 268.6 0.0 0.00 82.1 27.8 41.5 n/a
2016 06 08 15:00 268.8 0.0 0.00 83.3 28.5 42.61 n/a
2016 06 08 16:00 268.8 0.0 0.00 84.1 28.9 43.18 n/a
2016 06 08 17:00 268.8 0.0 0.00 84.2 29.0 46.19 n/a
2016 06 08 18:00 268.8 0.0 0.00 83.7 28.7 48.45 n/a
2016 06 08 19:00 269.4 0.0 0.00 82.1 27.8 51.54 n/a
2016 06 08 20:00 270.4 0.0 0.00 78.7 25.9 57.6 n/a
2016 06 08 21:00 271.2 0.0 0.00 75.7 24.3 63 n/a
2016 06 08 22:00 271.6 0.0 0.00 74.8 23.8 65.89 n/a
2016 06 08 23:00 272.0 0.0 0.00 73.8 23.2 70.86 n/a
2016 06 08 24:00 272.2 0.0 0.00 72.4 22.5 75.23 n/a
2016 06 09 1:00 272.8 0.0 0.00 71.4 21.9 78.21 n/a
2016 06 09 2:00 273.2 0.0 0.00 70.3 21.3 80.9 n/a
2016 06 09 3:00 274.1 0.0 0.00 68.7 20.4 84.8 n/a
2016 06 09 4:00 274.5 0.0 0.00 68.1 20.0 86.4 n/a
2016 06 09 5:00 274.4 0.0 0.00 67.9 19.9 86.7 n/a
2016 06 09 6:00 274.0 0.0 0.00 67.9 19.9 87 n/a
2016 06 09 7:00 272.3 0.0 0.00 71.0 21.7 80.7 n/a
2016 06 09 8:00 271.1 0.0 0.00 75.6 24.2 69.97 n/a
2016 06 09 9:00 270.2 0.0 0.00 79.1 26.2 62.81 n/a
2016 06 09 10:00 269.5 0.0 0.00 82.6 28.1 55.91 n/a
2016 06 09 11:00 268.9 0.0 0.00 85.1 29.5 49.82 n/a
2016 06 09 12:00 268.8 0.0 0.00 87.1 30.6 45.07 n/a
2016 06 09 13:00 268.4 0.0 0.00 88.5 31.4 40.78 n/a
2016 06 09 14:00 268.1 0.0 0.00 89.1 31.7 37.83 n/a
2016 06 09 15:00 268.7 0.0 0.00 89.2 31.8 40.21 n/a
2016 06 09 16:00 268.2 0.0 0.00 89.4 31.9 37.54 n/a
2016 06 09 17:00 268.1 0.0 0.00 88.8 31.5 37.44 n/a
2016 06 09 18:00 268.1 0.0 0.00 87.6 30.9 40.07 n/a
2016 06 09 19:00 268.7 0.0 0.00 85.4 29.7 44.89 n/a
2016 06 09 20:00 269.8 0.0 0.00 81.5 27.5 52.11 n/a
2016 06 09 21:00 270.8 0.0 0.00 78.2 25.6 59.63 n/a
2016 06 09 22:00 271.0 0.0 0.00 76.5 24.7 61.72 n/a
2016 06 09 23:00 271.6 0.0 0.00 74.9 23.8 65.12 n/a
2016 06 09 24:00 272.0 0.0 0.00 73.0 22.8 69.72 n/a
2016 06 10 1:00 272.5 0.0 0.00 71.9 22.1 74.48 n/a
2016 06 10 2:00 272.9 0.0 0.00 71.2 21.8 79.47 n/a
2016 06 10 3:00 273.9 0.0 0.00 70.2 21.2 83.4 n/a
2016 06 10 4:00 274.3 0.0 0.00 69.8 21.0 84 n/a
2016 06 10 5:00 274.2 0.0 0.00 69.8 21.0 83.1 n/a
2016 06 10 6:00 273.6 0.0 0.00 69.5 20.9 83.5 n/a
2016 06 10 7:00 271.7 0.0 0.00 72.5 22.5 76.39 n/a
2016 06 10 8:00 270.5 0.0 0.00 76.7 24.8 66.92 n/a
2016 06 10 9:00 269.7 0.0 0.00 80.5 26.9 59.56 n/a
2016 06 10 10:00 269.3 0.0 0.00 82.8 28.2 55.87 n/a
2016 06 10 11:00 268.9 0.0 0.00 85.2 29.5 53.17 n/a
2016 06 10 12:00 268.9 0.0 0.00 86.7 30.4 51.73 n/a
2016 06 10 13:00 269.0 0.0 0.00 87.6 30.9 48.75 n/a
2016 06 10 14:00 268.9 0.0 0.00 88.0 31.1 46.15 n/a
2016 06 10 15:00 269.1 0.0 0.00 88.0 31.1 45.72 n/a
2016 06 10 16:00 268.9 0.0 0.00 88.6 31.5 43.61 n/a
2016 06 10 17:00 268.7 0.0 0.00 88.8 31.6 42.33 n/a
2016 06 10 18:00 268.8 0.0 0.00 87.7 30.9 43.82 n/a
2016 06 10 19:00 269.0 0.0 0.00 85.6 29.8 46.68 n/a
2016 06 10 20:00 270.0 0.0 0.00 81.7 27.6 51.93 n/a
2016 06 10 21:00 270.9 0.0 0.00 79.2 26.2 57.47 n/a
2016 06 10 22:00 271.3 0.0 0.00 77.4 25.2 60.99 n/a
2016 06 10 23:00 271.6 0.0 0.00 75.7 24.3 64.27 n/a
2016 06 10 24:00 272.2 0.0 0.00 74.0 23.3 68.12 n/a
2016 06 11 1:00 272.3 0.0 0.00 72.8 22.7 71.06 n/a
2016 06 11 2:00 272.9 0.0 0.00 71.2 21.8 75.26 n/a
2016 06 11 3:00 272.9 0.0 0.00 70.5 21.4 77.93 n/a
2016 06 11 4:00 273.1 0.0 0.00 69.7 20.9 79.14 n/a
2016 06 11 5:00 273.6 0.0 0.00 68.9 20.5 80.1 n/a
2016 06 11 6:00 273.0 0.0 0.00 69.2 20.7 80 n/a
2016 06 11 7:00 271.3 0.0 0.00 72.1 22.3 74.99 n/a
2016 06 11 8:00 270.1 0.0 0.00 76.5 24.7 68.74 n/a
2016 06 11 9:00 269.5 0.0 0.00 80.6 27.0 63.11 n/a
2016 06 11 10:00 269.5 0.0 0.00 83.6 28.6 60.13 n/a
2016 06 11 11:00 268.9 0.0 0.00 85.8 29.9 54.96 n/a
2016 06 11 12:00 268.8 0.0 0.00 87.2 30.7 51.77 n/a
2016 06 11 13:00 268.7 0.0 0.00 88.4 31.3 48.83 n/a
2016 06 11 14:00 268.7 0.0 0.00 89.6 32.0 46.59 n/a
2016 06 11 15:00 268.8 0.0 0.00 89.9 32.1 44.39 n/a
2016 06 11 16:00 268.3 0.0 0.00 90.4 32.4 43.02 n/a
2016 06 11 17:00 268.6 0.0 0.00 89.1 31.7 44.32 n/a
2016 06 11 18:00 269.1 0.0 0.00 87.3 30.7 49.95 n/a
2016 06 11 19:00 269.5 0.0 0.00 86.0 30.0 52.97 n/a
2016 06 11 20:00 270.4 0.0 0.00 83.2 28.4 56.87 n/a
2016 06 11 21:00 271.3 0.0 0.00 80.2 26.8 62.09 n/a
2016 06 11 22:00 271.6 0.0 0.00 78.4 25.8 65.76 n/a
2016 06 11 23:00 271.9 0.0 0.00 77.2 25.1 68.94 n/a
2016 06 11 24:00 272.9 0.0 0.00 75.0 23.9 74.72 n/a
2016 06 12 1:00 274.2 0.0 0.00 73.2 22.9 79.44 n/a
2016 06 12 2:00 274.4 0.0 0.00 72.6 22.6 81.1 n/a
2016 06 12 3:00 274.6 0.0 0.00 71.9 22.1 82.7 n/a
2016 06 12 4:00 271.5 0.0 0.00 70.7 21.5 85.7 n/a
2016 06 12 5:00 275.3 0.0 0.00 70.3 21.3 85.7 n/a
2016 06 12 6:00 274.5 0.0 0.00 71.2 21.8 84.3 n/a
2016 06 12 7:00 271.0 0.0 0.00 75.5 24.2 76.28 n/a
2016 06 12 8:00 269.7 0.0 0.00 78.6 25.9 73.67 n/a
2016 06 12 9:00 268.7 0.0 0.00 82.4 28.0 67.89 n/a
2016 06 12 10:00 268.1 0.0 0.00 86.0 30.0 61.6 n/a
2016 06 12 11:00 268.3 0.0 0.00 86.9 30.5 58.2 n/a
2016 06 12 12:00 268.9 0.0 0.00 87.2 30.7 57.27 n/a
2016 06 12 13:00 268.4 0.0 0.00 89.2 31.8 53.91 n/a
2016 06 12 14:00 268.7 0.0 0.00 88.7 31.5 52.37 n/a
2016 06 12 15:00 269.9 0.0 0.00 80.9 27.2 62.83 n/a
2016 06 12 16:00 270.2 0.0 0.00 78.8 26.0 64.59 n/a
2016 06 12 17:00 269.7 0.0 0.00 81.0 27.2 62.24 n/a
2016 06 12 18:00 269.7 0.0 0.00 81.3 27.4 59.87 n/a
2016 06 12 19:00 270.0 0.0 0.00 80.5 26.9 64.07 n/a
2016 06 12 20:00 271.3 0.0 0.00 78.4 25.8 69.5 n/a
2016 06 12 21:00 273.2 0.0 0.00 74.7 23.7 80.2 n/a
2016 06 12 22:00 274.3 0.0 0.00 72.4 22.5 87.4 n/a
2016 06 12 23:00 Wet 286.8 0.0 0.00 71.1 21.7 90.7 n/a
2016 06 12 24:00 Wet 300.5 0.0 0.00 70.5 21.4 93.3 n/a
2016 06 13 1:00 Wet 325.5 0.0 0.00 69.8 21.0 94.9 n/a
2016 06 13 2:00 Wet 353.3 0.0 0.00 69.4 20.8 95.4 n/a
2016 06 13 3:00 Wet 379.9 0.0 0.00 69.0 20.6 95.7 n/a
2016 06 13 4:00 Wet 406.7 0.0 0.00 68.4 20.2 96 n/a
2016 06 13 5:00 Wet 418.9 0.0 0.00 67.7 19.9 96.2 n/a
2016 06 13 6:00 Wet 385.6 0.0 0.00 67.9 19.9 95.5 n/a
2016 06 13 7:00 Wet 296.4 0.0 0.00 72.9 22.7 82.8 n/a
2016 06 13 8:00 271.7 0.0 0.00 74.1 23.4 82.2 n/a
2016 06 13 9:00 270.6 0.0 0.00 78.2 25.7 75.2 n/a
2016 06 13 10:00 269.7 0.0 0.00 81.2 27.3 70.25 n/a
2016 06 13 11:00 269.2 0.0 0.00 83.7 28.7 64.6 n/a
2016 06 13 12:00 269.4 0.0 0.00 84.5 29.2 62.34 n/a
2016 06 13 13:00 269.4 0.0 0.00 85.7 29.8 60.13 n/a
2016 06 13 14:00 269.8 0.0 0.00 85.4 29.7 59.66 n/a
2016 06 13 15:00 269.5 0.0 0.00 87.8 31.0 53.62 n/a
2016 06 13 16:00 Wet 299.2 0.2 5.33 84.9 29.4 60.2 n/a
2016 06 13 17:00 Wet 416.0 0.8 19.81 75.3 24.1 87.6 n/a
2016 06 13 18:00 273.1 0.0 0.00 76.6 24.8 87.1 n/a
2016 06 13 19:00 272.2 0.0 0.00 78.5 25.8 80.6 n/a
2016 06 13 20:00 274.8 0.0 0.00 74.9 23.8 90.3 n/a
2016 06 13 21:00 Wet 285.5 0.0 0.00 73.0 22.8 93.5 n/a
2016 06 13 22:00 Wet 302.5 0.0 0.00 73.0 22.8 94.2 n/a
2016 06 13 23:00 Wet 315.0 0.0 0.00 72.7 22.6 94.5 n/a
2016 06 13 24:00 Wet 306.5 0.0 0.00 73.0 22.8 93.8 n/a
2016 06 14 1:00 Wet 310.5 0.0 0.00 72.4 22.5 94.4 n/a
2016 06 14 2:00 Wet 322.8 0.0 0.00 71.9 22.1 94.4 n/a
2016 06 14 3:00 Wet 327.2 0.0 0.00 72.0 22.2 94.3 n/a
2016 06 14 4:00 Wet 346.0 0.0 0.00 71.5 22.0 95.3 n/a
2016 06 14 5:00 Wet 383.3 0.0 0.00 71.1 21.7 95.6 n/a
2016 06 14 6:00 Wet 395.0 0.0 0.00 71.2 21.8 95.3 n/a
2016 06 14 7:00 Wet 312.1 0.0 0.00 73.6 23.1 90.7 n/a
2016 06 14 8:00 272.0 0.0 0.00 76.9 24.9 84.6 n/a
2016 06 14 9:00 271.3 0.0 0.00 79.6 26.4 80.2 n/a
2016 06 14 10:00 271.0 0.0 0.00 81.8 27.7 73.46 n/a
2016 06 14 11:00 270.5 0.0 0.00 83.9 28.8 67.26 n/a
2016 06 14 12:00 270.6 0.0 0.00 85.0 29.4 64.94 n/a
2016 06 14 13:00 270.4 0.0 0.00 86.5 30.3 60.41 n/a
2016 06 14 14:00 270.7 0.0 0.00 87.2 30.7 59.3 n/a
2016 06 14 15:00 270.8 0.0 0.00 88.2 31.2 57.59 n/a
2016 06 14 16:00 270.4 0.0 0.00 89.0 31.7 56.97 n/a
2016 06 14 17:00 270.2 0.0 0.00 89.7 32.0 54.57 n/a
2016 06 14 18:00 269.8 0.0 0.00 89.4 31.9 50.66 n/a
2016 06 14 19:00 270.1 0.0 0.00 88.1 31.1 53.27 n/a
2016 06 14 20:00 270.8 0.0 0.00 85.0 29.4 59.27 n/a
2016 06 14 21:00 271.7 0.0 0.00 82.2 27.9 67.01 n/a
2016 06 14 22:00 272.2 0.0 0.00 80.7 27.1 72.8 n/a
2016 06 14 23:00 272.9 0.0 0.00 79.0 26.1 76.23 n/a
2016 06 14 24:00 272.9 0.0 0.00 78.2 25.7 73.72 n/a
2016 06 15 1:00 Wet 292.2 0.0 0.51 77.8 25.5 73.97 n/a
2016 06 15 2:00 Wet 299.3 0.1 2.54 71.1 21.7 76.57 n/a
2016 06 15 3:00 Wet 352.2 0.1 1.52 69.6 20.9 82.6 n/a
2016 06 15 4:00 279.5 0.0 0.00 68.1 20.0 88.2 n/a
2016 06 15 5:00 275.1 0.0 0.00 68.5 20.3 89.7 n/a
2016 06 15 6:00 274.3 0.0 0.00 69.7 20.9 90.3 n/a
2016 06 15 7:00 273.0 0.0 0.00 73.0 22.8 88.3 n/a
2016 06 15 8:00 272.2 0.0 0.00 77.3 25.2 86.2 n/a
2016 06 15 9:00 271.4 0.0 0.00 81.7 27.6 81.6 n/a
2016 06 15 10:00 270.8 0.0 0.00 84.6 29.2 76.9 n/a
2016 06 15 11:00 270.4 0.0 0.00 87.1 30.6 71.35 n/a
2016 06 15 12:00 270.0 0.0 0.00 89.5 31.9 63.54 n/a
2016 06 15 13:00 269.6 0.0 0.00 91.4 33.0 55.05 n/a
2016 06 15 14:00 269.2 0.0 0.00 93.5 34.2 44.4 n/a
2016 06 15 15:00 268.8 0.0 0.00 94.8 34.9 37.88 n/a
2016 06 15 16:00 268.2 0.0 0.00 95.7 35.4 34.79 n/a
2016 06 15 17:00 268.1 0.0 0.00 95.3 35.1 37.47 n/a
2016 06 15 18:00 268.2 0.0 0.00 94.1 34.5 46.22 n/a
2016 06 15 19:00 270.1 0.0 0.00 89.9 32.1 58.78 n/a
2016 06 15 20:00 271.1 0.0 0.00 87.6 30.9 62.35 n/a
2016 06 15 21:00 271.8 0.0 0.00 85.0 29.5 69.02 n/a
2016 06 15 22:00 272.2 0.0 0.00 83.4 28.5 74.44 n/a
2016 06 15 23:00 271.9 0.0 0.00 81.5 27.5 66.97 n/a
2016 06 15 24:00 271.0 0.0 0.00 78.5 25.9 58.19 n/a
2016 06 16 1:00 271.5 0.0 0.00 77.0 25.0 62.93 n/a
2016 06 16 2:00 270.9 0.0 0.00 76.4 24.7 60.24 n/a
2016 06 16 3:00 271.3 0.0 0.00 75.7 24.3 59.71 n/a
2016 06 16 4:00 271.6 0.0 0.00 74.6 23.6 63.04 n/a
2016 06 16 5:00 272.0 0.0 0.00 72.6 22.6 70.3 n/a
2016 06 16 6:00 272.2 0.0 0.00 71.2 21.8 76.03 n/a
2016 06 16 7:00 271.2 0.0 0.00 72.5 22.5 76.14 n/a
2016 06 16 8:00 269.9 0.0 0.00 76.2 24.6 71.93 n/a
2016 06 16 9:00 272.0 0.0 0.00 75.7 24.3 76.63 n/a
2016 06 16 10:00 273.6 0.0 0.00 75.5 24.1 74.05 n/a
2016 06 16 11:00 Wet 311.2 0.0 0.00 75.3 24.1 71.28 n/a
2016 06 16 12:00 273.2 0.0 0.00 78.0 25.5 67.77 n/a
2016 06 16 13:00 Wet 303.7 0.0 0.25 75.5 24.1 75.43 n/a
2016 06 16 14:00 276.0 0.0 0.00 76.6 24.8 74.82 n/a
2016 06 16 15:00 271.2 0.0 0.00 80.1 26.7 69.92 n/a
2016 06 16 16:00 270.0 0.0 0.00 86.0 30.0 58.67 n/a
2016 06 16 17:00 269.0 0.0 0.00 89.8 32.1 50.83 n/a
2016 06 16 18:00 269.3 0.0 0.00 89.5 32.0 54.21 n/a
2016 06 16 19:00 269.8 0.0 0.00 88.5 31.4 59.79 n/a
2016 06 16 20:00 271.6 0.0 0.00 84.8 29.3 70.72 n/a
2016 06 16 21:00 272.8 0.0 0.00 81.4 27.4 78.62 n/a
2016 06 16 22:00 272.9 0.0 0.00 79.3 26.3 77.21 n/a
2016 06 16 23:00 274.0 0.0 0.00 76.7 24.9 82.7 n/a
2016 06 16 24:00 274.6 0.0 0.00 75.2 24.0 86.2 n/a
2016 06 17 1:00 274.7 0.0 0.00 75.1 23.9 88.9 n/a
2016 06 17 2:00 275.4 0.0 0.00 75.0 23.9 90.4 n/a
2016 06 17 3:00 275.8 0.0 0.00 75.1 23.9 91.2 n/a
2016 06 17 4:00 282.9 0.0 0.00 74.9 23.8 92.4 n/a
2016 06 17 5:00 Wet 309.2 0.0 0.00 74.0 23.3 95.1 n/a
2016 06 17 6:00 Wet 322.0 0.0 0.00 74.8 23.8 95.4 n/a
2016 06 17 7:00 273.8 0.0 0.00 80.1 26.7 83 n/a
2016 06 17 8:00 271.3 0.0 0.00 82.2 27.9 80.8 n/a
2016 06 17 9:00 270.2 0.0 0.00 85.4 29.7 75.12 n/a
2016 06 17 10:00 269.7 0.0 0.00 87.5 30.9 72.44 n/a
2016 06 17 11:00 270.3 0.0 0.00 87.9 31.1 72.35 n/a
2016 06 17 12:00 270.2 0.0 0.00 89.2 31.8 67.21 n/a
2016 06 17 13:00 269.9 0.0 0.00 90.3 32.4 63.76 n/a
2016 06 17 14:00 269.9 0.0 0.00 91.2 32.9 60.39 n/a
2016 06 17 15:00 270.0 0.0 0.00 91.6 33.1 57.8 n/a
2016 06 17 16:00 270.0 0.0 0.00 91.8 33.2 58.58 n/a
2016 06 17 17:00 269.6 0.0 0.00 91.7 33.2 58.42 n/a
2016 06 17 18:00 269.9 0.0 0.00 90.8 32.7 59.56 n/a
2016 06 17 19:00 270.4 0.0 0.00 88.9 31.6 63.76 n/a
2016 06 17 20:00 271.5 0.0 0.00 85.6 29.8 69.49 n/a
2016 06 17 21:00 272.5 0.0 0.00 82.5 28.1 74.33 n/a
2016 06 17 22:00 273.6 0.0 0.00 80.2 26.8 79.74 n/a
2016 06 17 23:00 273.6 0.0 0.00 79.1 26.1 80.1 n/a
2016 06 17 24:00 273.5 0.0 0.00 77.3 25.2 77.55 n/a
2016 06 18 1:00 272.9 0.0 0.00 76.0 24.5 74 n/a
2016 06 18 2:00 272.9 0.0 0.00 74.8 23.8 74.98 n/a
2016 06 18 3:00 273.0 0.0 0.00 73.7 23.2 75.95 n/a
2016 06 18 4:00 273.5 0.0 0.00 72.5 22.5 79.41 n/a
2016 06 18 5:00 273.6 0.0 0.00 71.7 22.0 81.6 n/a
2016 06 18 6:00 273.2 0.0 0.00 72.2 22.3 79.42 n/a
2016 06 18 7:00 272.6 0.0 0.00 72.5 22.5 79.68 n/a
2016 06 18 8:00 271.2 0.0 0.00 75.7 24.3 71.87 n/a
2016 06 18 9:00 269.9 0.0 0.00 79.4 26.4 64.31 n/a
2016 06 18 10:00 269.5 0.0 0.00 81.4 27.4 60.13 n/a
2016 06 18 11:00 269.5 0.0 0.00 82.6 28.1 58.54 n/a
2016 06 18 12:00 269.4 0.0 0.00 83.9 28.9 55.31 n/a
2016 06 18 13:00 269.5 0.0 0.00 84.8 29.3 53.18 n/a
2016 06 18 14:00 269.4 0.0 0.00 85.7 29.9 50.58 n/a
2016 06 18 15:00 269.6 0.0 0.00 86.2 30.1 50.09 n/a
2016 06 18 16:00 269.5 0.0 0.00 85.9 30.0 49.1 n/a
2016 06 18 17:00 269.5 0.0 0.00 85.2 29.6 50.22 n/a
2016 06 18 18:00 270.2 0.0 0.00 83.1 28.4 53.34 n/a
2016 06 18 19:00 270.3 0.0 0.00 82.5 28.1 58.64 n/a
2016 06 18 20:00 271.2 0.0 0.00 80.2 26.8 63.45 n/a
2016 06 18 21:00 272.7 0.0 0.00 76.6 24.8 71.71 n/a
2016 06 18 22:00 273.3 0.0 0.00 74.9 23.9 75.08 n/a
2016 06 18 23:00 273.6 0.0 0.00 73.6 23.1 77.31 n/a
2016 06 18 24:00 273.6 0.0 0.00 72.4 22.4 77.12 n/a
2016 06 19 1:00 273.8 0.0 0.00 71.3 21.8 77.85 n/a
2016 06 19 2:00 273.9 0.0 0.00 70.6 21.4 78.15 n/a
2016 06 19 3:00 274.6 0.0 0.00 69.4 20.8 80.6 n/a
2016 06 19 4:00 274.8 0.0 0.00 68.3 20.2 83.2 n/a
2016 06 19 5:00 274.7 0.0 0.00 67.6 19.8 84.9 n/a
2016 06 19 6:00 274.5 0.0 0.00 68.4 20.2 83.4 n/a
2016 06 19 7:00 271.2 0.0 0.00 73.0 22.8 75.44 n/a
2016 06 19 8:00 270.4 0.0 0.00 76.5 24.7 69.99 n/a
2016 06 19 9:00 269.7 0.0 0.00 79.7 26.5 62.98 n/a
2016 06 19 10:00 269.5 0.0 0.00 82.0 27.8 59.14 n/a
2016 06 19 11:00 269.1 0.0 0.00 84.0 28.9 53.19 n/a
2016 06 19 12:00 268.8 0.0 0.00 85.6 29.8 48.67 n/a
2016 06 19 13:00 268.8 0.0 0.00 86.8 30.4 47.62 n/a
2016 06 19 14:00 268.9 0.0 0.00 87.2 30.7 45.61 n/a
2016 06 19 15:00 268.9 0.0 0.00 88.4 31.3 41.74 n/a
2016 06 19 16:00 268.8 0.0 0.00 88.6 31.4 41.68 n/a
2016 06 19 17:00 268.6 0.0 0.00 88.8 31.6 41.82 n/a
2016 06 19 18:00 268.7 0.0 0.00 88.4 31.3 41.64 n/a
2016 06 19 19:00 268.9 0.0 0.00 86.9 30.5 46.21 n/a
2016 06 19 20:00 270.1 0.0 0.00 83.5 28.6 52.87 n/a
2016 06 19 21:00 271.1 0.0 0.00 80.4 26.9 58.87 n/a
2016 06 19 22:00 271.6 0.0 0.00 78.5 25.8 65.05 n/a
2016 06 19 23:00 272.3 0.0 0.00 76.7 24.9 70.54 n/a
2016 06 19 24:00 272.8 0.0 0.00 75.8 24.3 75.95 n/a
2016 06 20 1:00 273.1 0.0 0.00 74.2 23.4 81.3 n/a
2016 06 20 2:00 273.6 0.0 0.00 72.8 22.6 84.4 n/a
2016 06 20 3:00 274.4 0.0 0.00 71.9 22.1 86.2 n/a
2016 06 20 4:00 274.6 0.0 0.00 70.7 21.5 88.7 n/a
2016 06 20 5:00 274.0 0.0 0.00 70.3 21.3 90.1 n/a
2016 06 20 6:00 274.4 0.0 0.00 70.0 21.1 90.5 n/a
2016 06 20 7:00 272.4 0.0 0.00 73.0 22.8 84.5 n/a
2016 06 20 8:00 271.4 0.0 0.00 76.7 24.8 78.05 n/a
2016 06 20 9:00 270.9 0.0 0.00 80.0 26.6 71.66 n/a
2016 06 20 10:00 270.0 0.0 0.00 83.3 28.5 63.75 n/a
2016 06 20 11:00 269.8 0.0 0.00 84.7 29.3 59.71 n/a
2016 06 20 12:00 269.5 0.0 0.00 86.6 30.3 57.17 n/a
2016 06 20 13:00 269.5 0.0 0.00 88.3 31.3 54.96 n/a
2016 06 20 14:00 269.4 0.0 0.00 89.7 32.1 51.55 n/a
2016 06 20 15:00 269.5 0.0 0.00 90.4 32.4 49.43 n/a
2016 06 20 16:00 269.3 0.0 0.00 90.8 32.6 48.94 n/a
2016 06 20 17:00 268.9 0.0 0.00 91.0 32.8 48.42 n/a
2016 06 20 18:00 269.4 0.0 0.00 90.1 32.3 50.74 n/a
2016 06 20 19:00 269.5 0.0 0.00 88.7 31.5 53.29 n/a
2016 06 20 20:00 270.5 0.0 0.00 85.7 29.9 58.39 n/a
2016 06 20 21:00 271.4 0.0 0.00 83.4 28.5 62.48 n/a
2016 06 20 22:00 271.6 0.0 0.00 81.2 27.3 67.16 n/a
2016 06 20 23:00 272.1 0.0 0.00 79.9 26.6 70.41 n/a
2016 06 20 24:00 272.2 0.0 0.00 79.3 26.3 70.9 n/a
2016 06 21 1:00 272.8 0.0 0.00 77.4 25.2 75.46 n/a
2016 06 21 2:00 273.5 0.0 0.00 75.9 24.4 78.61 n/a
2016 06 21 3:00 273.7 0.0 0.00 74.9 23.8 78.8 n/a
2016 06 21 4:00 273.4 0.0 0.00 73.9 23.3 76.08 n/a
2016 06 21 5:00 273.0 0.0 0.00 73.2 22.9 75.4 n/a
2016 06 21 6:00 272.8 0.0 0.00 73.4 23.0 75.36 n/a
2016 06 21 7:00 271.3 0.0 0.00 76.4 24.7 71.05 n/a
2016 06 21 8:00 271.3 0.0 0.00 78.5 25.9 69.26 n/a
2016 06 21 9:00 270.4 0.0 0.00 81.4 27.5 66 n/a
2016 06 21 10:00 268.8 0.0 0.00 85.0 29.4 59.34 n/a
2016 06 21 11:00 268.7 0.0 0.00 86.1 30.0 59.53 n/a
2016 06 21 12:00 269.0 0.0 0.00 87.3 30.7 59.06 n/a
2016 06 21 13:00 269.1 0.0 0.00 89.8 32.1 54.74 n/a
2016 06 21 14:00 269.2 0.0 0.00 91.3 32.9 51.52 n/a
2016 06 21 15:00 269.4 0.0 0.00 92.1 33.4 49.44 n/a
2016 06 21 16:00 269.0 0.0 0.00 92.7 33.7 46.99 n/a
2016 06 21 17:00 268.8 0.0 0.00 92.2 33.4 47.19 n/a
2016 06 21 18:00 269.0 0.0 0.00 90.8 32.7 49.11 n/a
2016 06 21 19:00 269.5 0.0 0.00 88.9 31.6 51.51 n/a
2016 06 21 20:00 270.2 0.0 0.00 85.8 29.9 56.48 n/a
2016 06 21 21:00 270.9 0.0 0.00 83.2 28.4 62.54 n/a
2016 06 21 22:00 270.9 0.0 0.00 81.7 27.6 62.81 n/a
2016 06 21 23:00 270.9 0.0 0.00 81.0 27.2 61.52 n/a
2016 06 21 24:00 271.3 0.0 0.00 79.9 26.6 64.63 n/a
2016 06 22 1:00 271.6 0.0 0.00 78.3 25.7 69.96 n/a
2016 06 22 2:00 272.2 0.0 0.00 76.9 25.0 74.39 n/a
2016 06 22 3:00 272.2 0.0 0.00 76.6 24.8 75.28 n/a
2016 06 22 4:00 272.2 0.0 0.00 76.5 24.7 74.65 n/a
2016 06 22 5:00 272.5 0.0 0.00 75.8 24.4 76.48 n/a
2016 06 22 6:00 272.8 0.0 0.00 75.1 23.9 79.25 n/a
2016 06 22 7:00 271.6 0.0 0.00 77.0 25.0 76.56 n/a
2016 06 22 8:00 270.8 0.0 0.00 80.9 27.1 70.17 n/a
2016 06 22 9:00 269.9 0.0 0.00 84.5 29.1 63.04 n/a
2016 06 22 10:00 269.4 0.0 0.00 86.8 30.5 57.39 n/a
2016 06 22 11:00 268.9 0.0 0.00 89.4 31.9 53.02 n/a
2016 06 22 12:00 268.6 0.0 0.00 91.8 33.2 47.81 n/a
2016 06 22 13:00 268.0 0.0 0.00 93.4 34.1 42.83 n/a
2016 06 22 14:00 267.7 0.0 0.00 94.6 34.8 40.15 n/a
2016 06 22 15:00 267.9 0.0 0.00 95.5 35.3 38.44 n/a
2016 06 22 16:00 267.5 0.0 0.00 95.6 35.3 36.51 n/a
2016 06 22 17:00 267.4 0.0 0.00 95.4 35.2 36.6 n/a
2016 06 22 18:00 267.6 0.0 0.00 94.6 34.8 39.68 n/a
2016 06 22 19:00 268.2 0.0 0.00 92.1 33.4 44.69 n/a
2016 06 22 20:00 269.1 0.0 0.00 89.2 31.8 48.18 n/a
2016 06 22 21:00 269.5 0.0 0.00 86.8 30.5 51.97 n/a
2016 06 22 22:00 269.7 0.0 0.00 85.3 29.6 54.31 n/a
2016 06 22 23:00 270.2 0.0 0.00 83.8 28.8 58.86 n/a
2016 06 22 24:00 270.3 0.0 0.00 83.2 28.5 61.94 n/a
2016 06 23 1:00 270.8 0.0 0.00 82.4 28.0 65.11 n/a
2016 06 23 2:00 270.9 0.0 0.00 81.5 27.5 67.9 n/a
2016 06 23 3:00 271.5 0.0 0.00 80.7 27.1 70.62 n/a
2016 06 23 4:00 271.6 0.0 0.00 79.5 26.4 74.22 n/a
2016 06 23 5:00 272.1 0.0 0.00 78.7 25.9 77.1 n/a
2016 06 23 6:00 272.2 0.0 0.00 78.6 25.9 77.64 n/a
2016 06 23 7:00 271.0 0.0 0.00 79.8 26.5 75.52 n/a
2016 06 23 8:00 269.9 0.0 0.00 81.8 27.7 70.92 n/a
2016 06 23 9:00 269.7 0.0 0.00 83.3 28.5 67.23 n/a
2016 06 23 10:00 269.5 0.0 0.00 84.8 29.3 64.85 n/a
2016 06 23 11:00 269.3 0.0 0.00 85.8 29.9 62.26 n/a
2016 06 23 12:00 268.9 0.0 0.00 87.2 30.7 55.24 n/a
2016 06 23 13:00 268.8 0.0 0.00 88.5 31.4 52.87 n/a
2016 06 23 14:00 268.6 0.0 0.00 89.5 31.9 53.11 n/a
2016 06 23 15:00 269.1 0.0 0.00 88.9 31.6 54.59 n/a
2016 06 23 16:00 270.1 0.0 0.00 87.4 30.8 56.57 n/a
2016 06 23 17:00 270.2 0.0 0.00 86.7 30.4 56.44 n/a
2016 06 23 18:00 270.2 0.0 0.00 86.0 30.0 57.89 n/a
2016 06 23 19:00 270.2 0.0 0.00 84.4 29.1 53.96 n/a
2016 06 23 20:00 271.6 0.0 0.00 76.8 24.9 75.2 n/a
2016 06 23 21:00 272.8 0.0 0.00 72.4 22.4 82.5 n/a
2016 06 23 22:00 Wet 288.0 0.0 0.00 71.7 22.0 87 n/a
2016 06 23 23:00 278.1 0.0 0.00 71.8 22.1 85 n/a
2016 06 23 24:00 273.6 0.0 0.00 70.9 21.6 88.5 n/a
2016 06 24 1:00 272.1 0.0 0.00 70.5 21.4 88.2 n/a
2016 06 24 2:00 274.9 0.0 0.00 69.3 20.7 90.8 n/a
2016 06 24 3:00 Wet 306.8 0.0 0.00 68.1 20.0 94 n/a
2016 06 24 4:00 Wet 326.8 0.0 0.00 68.3 20.2 94 n/a
2016 06 24 5:00 Wet 363.3 0.0 0.00 67.8 19.9 96.1 n/a
2016 06 24 6:00 Wet 365.5 0.0 0.00 68.8 20.4 94.3 n/a
2016 06 24 7:00 275.0 0.0 0.00 72.4 22.4 83.1 n/a
2016 06 24 8:00 271.3 0.0 0.00 75.1 24.0 76.56 n/a
2016 06 24 9:00 270.4 0.0 0.00 78.2 25.7 70.16 n/a
2016 06 24 10:00 269.5 0.0 0.00 81.4 27.4 60.7 n/a
2016 06 24 11:00 269.5 0.0 0.00 82.5 28.1 61.5 n/a
2016 06 24 12:00 269.7 0.0 0.00 83.5 28.6 65.54 n/a
2016 06 24 13:00 270.1 0.0 0.00 84.2 29.0 67.34 n/a
2016 06 24 14:00 270.9 0.0 0.00 82.6 28.1 72.14 n/a
2016 06 24 15:00 271.5 0.0 0.00 82.4 28.0 73.56 n/a
2016 06 24 16:00 271.6 0.0 0.00 82.4 28.0 73.14 n/a
2016 06 24 17:00 271.7 0.0 0.00 82.1 27.8 72.94 n/a
2016 06 24 18:00 272.3 0.0 0.00 81.5 27.5 74.7 n/a
2016 06 24 19:00 273.9 0.0 0.00 81.9 27.7 75.49 n/a
2016 06 24 20:00 273.0 0.0 0.00 80.4 26.9 79.71 n/a
2016 06 24 21:00 272.9 0.0 0.00 79.9 26.6 74.22 n/a
2016 06 24 22:00 272.8 0.0 0.00 79.0 26.1 74.25 n/a
2016 06 24 23:00 273.2 0.0 0.00 78.8 26.0 79.79 n/a
2016 06 24 24:00 273.6 0.0 0.00 78.6 25.9 80.1 n/a
2016 06 25 1:00 273.6 0.0 0.00 77.7 25.4 82.6 n/a
2016 06 25 2:00 274.2 0.0 0.00 76.5 24.7 85.5 n/a
2016 06 25 3:00 274.7 0.0 0.00 75.4 24.1 86.9 n/a
2016 06 25 4:00 274.9 0.0 0.00 74.7 23.7 88.9 n/a
2016 06 25 5:00 274.7 0.0 0.00 74.0 23.3 89.8 n/a
2016 06 25 6:00 275.2 0.0 0.00 73.8 23.2 88.9 n/a
2016 06 25 7:00 272.7 0.0 0.00 76.4 24.7 81.6 n/a
2016 06 25 8:00 271.2 0.0 0.00 80.0 26.7 71.31 n/a
2016 06 25 9:00 270.3 0.0 0.00 82.5 28.1 65.48 n/a
2016 06 25 10:00 269.8 0.0 0.00 84.8 29.3 61.21 n/a
2016 06 25 11:00 269.6 0.0 0.00 86.3 30.1 57.99 n/a
2016 06 25 12:00 269.6 0.0 0.00 86.9 30.5 56.42 n/a
2016 06 25 13:00 269.5 0.0 0.00 88.0 31.1 53.49 n/a
2016 06 25 14:00 269.5 0.0 0.00 89.2 31.8 50.16 n/a
2016 06 25 15:00 269.5 0.0 0.00 90.0 32.2 48.36 n/a
2016 06 25 16:00 269.3 0.0 0.00 90.1 32.3 47.85 n/a
2016 06 25 17:00 269.0 0.0 0.00 89.8 32.1 48.23 n/a
2016 06 25 18:00 269.2 0.0 0.00 89.0 31.7 49.41 n/a
2016 06 25 19:00 269.5 0.0 0.00 87.8 31.0 53.9 n/a
2016 06 25 20:00 270.6 0.0 0.00 84.9 29.4 60.26 n/a
2016 06 25 21:00 271.6 0.0 0.00 82.1 27.8 66.77 n/a
2016 06 25 22:00 272.2 0.0 0.00 80.4 26.9 71.22 n/a
2016 06 25 23:00 272.5 0.0 0.00 79.0 26.1 74.73 n/a
2016 06 25 24:00 272.9 0.0 0.00 77.8 25.4 76.08 n/a
2016 06 26 1:00 272.9 0.0 0.00 77.5 25.3 74.85 n/a
2016 06 26 2:00 272.5 0.0 0.00 78.0 25.6 73.1 n/a
2016 06 26 3:00 272.9 0.0 0.00 77.5 25.3 74.63 n/a
2016 06 26 4:00 273.4 0.0 0.00 76.0 24.4 78.59 n/a
2016 06 26 5:00 274.2 0.0 0.00 74.8 23.8 82 n/a
2016 06 26 6:00 273.6 0.0 0.00 74.9 23.9 83.2 n/a
2016 06 26 7:00 272.6 0.0 0.00 77.0 25.0 80.2 n/a
2016 06 26 8:00 271.4 0.0 0.00 79.8 26.5 75.19 n/a
2016 06 26 9:00 270.3 0.0 0.00 82.1 27.8 70.44 n/a
2016 06 26 10:00 270.5 0.0 0.00 83.4 28.6 67.44 n/a
2016 06 26 11:00 269.7 0.0 0.00 85.7 29.8 64.65 n/a
2016 06 26 12:00 270.2 0.0 0.00 86.8 30.4 64.11 n/a
2016 06 26 13:00 271.0 0.0 0.00 86.8 30.5 65.74 n/a
2016 06 26 14:00 269.6 0.0 0.00 89.7 32.1 57.69 n/a
2016 06 26 15:00 270.6 0.0 0.00 83.9 28.8 64.82 n/a
2016 06 26 16:00 Wet 454.8 1.3 32.00 73.1 22.9 88.8 n/a
2016 06 26 17:00 Wet 406.6 0.2 5.33 69.9 21.1 96.6 n/a
2016 06 26 18:00 283.1 0.0 0.00 70.6 21.4 95.4 n/a
2016 06 26 19:00 Wet 302.1 0.0 0.00 70.4 21.4 95.8 n/a
2016 06 26 20:00 Wet 285.2 0.0 0.00 69.7 20.9 95 n/a
2016 06 26 21:00 Wet 301.3 0.0 0.00 69.6 20.9 95.6 n/a
2016 06 26 22:00 Wet 291.0 0.0 0.00 69.7 20.9 95.9 n/a
2016 06 26 23:00 Wet 312.5 0.0 0.00 69.8 21.0 96.5 n/a
2016 06 26 24:00 Wet 320.8 0.0 0.00 69.9 21.1 96.6 n/a
2016 06 27 1:00 Wet 303.7 0.0 0.00 69.8 21.0 96.8 n/a
2016 06 27 2:00 Wet 293.0 0.0 0.00 70.1 21.2 97 n/a
2016 06 27 3:00 Wet 306.7 0.0 0.00 70.0 21.1 97.5 n/a
2016 06 27 4:00 Wet 316.7 0.0 0.00 69.7 20.9 97.7 n/a
2016 06 27 5:00 Wet 316.3 0.0 0.25 69.3 20.8 98 n/a
2016 06 27 6:00 Wet 308.8 0.0 0.00 69.4 20.8 98.3 n/a
2016 06 27 7:00 Wet 284.9 0.0 0.00 70.1 21.1 98.2 n/a
2016 06 27 8:00 273.5 0.0 0.00 72.0 22.2 96.1 n/a
2016 06 27 9:00 270.5 0.0 0.00 77.1 25.0 80.4 n/a
2016 06 27 10:00 270.8 0.0 0.00 78.7 25.9 76.27 n/a
2016 06 27 11:00 270.3 0.0 0.00 80.8 27.1 72.4 n/a
2016 06 27 12:00 270.6 0.0 0.00 81.6 27.6 70.69 n/a
2016 06 27 13:00 270.7 0.0 0.00 83.4 28.5 67.98 n/a
2016 06 27 14:00 270.4 0.0 0.00 85.4 29.7 63.38 n/a
2016 06 27 15:00 270.5 0.0 0.00 87.2 30.7 59.22 n/a
2016 06 27 16:00 270.3 0.0 0.00 87.7 31.0 56.27 n/a
2016 06 27 17:00 269.9 0.0 0.00 88.2 31.2 54.84 n/a
2016 06 27 18:00 270.1 0.0 0.00 87.4 30.8 55.34 n/a
2016 06 27 19:00 270.2 0.0 0.00 86.3 30.1 58.89 n/a
2016 06 27 20:00 271.4 0.0 0.00 83.2 28.4 65.13 n/a
2016 06 27 21:00 273.1 0.0 0.00 79.6 26.4 74.29 n/a
2016 06 27 22:00 274.7 0.0 0.00 76.8 24.9 81.7 n/a
2016 06 27 23:00 280.0 0.0 0.00 74.9 23.8 87.3 n/a
2016 06 27 24:00 278.7 0.0 0.00 74.8 23.8 84.9 n/a
2016 06 28 1:00 274.8 0.0 0.00 74.9 23.8 80.9 n/a
2016 06 28 2:00 275.5 0.0 0.00 74.4 23.5 83.7 n/a
2016 06 28 3:00 Wet 288.3 0.0 0.00 72.6 22.5 89.8 n/a
2016 06 28 4:00 Wet 326.1 0.0 0.00 71.2 21.8 93.6 n/a
2016 06 28 5:00 Wet 391.1 0.0 0.00 70.3 21.3 95.6 n/a
2016 06 28 6:00 Wet 443.5 0.0 0.00 70.6 21.4 95 n/a
2016 06 28 7:00 Wet 296.1 0.0 0.00 75.7 24.3 82.3 n/a
2016 06 28 8:00 272.6 0.0 0.00 77.2 25.1 81.5 n/a
2016 06 28 9:00 272.3 0.0 0.00 79.1 26.2 76.68 n/a
2016 06 28 10:00 272.6 0.0 0.00 78.0 25.5 78.18 n/a
2016 06 28 11:00 271.9 0.0 0.00 76.1 24.5 71.35 n/a
2016 06 28 12:00 271.0 0.0 0.00 77.5 25.3 63.41 n/a
2016 06 28 13:00 270.4 0.0 0.00 79.4 26.3 57.8 n/a
2016 06 28 14:00 270.3 0.0 0.00 79.6 26.5 58.46 n/a
2016 06 28 15:00 270.2 0.0 0.00 82.3 27.9 55.88 n/a
2016 06 28 16:00 270.4 0.0 0.00 83.2 28.5 54.18 n/a
2016 06 28 17:00 270.2 0.0 0.00 82.7 28.2 52.66 n/a
2016 06 28 18:00 270.2 0.0 0.00 81.5 27.5 57.19 n/a
2016 06 28 19:00 270.2 0.0 0.00 80.6 27.0 55.74 n/a
2016 06 28 20:00 271.2 0.0 0.00 77.8 25.4 62.41 n/a
2016 06 28 21:00 273.9 0.0 0.00 72.3 22.4 75.44 n/a
2016 06 28 22:00 275.2 0.0 0.00 70.2 21.2 79.64 n/a
2016 06 28 23:00 274.6 0.0 0.00 70.3 21.3 76.75 n/a
2016 06 28 24:00 274.5 0.0 0.00 69.7 21.0 77.28 n/a
2016 06 29 1:00 278.2 0.0 0.00 67.6 19.8 84 n/a
2016 06 29 2:00 Wet 293.5 0.0 0.00 65.7 18.7 89.2 n/a
2016 06 29 3:00 Wet 323.1 0.0 0.00 64.5 18.1 92.1 n/a
2016 06 29 4:00 Wet 363.1 0.0 0.00 63.2 17.3 95 n/a
2016 06 29 5:00 Wet 411.8 0.0 0.00 63.1 17.3 95.5 n/a
2016 06 29 6:00 Wet 405.7 0.0 0.00 64.5 18.0 94 n/a
2016 06 29 7:00 Wet 289.4 0.0 0.00 69.4 20.8 83.9 n/a
2016 06 29 8:00 271.4 0.0 0.00 73.1 22.8 74.7 n/a
2016 06 29 9:00 270.2 0.0 0.00 76.4 24.7 63.44 n/a
2016 06 29 10:00 269.9 0.0 0.00 78.8 26.0 62.33 n/a
2016 06 29 11:00 269.6 0.0 0.00 80.9 27.2 58.81 n/a
2016 06 29 12:00 269.4 0.0 0.00 82.3 27.9 57.76 n/a
2016 06 29 13:00 269.4 0.0 0.00 83.6 28.7 55.28 n/a
2016 06 29 14:00 269.3 0.0 0.00 84.9 29.4 54.75 n/a
2016 06 29 15:00 269.6 0.0 0.00 84.7 29.3 54.82 n/a
2016 06 29 16:00 270.5 0.0 0.00 81.2 27.3 61.25 n/a
2016 06 29 17:00 Wet 303.5 0.0 0.00 78.2 25.7 68.95 n/a
2016 06 29 18:00 Wet 287.6 0.0 0.00 78.9 26.1 70.98 n/a
2016 06 29 19:00 271.0 0.0 0.00 80.1 26.7 66.19 n/a
2016 06 29 20:00 272.1 0.0 0.00 78.3 25.7 71.89 n/a
2016 06 29 21:00 273.1 0.0 0.00 75.4 24.1 77.74 n/a
2016 06 29 22:00 273.7 0.0 0.00 73.9 23.3 81.4 n/a
2016 06 29 23:00 273.9 0.0 0.00 73.0 22.8 81.4 n/a
2016 06 29 24:00 273.6 0.0 0.00 71.8 22.1 80.2 n/a
2016 06 30 1:00 273.7 0.0 0.00 70.7 21.5 80.3 n/a
2016 06 30 2:00 273.7 0.0 0.00 70.6 21.5 79.69 n/a
2016 06 30 3:00 278.3 0.0 0.00 71.4 21.9 79.83 n/a
2016 06 30 4:00 273.9 0.0 0.00 72.1 22.3 78.65 n/a
2016 06 30 5:00 273.6 0.0 0.00 72.3 22.4 77.88 n/a
2016 06 30 6:00 273.6 0.0 0.00 71.2 21.8 82.4 n/a
2016 06 30 7:00 273.5 0.0 0.00 71.6 22.0 81.7 n/a
2016 06 30 8:00 272.7 0.0 0.00 73.0 22.8 79.31 n/a
2016 06 30 9:00 270.9 0.0 0.00 78.3 25.7 66.29 n/a
2016 06 30 10:00 270.8 0.0 0.00 79.6 26.4 67.18 n/a
2016 06 30 11:00 270.0 0.0 0.00 82.5 28.1 64.44 n/a
2016 06 30 12:00 269.8 0.0 0.00 84.3 29.1 62.13 n/a
2016 06 30 13:00 270.0 0.0 0.00 85.9 29.9 60.96 n/a
2016 06 30 14:00 269.7 0.0 0.00 88.0 31.1 57.1 n/a
2016 06 30 15:00 270.0 0.0 0.00 88.0 31.1 56.88 n/a
2016 06 30 16:00 270.2 0.0 0.00 82.2 27.9 58.6 n/a
2016 06 30 17:00 280.4 0.0 0.00 80.3 26.9 63.61 n/a
2016 06 30 18:00 270.9 0.0 0.00 80.1 26.7 66.89 n/a
2016 06 30 19:00 270.8 0.0 0.00 81.2 27.3 66.08 n/a
2016 06 30 20:00 272.1 0.0 0.00 76.9 24.9 74.02 n/a
2016 06 30 21:00 274.2 0.0 0.00 73.8 23.2 81.9 n/a
2016 06 30 22:00 274.5 0.0 0.00 72.5 22.5 84.4 n/a
2016 06 30 23:00 275.3 0.0 0.00 71.0 21.7 88.5 n/a
2016 06 30 24:00 279.6 0.0 0.00 69.6 20.9 91.2 n/a
2016 07 01 1:00 Wet 297.2 0.0 0.00 69.1 20.6 91.6 n/a
2016 07 01 2:00 Wet 295.8 0.0 0.00 69.0 20.6 91.6 n/a
2016 07 01 3:00 280.2 0.0 0.00 69.1 20.6 90.3 n/a
2016 07 01 4:00 275.6 0.0 0.00 68.1 20.1 88.7 n/a
2016 07 01 5:00 275.7 0.0 0.00 67.2 19.6 89.5 n/a
2016 07 01 6:00 275.8 0.0 0.00 66.7 19.3 91.3 n/a
2016 07 01 7:00 273.0 0.0 0.00 68.7 20.4 82.7 n/a
2016 07 01 8:00 271.6 0.0 0.00 70.7 21.5 73.73 n/a
2016 07 01 9:00 270.9 0.0 0.00 72.9 22.7 66.66 n/a
2016 07 01 10:00 270.5 0.0 0.00 74.5 23.6 60.88 n/a
2016 07 01 11:00 270.2 0.0 0.00 76.3 24.6 57.4 n/a
2016 07 01 12:00 270.1 0.0 0.00 77.6 25.3 52.96 n/a
2016 07 01 13:00 270.1 0.0 0.00 78.6 25.9 52.33 n/a
2016 07 01 14:00 269.8 0.0 0.00 78.9 26.1 52.61 n/a
2016 07 01 15:00 269.9 0.0 0.00 80.0 26.6 52.45 n/a
2016 07 01 16:00 269.8 0.0 0.00 80.3 26.8 51.09 n/a
2016 07 01 17:00 269.7 0.0 0.00 79.1 26.2 52.31 n/a
2016 07 01 18:00 270.1 0.0 0.00 77.9 25.5 53.11 n/a
2016 07 01 19:00 270.2 0.0 0.00 76.5 24.7 54.78 n/a
2016 07 01 20:00 271.1 0.0 0.00 73.4 23.0 60.77 n/a
2016 07 01 21:00 271.6 0.0 0.00 71.2 21.8 64.87 n/a
2016 07 01 22:00 271.6 0.0 0.00 71.1 21.7 61.96 n/a
2016 07 01 23:00 271.6 0.0 0.00 70.7 21.5 64.03 n/a
2016 07 01 24:00 271.7 0.0 0.00 69.8 21.0 68.88 n/a
2016 07 02 1:00 Wet 291.4 0.0 0.00 68.7 20.4 76.53 n/a
2016 07 02 2:00 Wet 301.9 0.0 0.00 68.2 20.1 79.9 n/a
2016 07 02 3:00 Wet 302.1 0.0 0.00 67.4 19.7 83 n/a
2016 07 02 4:00 274.3 0.0 0.00 67.0 19.4 83.4 n/a
2016 07 02 5:00 Wet 312.4 0.0 0.25 66.4 19.1 85.1 n/a
2016 07 02 6:00 Wet 485.3 0.4 10.41 64.9 18.3 92.8 n/a
2016 07 02 7:00 Wet 507.1 0.9 22.61 64.2 17.9 96.8 n/a
2016 07 02 8:00 Wet 461.0 0.4 9.65 65.8 18.8 97.9 n/a
2016 07 02 9:00 Wet 413.0 0.1 3.30 66.3 19.1 97.8 n/a
2016 07 02 10:00 Wet 320.2 0.0 0.25 68.2 20.1 97.5 n/a
2016 07 02 11:00 Wet 331.6 0.0 1.02 69.3 20.8 94.4 n/a
2016 07 02 12:00 Wet 426.6 0.1 2.54 69.2 20.6 95.3 n/a
2016 07 02 13:00 Wet 419.6 0.1 1.78 69.3 20.7 95.3 n/a
2016 07 02 14:00 Wet 479.7 0.2 3.81 69.7 20.9 95.9 n/a
2016 07 02 15:00 Wet 474.1 0.2 5.84 69.7 21.0 96.7 n/a
2016 07 02 16:00 Wet 377.7 0.1 2.29 70.0 21.1 96.6 n/a
2016 07 02 17:00 Wet 288.6 0.0 0.00 71.0 21.6 94.3 n/a
2016 07 02 18:00 274.6 0.0 0.00 71.5 21.9 91.4 n/a
2016 07 02 19:00 Wet 332.4 0.0 0.51 70.2 21.2 93.4 n/a
2016 07 02 20:00 Wet 467.4 0.1 2.54 69.5 20.8 95.6 n/a
2016 07 02 21:00 Wet 470.7 0.1 3.05 69.3 20.7 96.5 n/a
2016 07 02 22:00 Wet 457.8 0.1 1.78 69.7 20.9 96.8 n/a
2016 07 02 23:00 Wet 424.4 0.0 1.02 69.5 20.9 97.3 n/a
2016 07 02 24:00 Wet 362.7 0.0 0.25 69.2 20.6 97.6 n/a
2016 07 03 1:00 Wet 371.7 0.0 0.25 68.3 20.2 97.8 n/a
2016 07 03 2:00 Wet 362.4 0.0 0.25 67.4 19.7 98 n/a
2016 07 03 3:00 Wet 421.5 0.0 1.02 66.3 19.0 98 n/a
2016 07 03 4:00 Wet 482.9 0.2 4.06 65.4 18.6 97.6 n/a
2016 07 03 5:00 Wet 466.7 0.2 3.81 64.9 18.3 97.6 n/a
2016 07 03 6:00 Wet 375.2 0.0 0.76 65.1 18.4 97.7 n/a
2016 07 03 7:00 Wet 288.6 0.0 0.00 65.6 18.7 97.4 n/a
2016 07 03 8:00 281.3 0.0 0.00 66.2 19.0 97.3 n/a
2016 07 03 9:00 Wet 318.9 0.0 0.00 67.0 19.4 96.5 n/a
2016 07 03 10:00 277.1 0.0 0.00 68.1 20.0 95.8 n/a
2016 07 03 11:00 274.0 0.0 0.00 70.3 21.3 92.1 n/a
2016 07 03 12:00 273.5 0.0 0.00 72.5 22.5 87.6 n/a
2016 07 03 13:00 273.0 0.0 0.00 74.8 23.8 84.7 n/a
2016 07 03 14:00 273.5 0.0 0.00 74.1 23.4 87.7 n/a
2016 07 03 15:00 272.8 0.0 0.00 76.0 24.4 82.5 n/a
2016 07 03 16:00 272.5 0.0 0.00 77.6 25.4 78.49 n/a
2016 07 03 17:00 272.5 0.0 0.00 78.3 25.7 76.4 n/a
2016 07 03 18:00 274.3 0.0 0.00 75.7 24.3 83.1 n/a
2016 07 03 19:00 274.1 0.0 0.00 73.5 23.1 88.5 n/a
2016 07 03 20:00 274.4 0.0 0.00 71.2 21.8 91 n/a
2016 07 03 21:00 275.0 0.0 0.00 69.0 20.6 93.6 n/a
2016 07 03 22:00 277.1 0.0 0.00 67.9 19.9 96.3 n/a
2016 07 03 23:00 281.9 0.0 0.00 67.5 19.7 97.8 n/a
2016 07 03 24:00 275.7 0.0 0.00 68.0 20.0 95.1 n/a
2016 07 04 1:00 275.7 0.0 0.00 67.8 19.9 94.3 n/a
2016 07 04 2:00 275.7 0.0 0.00 67.6 19.8 94.6 n/a
2016 07 04 3:00 276.2 0.0 0.00 66.9 19.4 96.1 n/a
2016 07 04 4:00 278.4 0.0 0.00 66.3 19.0 97.4 n/a
2016 07 04 5:00 282.7 0.0 0.00 65.9 18.8 98 n/a
2016 07 04 6:00 Wet 292.8 0.0 0.00 65.7 18.7 98.2 n/a
2016 07 04 7:00 275.9 0.0 0.00 65.9 18.9 97.6 n/a
2016 07 04 8:00 275.0 0.0 0.00 67.0 19.4 94 n/a
2016 07 04 9:00 274.6 0.0 0.00 67.8 19.9 92.1 n/a
2016 07 04 10:00 273.3 0.0 0.00 70.0 21.1 87.3 n/a
2016 07 04 11:00 273.0 0.0 0.00 71.3 21.8 86.4 n/a
2016 07 04 12:00 271.8 0.0 0.00 74.0 23.4 81.9 n/a
2016 07 04 13:00 272.1 0.0 0.00 75.1 24.0 80.4 n/a
2016 07 04 14:00 271.9 0.0 0.00 77.5 25.3 76.52 n/a
2016 07 04 15:00 271.6 0.0 0.00 80.3 26.9 70.9 n/a
2016 07 04 16:00 271.5 0.0 0.00 81.6 27.5 68.14 n/a
2016 07 04 17:00 271.2 0.0 0.00 82.3 27.9 67.42 n/a
2016 07 04 18:00 271.0 0.0 0.00 83.2 28.4 64.66 n/a
2016 07 04 19:00 270.9 0.0 0.00 83.5 28.6 61.63 n/a
2016 07 04 20:00 272.7 0.0 0.00 80.0 26.7 73.42 n/a
2016 07 04 21:00 274.8 0.0 0.00 76.2 24.6 83.1 n/a
2016 07 04 22:00 275.1 0.0 0.00 74.7 23.7 85.4 n/a
2016 07 04 23:00 276.1 0.0 0.00 73.5 23.1 88.8 n/a
2016 07 04 24:00 278.3 0.0 0.00 72.6 22.6 90 n/a
2016 07 05 1:00 276.5 0.0 0.00 72.3 22.4 88.9 n/a
2016 07 05 2:00 275.7 0.0 0.00 71.9 22.2 88.9 n/a
2016 07 05 3:00 276.2 0.0 0.00 71.7 22.1 89.3 n/a
2016 07 05 4:00 275.6 0.0 0.00 72.3 22.4 89.2 n/a
2016 07 05 5:00 275.8 0.0 0.00 72.5 22.5 90.9 n/a
2016 07 05 6:00 275.5 0.0 0.00 73.0 22.8 92.8 n/a
2016 07 05 7:00 273.9 0.0 0.00 75.1 23.9 91.5 n/a
2016 07 05 8:00 272.8 0.0 0.00 78.5 25.8 86.7 n/a
2016 07 05 9:00 271.9 0.0 0.00 82.1 27.8 81.2 n/a
2016 07 05 10:00 271.5 0.0 0.00 85.3 29.6 75.93 n/a
2016 07 05 11:00 271.1 0.0 0.00 87.5 30.8 72.5 n/a
2016 07 05 12:00 271.0 0.0 0.00 89.2 31.8 70.89 n/a
2016 07 05 13:00 271.1 0.0 0.00 90.1 32.3 68.28 n/a
2016 07 05 14:00 270.9 0.0 0.00 91.0 32.8 64.3 n/a
2016 07 05 15:00 271.4 0.0 0.00 91.5 33.0 63 n/a
2016 07 05 16:00 270.9 0.0 0.00 91.1 32.8 61.5 n/a
2016 07 05 17:00 270.9 0.0 0.00 90.4 32.5 62.77 n/a
2016 07 05 18:00 270.9 0.0 0.00 90.3 32.4 61.64 n/a
2016 07 05 19:00 271.5 0.0 0.00 88.1 31.2 68.04 n/a
2016 07 05 20:00 272.4 0.0 0.00 85.5 29.7 73.59 n/a
2016 07 05 21:00 273.4 0.0 0.00 82.7 28.2 79.42 n/a
2016 07 05 22:00 273.8 0.0 0.00 81.3 27.4 83.4 n/a
2016 07 05 23:00 274.2 0.0 0.00 80.8 27.1 83.9 n/a
2016 07 05 24:00 274.3 0.0 0.00 79.8 26.6 84.9 n/a
2016 07 06 1:00 274.3 0.0 0.00 78.8 26.0 86.7 n/a
2016 07 06 2:00 274.9 0.0 0.00 77.8 25.4 88.5 n/a
2016 07 06 3:00 274.7 0.0 0.00 77.8 25.5 86.9 n/a
2016 07 06 4:00 274.9 0.0 0.00 77.0 25.0 88.6 n/a
2016 07 06 5:00 274.7 0.0 0.00 77.3 25.2 87.3 n/a
2016 07 06 6:00 282.7 0.1 1.27 78.2 25.7 80.7 n/a
2016 07 06 7:00 Wet 309.4 0.0 0.51 73.3 23.0 83.7 n/a
2016 07 06 8:00 Wet 296.4 0.0 0.00 71.9 22.1 87.4 n/a
2016 07 06 9:00 277.6 0.0 0.00 73.3 22.9 85.1 n/a
2016 07 06 10:00 272.1 0.0 0.00 75.9 24.4 78.32 n/a
2016 07 06 11:00 270.8 0.0 0.00 78.3 25.7 70.62 n/a
2016 07 06 12:00 270.9 0.0 0.00 80.6 27.0 70.39 n/a
2016 07 06 13:00 271.3 0.0 0.00 83.0 28.3 70.9 n/a
2016 07 06 14:00 271.2 0.0 0.00 85.5 29.7 66.3 n/a
2016 07 06 15:00 271.5 0.0 0.00 87.3 30.7 63.18 n/a
2016 07 06 16:00 271.2 0.0 0.00 88.6 31.5 62.29 n/a
2016 07 06 17:00 270.9 0.0 0.00 88.8 31.5 62.3 n/a
2016 07 06 18:00 271.0 0.0 0.00 87.8 31.0 65.31 n/a
2016 07 06 19:00 271.4 0.0 0.00 86.6 30.3 69.3 n/a
2016 07 06 20:00 272.7 0.0 0.00 84.3 29.0 77.45 n/a
2016 07 06 21:00 273.6 0.0 0.00 82.0 27.8 82.7 n/a
2016 07 06 22:00 274.3 0.0 0.00 81.1 27.3 85.5 n/a
2016 07 06 23:00 274.3 0.0 0.00 81.3 27.4 85.7 n/a
2016 07 06 24:00 274.3 0.0 0.00 81.0 27.2 85.8 n/a
2016 07 07 1:00 274.3 0.0 0.00 80.3 26.9 85.2 n/a
2016 07 07 2:00 274.3 0.0 0.00 80.0 26.7 82.5 n/a
2016 07 07 3:00 274.3 0.0 0.00 79.1 26.2 82.1 n/a
2016 07 07 4:00 274.3 0.0 0.00 78.3 25.7 83 n/a
2016 07 07 5:00 274.3 0.0 0.00 78.1 25.6 82.5 n/a
2016 07 07 6:00 Wet 321.5 0.1 2.03 72.3 22.4 76.09 n/a
2016 07 07 7:00 Wet 421.2 0.6 13.97 66.6 19.2 96.3 n/a
2016 07 07 8:00 Wet 290.2 0.0 0.00 67.0 19.5 96.9 n/a
2016 07 07 9:00 Wet 308.1 0.0 0.76 67.8 19.9 96.6 n/a
2016 07 07 10:00 276.8 0.0 0.00 69.9 21.1 94.7 n/a
2016 07 07 11:00 273.0 0.0 0.00 73.3 22.9 86.3 n/a
2016 07 07 12:00 272.5 0.0 0.00 76.9 24.9 82.3 n/a
2016 07 07 13:00 272.2 0.0 0.00 81.0 27.2 75.53 n/a
2016 07 07 14:00 272.2 0.0 0.00 83.6 28.6 71.2 n/a
2016 07 07 15:00 272.2 0.0 0.00 85.5 29.7 69.02 n/a
2016 07 07 16:00 272.0 0.0 0.00 86.7 30.4 67.09 n/a
2016 07 07 17:00 271.7 0.0 0.00 86.9 30.5 70.11 n/a
2016 07 07 18:00 272.2 0.0 0.00 85.1 29.5 71.89 n/a
2016 07 07 19:00 272.4 0.0 0.00 84.4 29.1 73.58 n/a
2016 07 07 20:00 273.3 0.0 0.00 82.6 28.1 78.68 n/a
2016 07 07 21:00 273.6 0.0 0.00 81.8 27.7 80.8 n/a
2016 07 07 22:00 Wet 287.6 0.0 0.00 81.2 27.3 82.4 n/a
2016 07 07 23:00 Wet 299.6 0.0 0.25 79.4 26.3 87.9 n/a
2016 07 07 24:00 Wet 294.0 0.0 0.00 78.0 25.5 86.3 n/a
2016 07 08 1:00 273.6 0.0 0.00 72.6 22.6 72.32 n/a
2016 07 08 2:00 273.9 0.0 0.00 70.0 21.1 78.38 n/a
2016 07 08 3:00 274.7 0.0 0.00 68.1 20.1 83.2 n/a
2016 07 08 4:00 275.1 0.0 0.00 67.2 19.5 87.5 n/a
2016 07 08 5:00 275.0 0.0 0.00 68.1 20.1 86.1 n/a
2016 07 08 6:00 274.8 0.0 0.00 68.4 20.2 86.5 n/a
2016 07 08 7:00 274.3 0.0 0.00 70.5 21.4 82.3 n/a
2016 07 08 8:00 273.9 0.0 0.00 72.5 22.5 82.4 n/a
2016 07 08 9:00 274.0 0.0 0.00 72.9 22.7 85 n/a
2016 07 08 10:00 273.8 0.0 0.00 73.6 23.1 85.2 n/a
2016 07 08 11:00 272.2 0.0 0.00 77.0 25.0 77.18 n/a
2016 07 08 12:00 272.8 0.0 0.00 77.8 25.4 78.03 n/a
2016 07 08 13:00 272.7 0.0 0.00 78.5 25.8 78.38 n/a
2016 07 08 14:00 272.1 0.0 0.00 81.5 27.5 74.12 n/a
2016 07 08 15:00 272.2 0.0 0.00 82.7 28.1 70.68 n/a
2016 07 08 16:00 272.1 0.0 0.00 84.4 29.1 68.32 n/a
2016 07 08 17:00 271.5 0.0 0.00 86.0 30.0 65.89 n/a
2016 07 08 18:00 271.3 0.0 0.00 86.5 30.3 64.09 n/a
2016 07 08 19:00 271.6 0.0 0.00 85.8 29.9 67.39 n/a
2016 07 08 20:00 273.1 0.0 0.00 82.7 28.2 74.91 n/a
2016 07 08 21:00 274.9 0.0 0.00 79.8 26.6 83.7 n/a
2016 07 08 22:00 275.7 0.0 0.00 78.6 25.9 86.8 n/a
2016 07 08 23:00 275.8 0.0 0.00 77.8 25.4 87.5 n/a
2016 07 08 24:00 276.7 0.0 0.00 76.5 24.7 91.4 n/a
2016 07 09 1:00 Wet 284.0 0.0 0.00 75.3 24.1 92.9 n/a
2016 07 09 2:00 Wet 306.3 0.0 0.00 74.4 23.5 95.6 n/a
2016 07 09 3:00 Wet 335.4 0.0 0.00 74.2 23.4 96.3 n/a
2016 07 09 4:00 Wet 373.4 0.0 0.00 73.8 23.2 96.6 n/a
2016 07 09 5:00 Wet 394.1 0.0 0.00 73.4 23.0 96.6 n/a
2016 07 09 6:00 Wet 410.6 0.0 0.00 73.4 23.0 96.2 n/a
2016 07 09 7:00 Wet 341.2 0.0 0.00 75.0 23.9 90 n/a
2016 07 09 8:00 276.6 0.0 0.00 77.3 25.1 82.3 n/a
2016 07 09 9:00 271.1 0.0 0.00 80.1 26.7 76.6 n/a
2016 07 09 10:00 270.8 0.0 0.00 82.2 27.9 71.76 n/a
2016 07 09 11:00 270.4 0.0 0.00 84.1 29.0 66.62 n/a
2016 07 09 12:00 270.6 0.0 0.00 85.0 29.4 65.64 n/a
2016 07 09 13:00 270.3 0.0 0.00 86.7 30.4 60.58 n/a
2016 07 09 14:00 270.6 0.0 0.00 86.5 30.3 60.29 n/a
2016 07 09 15:00 271.3 0.0 0.00 85.5 29.7 64.11 n/a
2016 07 09 16:00 271.6 0.0 0.00 85.0 29.4 68.12 n/a
2016 07 09 17:00 270.5 0.0 0.00 88.0 31.1 60.46 n/a
2016 07 09 18:00 271.9 0.0 0.00 85.5 29.7 66.57 n/a
2016 07 09 19:00 271.6 0.0 0.00 85.7 29.8 66.83 n/a
2016 07 09 20:00 272.4 0.0 0.00 78.2 25.7 65.31 n/a
2016 07 09 21:00 273.2 0.0 0.00 76.0 24.4 70.54 n/a
2016 07 09 22:00 273.2 0.0 0.00 75.3 24.0 73.55 n/a
2016 07 09 23:00 273.6 0.0 0.00 74.2 23.5 80.5 n/a
2016 07 09 24:00 274.3 0.0 0.00 73.5 23.1 82.8 n/a
2016 07 10 1:00 275.0 0.0 0.00 72.5 22.5 85.8 n/a
2016 07 10 2:00 275.0 0.0 0.00 72.3 22.4 85.9 n/a
2016 07 10 3:00 275.1 0.0 0.00 72.1 22.3 85.8 n/a
2016 07 10 4:00 275.7 0.0 0.00 70.8 21.5 88.9 n/a
2016 07 10 5:00 276.0 0.0 0.00 70.2 21.2 89.6 n/a
2016 07 10 6:00 276.3 0.0 0.00 70.3 21.3 90.5 n/a
2016 07 10 7:00 273.0 0.0 0.00 73.3 22.9 85.7 n/a
2016 07 10 8:00 272.2 0.0 0.00 76.1 24.5 81.5 n/a
2016 07 10 9:00 271.6 0.0 0.00 79.5 26.4 76.09 n/a
2016 07 10 10:00 271.4 0.0 0.00 82.6 28.1 70.12 n/a
2016 07 10 11:00 271.1 0.0 0.00 84.4 29.1 68.17 n/a
2016 07 10 12:00 270.9 0.0 0.00 85.7 29.9 64.25 n/a
2016 07 10 13:00 270.9 0.0 0.00 86.8 30.4 61.68 n/a
2016 07 10 14:00 271.0 0.0 0.00 87.7 31.0 60.73 n/a
2016 07 10 15:00 271.5 0.0 0.00 88.5 31.4 59.58 n/a
2016 07 10 16:00 271.3 0.0 0.00 88.9 31.6 56.56 n/a
2016 07 10 17:00 270.9 0.0 0.00 89.0 31.7 57.34 n/a
2016 07 10 18:00 271.0 0.0 0.00 88.2 31.2 59.34 n/a
2016 07 10 19:00 271.2 0.0 0.00 87.0 30.6 62.22 n/a
2016 07 10 20:00 272.2 0.0 0.00 84.0 28.9 67.16 n/a
2016 07 10 21:00 272.9 0.0 0.00 81.4 27.4 71.8 n/a
2016 07 10 22:00 273.5 0.0 0.00 80.0 26.6 76.46 n/a
2016 07 10 23:00 273.6 0.0 0.00 79.3 26.3 78.92 n/a
2016 07 10 24:00 273.6 0.0 0.00 78.3 25.7 78.8 n/a
2016 07 11 1:00 274.2 0.0 0.00 76.7 24.8 81.7 n/a
2016 07 11 2:00 274.2 0.0 0.00 75.2 24.0 79.55 n/a
2016 07 11 3:00 273.6 0.0 0.00 74.0 23.4 78.2 n/a
2016 07 11 4:00 273.9 0.0 0.00 73.0 22.8 80.4 n/a
2016 07 11 5:00 274.3 0.0 0.00 71.9 22.2 83.2 n/a
2016 07 11 6:00 274.2 0.0 0.00 71.9 22.2 84.2 n/a
2016 07 11 7:00 272.7 0.0 0.00 73.7 23.2 81.5 n/a
2016 07 11 8:00 272.0 0.0 0.00 76.6 24.8 78.25 n/a
2016 07 11 9:00 271.6 0.0 0.00 79.7 26.5 74.62 n/a
2016 07 11 10:00 271.4 0.0 0.00 82.0 27.8 71.18 n/a
2016 07 11 11:00 271.0 0.0 0.00 84.1 29.0 68.57 n/a
2016 07 11 12:00 270.9 0.0 0.00 85.8 29.9 66.38 n/a
2016 07 11 13:00 271.1 0.0 0.00 87.0 30.5 64.84 n/a
2016 07 11 14:00 271.2 0.0 0.00 87.7 31.0 62.68 n/a
2016 07 11 15:00 271.5 0.0 0.00 88.1 31.1 61.34 n/a
2016 07 11 16:00 271.5 0.0 0.00 88.1 31.2 61.19 n/a
2016 07 11 17:00 271.2 0.0 0.00 87.4 30.8 62.91 n/a
2016 07 11 18:00 271.2 0.0 0.00 86.5 30.3 64.04 n/a
2016 07 11 19:00 271.6 0.0 0.00 85.0 29.4 67.25 n/a
2016 07 11 20:00 272.3 0.0 0.00 82.6 28.1 70.37 n/a
2016 07 11 21:00 272.9 0.0 0.00 80.9 27.2 73.89 n/a
2016 07 11 22:00 272.9 0.0 0.00 79.6 26.5 76.17 n/a
2016 07 11 23:00 273.4 0.0 0.00 78.5 25.9 77.81 n/a
2016 07 11 24:00 273.5 0.0 0.00 78.1 25.6 78.69 n/a
2016 07 12 1:00 273.6 0.0 0.00 77.6 25.3 80.1 n/a
2016 07 12 2:00 273.6 0.0 0.00 77.7 25.4 80 n/a
2016 07 12 3:00 273.6 0.0 0.00 77.3 25.1 80.9 n/a
2016 07 12 4:00 273.6 0.0 0.00 77.3 25.1 79.9 n/a
2016 07 12 5:00 277.8 0.0 1.02 77.1 25.0 80 n/a
2016 07 12 6:00 Wet 412.6 0.4 10.41 69.9 21.1 91.3 n/a
2016 07 12 7:00 Wet 380.3 0.0 1.02 65.2 18.4 93.9 n/a
2016 07 12 8:00 Wet 362.3 0.1 1.78 65.3 18.5 94.9 n/a
2016 07 12 9:00 Wet 332.0 0.0 1.02 65.9 18.8 93.4 n/a
2016 07 12 10:00 274.2 0.0 0.00 69.7 20.9 85.4 n/a
2016 07 12 11:00 272.2 0.0 0.00 73.8 23.2 76.42 n/a
2016 07 12 12:00 271.5 0.0 0.00 77.0 25.0 71.36 n/a
2016 07 12 13:00 271.6 0.0 0.00 79.4 26.4 69 n/a
2016 07 12 14:00 271.6 0.0 0.00 80.4 26.9 68.08 n/a
2016 07 12 15:00 271.6 0.0 0.00 81.7 27.6 67.07 n/a
2016 07 12 16:00 271.6 0.0 0.00 82.4 28.0 67.41 n/a
2016 07 12 17:00 271.6 0.0 0.00 81.8 27.7 67.35 n/a
2016 07 12 18:00 271.9 0.0 0.00 81.7 27.6 68.8 n/a
2016 07 12 19:00 Wet 289.8 0.0 0.00 80.5 26.9 72.82 n/a
2016 07 12 20:00 Wet 315.0 0.0 0.00 78.6 25.9 82.3 n/a
2016 07 12 21:00 280.4 0.0 0.00 78.2 25.7 80.6 n/a
2016 07 12 22:00 273.6 0.0 0.00 78.0 25.6 79.3 n/a
2016 07 12 23:00 273.6 0.0 0.00 77.9 25.5 80.3 n/a
2016 07 12 24:00 273.8 0.0 0.00 77.7 25.4 80.2 n/a
2016 07 13 1:00 274.2 0.0 0.00 76.9 25.0 80.8 n/a
2016 07 13 2:00 274.3 0.0 0.00 76.4 24.6 80.8 n/a
2016 07 13 3:00 274.1 0.0 0.00 75.9 24.4 80.5 n/a
2016 07 13 4:00 273.9 0.0 0.00 76.0 24.4 80.5 n/a
2016 07 13 5:00 274.6 0.0 0.00 76.6 24.8 78.07 n/a
2016 07 13 6:00 Wet 294.0 0.0 0.00 77.5 25.3 75.73 n/a
2016 07 13 7:00 274.2 0.0 0.00 75.6 24.2 81.9 n/a
2016 07 13 8:00 272.5 0.0 0.00 77.6 25.4 78.26 n/a
2016 07 13 9:00 271.7 0.0 0.00 81.0 27.2 74.64 n/a
2016 07 13 10:00 271.5 0.0 0.00 83.7 28.7 70.45 n/a
2016 07 13 11:00 Wet 302.4 0.0 0.51 80.7 27.0 77.31 n/a
2016 07 13 12:00 Wet 328.5 0.0 0.25 75.8 24.4 85.5 n/a
2016 07 13 13:00 277.7 0.0 0.00 72.8 22.6 81.8 n/a
2016 07 13 14:00 Wet 307.5 0.0 0.76 72.5 22.5 85.2 n/a
2016 07 13 15:00 278.8 0.0 0.00 75.0 23.9 80.9 n/a
2016 07 13 16:00 273.4 0.0 0.00 80.3 26.9 74.85 n/a
2016 07 13 17:00 272.9 0.0 0.00 82.5 28.1 74.23 n/a
2016 07 13 18:00 273.1 0.0 0.00 82.8 28.2 76.09 n/a
2016 07 13 19:00 273.5 0.0 0.00 81.1 27.3 80.7 n/a
2016 07 13 20:00 271.8 0.0 0.00 80.0 26.7 83.4 n/a
2016 07 13 21:00 267.4 0.0 0.00 78.6 25.9 87 n/a
2016 07 13 22:00 256.0 0.0 0.00 77.6 25.4 89.7 n/a
2016 07 13 23:00 252.1 0.0 0.00 76.9 24.9 91.2 n/a
2016 07 13 24:00 253.7 0.0 0.00 76.6 24.8 91.8 n/a
2016 07 14 1:00 276.5 0.0 0.00 75.1 24.0 94.6 n/a
2016 07 14 2:00 Wet 287.2 0.0 0.00 74.3 23.5 96 n/a
2016 07 14 3:00 280.9 0.0 0.00 73.9 23.3 96.3 n/a
2016 07 14 4:00 254.5 0.0 0.00 74.4 23.5 95.8 n/a
2016 07 14 5:00 271.5 0.0 0.00 73.4 23.0 88.1 n/a
2016 07 14 6:00 275.1 0.0 0.00 71.6 22.0 84.4 n/a
2016 07 14 7:00 275.1 0.0 0.00 72.3 22.4 79.99 n/a
2016 07 14 8:00 273.1 0.0 0.00 75.4 24.1 74.78 n/a
2016 07 14 9:00 272.2 0.0 0.00 79.1 26.1 72.47 n/a
2016 07 14 10:00 275.0 0.0 0.00 77.8 25.4 78.5 n/a
2016 07 14 11:00 275.6 0.0 0.00 76.4 24.7 82.2 n/a
2016 07 14 12:00 274.8 0.0 0.00 73.6 23.1 72.42 n/a
2016 07 14 13:00 273.6 0.0 0.00 72.4 22.4 69.28 n/a
2016 07 14 14:00 273.9 0.0 0.00 71.4 21.9 71.95 n/a
2016 07 14 15:00 273.5 0.0 0.00 71.4 21.9 72.59 n/a
2016 07 14 16:00 272.7 0.0 0.00 75.2 24.0 64.74 n/a
2016 07 14 17:00 272.3 0.0 0.00 76.9 24.9 61.05 n/a
2016 07 14 18:00 272.4 0.0 0.00 78.0 25.6 64.65 n/a
2016 07 14 19:00 273.0 0.0 0.00 77.6 25.3 67.63 n/a
2016 07 14 20:00 272.1 0.0 0.00 75.5 24.2 76.22 n/a
2016 07 14 21:00 267.1 0.0 0.00 71.9 22.2 85.4 n/a
2016 07 14 22:00 Wet 300.3 0.0 0.00 69.8 21.0 91.7 n/a
2016 07 14 23:00 Wet 345.0 0.0 0.00 68.2 20.1 94.6 n/a
2016 07 14 24:00 Wet 365.0 0.0 0.00 67.7 19.9 95.1 n/a
2016 07 15 1:00 Wet 385.5 0.0 0.00 67.1 19.5 95.5 n/a
2016 07 15 2:00 Wet 402.0 0.0 0.00 66.5 19.1 96.3 n/a
2016 07 15 3:00 Wet 398.2 0.0 0.00 66.3 19.0 96.6 n/a
2016 07 15 4:00 Wet 392.8 0.0 0.00 65.6 18.7 96.6 n/a
2016 07 15 5:00 Wet 387.1 0.0 0.00 65.7 18.7 96.3 n/a
2016 07 15 6:00 Wet 368.1 0.0 0.00 66.2 19.0 94 n/a
2016 07 15 7:00 Wet 349.2 0.0 0.00 66.8 19.3 94.2 n/a
2016 07 15 8:00 Wet 292.8 0.0 0.00 70.3 21.3 86.5 n/a
2016 07 15 9:00 271.9 0.0 0.00 75.3 24.1 73.54 n/a
2016 07 15 10:00 270.5 0.0 0.00 78.2 25.6 64.98 n/a
2016 07 15 11:00 270.4 0.0 0.00 80.2 26.8 65.04 n/a
2016 07 15 12:00 270.7 0.0 0.00 81.8 27.6 63.33 n/a
2016 07 15 13:00 270.6 0.0 0.00 83.9 28.8 59.67 n/a
2016 07 15 14:00 270.5 0.0 0.00 85.2 29.6 56.21 n/a
2016 07 15 15:00 270.8 0.0 0.00 85.6 29.8 54.72 n/a
2016 07 15 16:00 270.7 0.0 0.00 85.7 29.9 54.75 n/a
2016 07 15 17:00 270.0 0.0 0.00 85.9 29.9 51.91 n/a
2016 07 15 18:00 270.4 0.0 0.00 84.5 29.2 57.28 n/a
2016 07 15 19:00 272.0 0.0 0.00 80.8 27.1 71.47 n/a
2016 07 15 20:00 273.1 0.0 0.00 78.9 26.1 77.13 n/a
2016 07 15 21:00 273.9 0.0 0.00 76.9 24.9 80.9 n/a
2016 07 15 22:00 274.3 0.0 0.00 75.4 24.1 82.5 n/a
2016 07 15 23:00 274.3 0.0 0.00 74.5 23.6 82.6 n/a
2016 07 15 24:00 274.3 0.0 0.00 73.1 22.8 81.5 n/a
2016 07 16 1:00 274.3 0.0 0.00 71.8 22.1 80.2 n/a
2016 07 16 2:00 274.6 0.0 0.00 70.6 21.5 83.2 n/a
2016 07 16 3:00 275.1 0.0 0.00 69.8 21.0 86.6 n/a
2016 07 16 4:00 274.6 0.0 0.00 68.7 20.4 90.1 n/a
2016 07 16 5:00 272.6 0.0 0.00 67.9 20.0 92.5 n/a
2016 07 16 6:00 278.0 0.0 0.00 67.7 19.9 93.8 n/a
2016 07 16 7:00 274.3 0.0 0.00 70.1 21.1 89.7 n/a
2016 07 16 8:00 272.2 0.0 0.00 73.9 23.3 82.9 n/a
2016 07 16 9:00 271.9 0.0 0.00 76.1 24.5 79.82 n/a
2016 07 16 10:00 270.9 0.0 0.00 79.5 26.4 73.2 n/a
2016 07 16 11:00 270.4 0.0 0.00 82.3 28.0 66.56 n/a
2016 07 16 12:00 270.1 0.0 0.00 83.7 28.7 62.66 n/a
2016 07 16 13:00 270.0 0.0 0.00 85.1 29.5 58.85 n/a
2016 07 16 14:00 270.2 0.0 0.00 85.7 29.8 57.26 n/a
2016 07 16 15:00 270.7 0.0 0.00 85.9 29.9 56.7 n/a
2016 07 16 16:00 270.8 0.0 0.00 86.0 30.0 56.22 n/a
2016 07 16 17:00 270.4 0.0 0.00 85.9 30.0 56.94 n/a
2016 07 16 18:00 270.5 0.0 0.00 85.9 29.9 59 n/a
2016 07 16 19:00 270.9 0.0 0.00 84.8 29.3 62.9 n/a
2016 07 16 20:00 272.2 0.0 0.00 81.6 27.5 70.55 n/a
2016 07 16 21:00 272.9 0.0 0.00 79.1 26.1 75.09 n/a
2016 07 16 22:00 273.4 0.0 0.00 78.3 25.7 77.31 n/a
2016 07 16 23:00 273.6 0.0 0.00 77.7 25.4 77.52 n/a
2016 07 16 24:00 273.6 0.0 0.00 77.3 25.1 78.05 n/a
2016 07 17 1:00 273.6 0.0 0.00 76.6 24.8 80.2 n/a
2016 07 17 2:00 274.0 0.0 0.00 75.7 24.3 83.1 n/a
2016 07 17 3:00 274.3 0.0 0.00 75.2 24.0 85 n/a
2016 07 17 4:00 274.9 0.0 0.00 74.4 23.6 87.8 n/a
2016 07 17 5:00 275.5 0.0 0.00 74.2 23.4 89 n/a
2016 07 17 6:00 275.4 0.0 0.00 73.9 23.3 89.9 n/a
2016 07 17 7:00 273.4 0.0 0.00 75.7 24.3 85.8 n/a
2016 07 17 8:00 272.3 0.0 0.00 78.7 25.9 79.45 n/a
2016 07 17 9:00 271.4 0.0 0.00 81.7 27.6 72.07 n/a
2016 07 17 10:00 270.9 0.0 0.00 84.4 29.1 66.17 n/a
2016 07 17 11:00 270.5 0.0 0.00 86.5 30.3 63.19 n/a
2016 07 17 12:00 270.4 0.0 0.00 87.8 31.0 62.06 n/a
2016 07 17 13:00 270.4 0.0 0.00 89.3 31.8 59.67 n/a
2016 07 17 14:00 270.7 0.0 0.00 90.2 32.3 58.6 n/a
2016 07 17 15:00 270.9 0.0 0.00 90.8 32.7 58.72 n/a
2016 07 17 16:00 270.9 0.0 0.00 90.6 32.5 58.66 n/a
2016 07 17 17:00 270.3 0.0 0.00 90.8 32.6 56.53 n/a
2016 07 17 18:00 270.8 0.0 0.00 89.3 31.8 59.13 n/a
2016 07 17 19:00 271.2 0.0 0.00 87.2 30.7 64.56 n/a
2016 07 17 20:00 272.1 0.0 0.00 84.1 29.0 70.38 n/a
2016 07 17 21:00 272.9 0.0 0.00 82.2 27.9 72.73 n/a
2016 07 17 22:00 272.9 0.0 0.00 80.8 27.1 75.64 n/a
2016 07 17 23:00 273.8 0.0 0.00 79.4 26.4 79.27 n/a
2016 07 17 24:00 274.6 0.0 0.00 78.2 25.7 82.8 n/a
2016 07 18 1:00 275.0 0.0 0.00 77.0 25.0 85.7 n/a
2016 07 18 2:00 275.1 0.0 0.00 76.1 24.5 87.3 n/a
2016 07 18 3:00 275.6 0.0 0.00 75.5 24.2 88.3 n/a
2016 07 18 4:00 275.7 0.0 0.00 75.3 24.1 87.2 n/a
2016 07 18 5:00 275.9 0.0 0.00 74.5 23.6 88.6 n/a
2016 07 18 6:00 275.6 0.0 0.00 74.2 23.4 89.4 n/a
2016 07 18 7:00 273.5 0.0 0.00 75.8 24.3 85.6 n/a
2016 07 18 8:00 271.9 0.0 0.00 78.9 26.1 78.22 n/a
2016 07 18 9:00 270.9 0.0 0.00 81.4 27.5 72.82 n/a
2016 07 18 10:00 269.8 0.0 0.00 84.9 29.4 64.92 n/a
2016 07 18 11:00 269.7 0.0 0.00 86.3 30.1 65.88 n/a
2016 07 18 12:00 269.8 0.0 0.00 87.0 30.6 63.7 n/a
2016 07 18 13:00 270.1 0.0 0.00 87.7 30.9 61.58 n/a
2016 07 18 14:00 270.1 0.0 0.00 89.6 32.0 57.63 n/a
2016 07 18 15:00 270.2 0.0 0.00 90.3 32.4 55.39 n/a
2016 07 18 16:00 270.2 0.0 0.00 90.5 32.5 53.55 n/a
2016 07 18 17:00 269.9 0.0 0.00 90.4 32.4 54.12 n/a
2016 07 18 18:00 269.8 0.0 0.00 90.5 32.5 55.39 n/a
2016 07 18 19:00 270.4 0.0 0.00 88.6 31.5 62.78 n/a
2016 07 18 20:00 272.1 0.0 0.00 85.4 29.7 71.01 n/a
2016 07 18 21:00 273.3 0.0 0.00 83.1 28.4 76.01 n/a
2016 07 18 22:00 273.6 0.0 0.00 82.0 27.8 78.52 n/a
2016 07 18 23:00 274.0 0.0 0.00 80.9 27.2 81.4 n/a
2016 07 18 24:00 274.3 0.0 0.00 80.0 26.7 82.9 n/a
2016 07 19 1:00 274.6 0.0 0.00 79.1 26.2 83.5 n/a
2016 07 19 2:00 275.0 0.0 0.00 78.4 25.8 84.1 n/a
2016 07 19 3:00 275.6 0.0 0.00 77.2 25.1 86.7 n/a
2016 07 19 4:00 282.9 0.0 0.00 75.7 24.3 91.5 n/a
2016 07 19 5:00 Wet 287.7 0.0 0.00 75.7 24.3 90.8 n/a
2016 07 19 6:00 279.8 0.0 0.00 75.7 24.3 89.8 n/a
2016 07 19 7:00 273.1 0.0 0.00 77.8 25.4 84.6 n/a
2016 07 19 8:00 271.8 0.0 0.00 80.6 27.0 79.2 n/a
2016 07 19 9:00 271.8 0.0 0.00 82.7 28.2 76.3 n/a
2016 07 19 10:00 270.7 0.0 0.00 85.8 29.9 70.71 n/a
2016 07 19 11:00 270.6 0.0 0.00 87.4 30.8 67.75 n/a
2016 07 19 12:00 270.2 0.0 0.00 89.3 31.8 63.52 n/a
2016 07 19 13:00 270.6 0.0 0.00 89.0 31.7 62.15 n/a
2016 07 19 14:00 270.3 0.0 0.00 90.5 32.5 58.6 n/a
2016 07 19 15:00 270.6 0.0 0.00 90.5 32.5 57.65 n/a
2016 07 19 16:00 270.5 0.0 0.00 91.3 32.9 56.35 n/a
2016 07 19 17:00 270.3 0.0 0.00 90.7 32.6 58.66 n/a
2016 07 19 18:00 270.4 0.0 0.00 90.1 32.3 58.28 n/a
2016 07 19 19:00 270.6 0.0 0.00 89.4 31.9 62.44 n/a
2016 07 19 20:00 271.9 0.0 0.00 86.4 30.2 69.29 n/a
2016 07 19 21:00 272.9 0.0 0.00 84.0 28.9 71.78 n/a
2016 07 19 22:00 273.0 0.0 0.00 82.5 28.0 75.14 n/a
2016 07 19 23:00 273.7 0.0 0.00 80.5 26.9 80.5 n/a
2016 07 19 24:00 273.6 0.0 0.00 79.7 26.5 80.5 n/a
2016 07 20 1:00 274.2 0.0 0.00 78.8 26.0 82.9 n/a
2016 07 20 2:00 275.3 0.0 0.00 77.9 25.5 86.4 n/a
2016 07 20 3:00 274.7 0.0 0.00 77.2 25.1 87.7 n/a
2016 07 20 4:00 274.6 0.0 0.00 76.1 24.5 90.4 n/a
2016 07 20 5:00 276.7 0.0 0.00 76.1 24.5 90.2 n/a
2016 07 20 6:00 275.9 0.0 0.00 75.6 24.2 91.6 n/a
2016 07 20 7:00 273.4 0.0 0.00 77.6 25.3 86.5 n/a
2016 07 20 8:00 272.3 0.0 0.00 80.3 26.9 81.1 n/a
2016 07 20 9:00 271.3 0.0 0.00 83.7 28.7 73.96 n/a
2016 07 20 10:00 270.9 0.0 0.00 86.2 30.1 69.66 n/a
2016 07 20 11:00 270.5 0.0 0.00 88.5 31.4 64.95 n/a
2016 07 20 12:00 270.2 0.0 0.00 90.1 32.3 61.53 n/a
2016 07 20 13:00 270.2 0.0 0.00 91.4 33.0 56.88 n/a
2016 07 20 14:00 270.2 0.0 0.00 91.8 33.2 55.62 n/a
2016 07 20 15:00 270.2 0.0 0.00 92.4 33.5 53.71 n/a
2016 07 20 16:00 270.2 0.0 0.00 92.3 33.5 54.55 n/a
2016 07 20 17:00 270.2 0.0 0.00 91.7 33.2 55.45 n/a
2016 07 20 18:00 270.2 0.0 0.00 90.7 32.6 58.58 n/a
2016 07 20 19:00 270.7 0.0 0.00 89.1 31.7 61.82 n/a
2016 07 20 20:00 271.9 0.0 0.00 86.1 30.0 67.58 n/a
2016 07 20 21:00 272.7 0.0 0.00 83.7 28.7 72.95 n/a
2016 07 20 22:00 273.2 0.0 0.00 82.3 28.0 76.79 n/a
2016 07 20 23:00 273.6 0.0 0.00 81.2 27.4 78.69 n/a
2016 07 20 24:00 273.6 0.0 0.00 80.4 26.9 80.6 n/a
2016 07 21 1:00 274.0 0.0 0.00 79.5 26.4 82.5 n/a
2016 07 21 2:00 274.3 0.0 0.00 78.5 25.8 85.2 n/a
2016 07 21 3:00 275.3 0.0 0.00 77.3 25.2 87.8 n/a
2016 07 21 4:00 275.8 0.0 0.00 76.8 24.9 88.5 n/a
2016 07 21 5:00 276.2 0.0 0.00 76.0 24.4 90.4 n/a
2016 07 21 6:00 276.0 0.0 0.00 75.9 24.4 90.8 n/a
2016 07 21 7:00 273.1 0.0 0.00 78.4 25.8 85.7 n/a
2016 07 21 8:00 271.9 0.0 0.00 81.7 27.6 79.11 n/a
2016 07 21 9:00 271.1 0.0 0.00 85.1 29.5 69.12 n/a
2016 07 21 10:00 270.4 0.0 0.00 87.4 30.8 62.79 n/a
2016 07 21 11:00 270.1 0.0 0.00 89.5 32.0 57.38 n/a
2016 07 21 12:00 270.1 0.0 0.00 90.8 32.7 57.05 n/a
2016 07 21 13:00 270.1 0.0 0.00 91.8 33.2 55.38 n/a
2016 07 21 14:00 270.2 0.0 0.00 92.5 33.6 54.35 n/a
2016 07 21 15:00 270.2 0.0 0.00 92.6 33.6 53.18 n/a
2016 07 21 16:00 270.2 0.0 0.00 92.7 33.7 53.22 n/a
2016 07 21 17:00 270.2 0.0 0.00 92.4 33.5 54.08 n/a
2016 07 21 18:00 270.2 0.0 0.00 91.1 32.8 56.19 n/a
2016 07 21 19:00 270.5 0.0 0.00 89.3 31.8 60.43 n/a
2016 07 21 20:00 271.6 0.0 0.00 86.1 30.1 65.64 n/a
2016 07 21 21:00 272.3 0.0 0.00 83.4 28.6 72.15 n/a
2016 07 21 22:00 272.9 0.0 0.00 82.4 28.0 73.94 n/a
2016 07 21 23:00 272.9 0.0 0.00 81.2 27.3 75.08 n/a
2016 07 21 24:00 273.5 0.0 0.00 79.2 26.2 79.55 n/a
2016 07 22 1:00 273.6 0.0 0.00 78.7 26.0 80.5 n/a
2016 07 22 2:00 274.2 0.0 0.00 77.4 25.2 83.6 n/a
2016 07 22 3:00 274.3 0.0 0.00 77.1 25.1 83.9 n/a
2016 07 22 4:00 274.4 0.0 0.00 76.9 24.9 83 n/a
2016 07 22 5:00 275.0 0.0 0.00 76.0 24.4 85.7 n/a
2016 07 22 6:00 274.7 0.0 0.00 76.0 24.4 86.3 n/a
2016 07 22 7:00 272.6 0.0 0.00 77.9 25.5 82.7 n/a
2016 07 22 8:00 271.4 0.0 0.00 81.1 27.3 75.99 n/a
2016 07 22 9:00 270.6 0.0 0.00 84.9 29.4 67.64 n/a
2016 07 22 10:00 270.1 0.0 0.00 87.4 30.8 62.89 n/a
2016 07 22 11:00 270.2 0.0 0.00 88.1 31.1 64.35 n/a
2016 07 22 12:00 270.7 0.0 0.00 87.8 31.0 66.77 n/a
2016 07 22 13:00 270.9 0.0 0.00 88.1 31.2 66.58 n/a
2016 07 22 14:00 270.9 0.0 0.00 89.2 31.8 65.82 n/a
2016 07 22 15:00 271.1 0.0 0.00 90.7 32.6 63.95 n/a
2016 07 22 16:00 270.9 0.0 0.00 92.6 33.6 57.94 n/a
2016 07 22 17:00 270.2 0.0 0.00 92.9 33.8 52.27 n/a
2016 07 22 18:00 270.2 0.0 0.00 92.4 33.6 52.79 n/a
2016 07 22 19:00 270.3 0.0 0.00 91.1 32.9 57.38 n/a
2016 07 22 20:00 271.7 0.0 0.00 87.3 30.7 64.27 n/a
2016 07 22 21:00 272.2 0.0 0.00 84.9 29.4 67.7 n/a
2016 07 22 22:00 272.8 0.0 0.00 83.2 28.5 75.55 n/a
2016 07 22 23:00 273.6 0.0 0.00 82.4 28.0 78.64 n/a
2016 07 22 24:00 274.3 0.0 0.00 81.5 27.5 82.9 n/a
2016 07 23 1:00 275.4 0.0 0.00 80.5 27.0 84.8 n/a
2016 07 23 2:00 275.4 0.0 0.00 79.2 26.2 86.3 n/a
2016 07 23 3:00 275.4 0.0 0.00 78.5 25.9 84.4 n/a
2016 07 23 4:00 275.3 0.0 0.00 77.7 25.4 83.4 n/a
2016 07 23 5:00 275.0 0.0 0.00 77.4 25.2 82.3 n/a
2016 07 23 6:00 275.0 0.0 0.00 76.1 24.5 85.7 n/a
2016 07 23 7:00 272.6 0.0 0.00 78.3 25.7 81.2 n/a
2016 07 23 8:00 271.7 0.0 0.00 81.3 27.4 76.97 n/a
2016 07 23 9:00 271.0 0.0 0.00 84.9 29.4 70.35 n/a
2016 07 23 10:00 270.5 0.0 0.00 87.8 31.0 64.29 n/a
2016 07 23 11:00 269.6 0.0 0.00 90.6 32.6 56.3 n/a
2016 07 23 12:00 269.5 0.0 0.00 92.3 33.5 53.27 n/a
2016 07 23 13:00 269.5 0.0 0.00 93.3 34.1 50.97 n/a
2016 07 23 14:00 269.5 0.0 0.00 94.3 34.6 47 n/a
2016 07 23 15:00 269.5 0.0 0.00 94.9 34.9 45.75 n/a
2016 07 23 16:00 269.5 0.0 0.00 94.4 34.7 47.09 n/a
2016 07 23 17:00 269.5 0.0 0.00 93.5 34.2 47.81 n/a
2016 07 23 18:00 269.5 0.0 0.00 92.4 33.5 49.52 n/a
2016 07 23 19:00 270.1 0.0 0.00 90.3 32.4 54.93 n/a
2016 07 23 20:00 271.2 0.0 0.00 87.3 30.7 60.85 n/a
2016 07 23 21:00 271.6 0.0 0.00 85.9 29.9 64.46 n/a
2016 07 23 22:00 271.8 0.0 0.00 85.4 29.6 66.66 n/a
2016 07 23 23:00 272.2 0.0 0.00 84.6 29.2 68.01 n/a
2016 07 23 24:00 272.2 0.0 0.00 82.7 28.2 72.47 n/a
2016 07 24 1:00 272.9 0.0 0.00 81.4 27.5 75.15 n/a
2016 07 24 2:00 273.4 0.0 0.00 79.9 26.6 78.81 n/a
2016 07 24 3:00 273.6 0.0 0.00 79.3 26.3 80.5 n/a
2016 07 24 4:00 274.3 0.0 0.00 77.8 25.4 84.3 n/a
2016 07 24 5:00 274.3 0.0 0.00 78.0 25.5 83.6 n/a
2016 07 24 6:00 274.3 0.0 0.00 77.5 25.3 84.8 n/a
2016 07 24 7:00 273.9 0.0 0.00 78.0 25.6 84.9 n/a
2016 07 24 8:00 273.2 0.0 0.00 79.4 26.4 80.8 n/a
2016 07 24 9:00 272.4 0.0 0.00 81.4 27.4 75.72 n/a
2016 07 24 10:00 270.8 0.0 0.00 85.0 29.4 68.73 n/a
2016 07 24 11:00 270.0 0.0 0.00 88.9 31.6 62.32 n/a
2016 07 24 12:00 269.7 0.0 0.00 91.2 32.9 57.11 n/a
2016 07 24 13:00 269.2 0.0 0.00 93.9 34.4 51.87 n/a
2016 07 24 14:00 269.5 0.0 0.00 94.9 35.0 48.62 n/a
2016 07 24 15:00 269.5 0.0 0.00 95.7 35.4 50.73 n/a
2016 07 24 16:00 269.4 0.0 0.00 96.1 35.6 45.84 n/a
2016 07 24 17:00 268.9 0.0 0.00 96.1 35.6 49.91 n/a
2016 07 24 18:00 269.7 0.0 0.00 93.8 34.4 55.1 n/a
2016 07 24 19:00 Wet 344.1 0.2 5.84 81.1 27.3 60.03 n/a
2016 07 24 20:00 Wet 340.3 0.2 4.83 76.8 24.9 66.61 n/a
2016 07 24 21:00 272.9 0.0 0.00 74.4 23.6 79.34 n/a
2016 07 24 22:00 273.1 0.0 0.00 74.6 23.7 80.9 n/a
2016 07 24 23:00 273.2 0.0 0.00 74.0 23.4 80.1 n/a
2016 07 24 24:00 273.2 0.0 0.00 73.8 23.2 80 n/a
2016 07 25 1:00 273.9 0.0 0.00 72.0 22.2 86.8 n/a
2016 07 25 2:00 274.2 0.0 0.00 72.2 22.4 86.7 n/a
2016 07 25 3:00 276.6 0.0 0.00 73.3 22.9 85 n/a
2016 07 25 4:00 Wet 294.8 0.0 0.00 73.9 23.3 87.7 n/a
2016 07 25 5:00 Wet 306.1 0.0 0.00 72.4 22.4 89.4 n/a
2016 07 25 6:00 Wet 329.4 0.0 0.00 71.2 21.8 92.4 n/a
2016 07 25 7:00 Wet 321.0 0.0 0.25 71.6 22.0 93 n/a
2016 07 25 8:00 Wet 318.4 0.0 0.25 72.1 22.3 93.4 n/a
2016 07 25 9:00 279.9 0.0 0.00 72.1 22.3 94.9 n/a
2016 07 25 10:00 275.4 0.0 0.00 72.6 22.6 94 n/a
2016 07 25 11:00 Wet 292.6 0.0 0.00 73.7 23.2 91.7 n/a
2016 07 25 12:00 Wet 331.7 0.0 0.00 74.5 23.6 89.6 n/a
2016 07 25 13:00 Wet 294.0 0.0 0.00 76.2 24.6 85 n/a
2016 07 25 14:00 272.1 0.0 0.00 79.1 26.2 76.56 n/a
2016 07 25 15:00 272.3 0.0 0.00 79.8 26.6 76.88 n/a
2016 07 25 16:00 272.6 0.0 0.00 79.9 26.6 75.91 n/a
2016 07 25 17:00 272.9 0.0 0.00 79.3 26.3 77.39 n/a
2016 07 25 18:00 272.8 0.0 0.00 79.9 26.6 76.05 n/a
2016 07 25 19:00 273.1 0.0 0.00 79.5 26.4 78.04 n/a
2016 07 25 20:00 274.7 0.0 0.00 77.6 25.3 84.9 n/a
2016 07 25 21:00 276.1 0.0 0.00 75.9 24.4 89.2 n/a
2016 07 25 22:00 275.4 0.0 0.00 75.6 24.2 88.2 n/a
2016 07 25 23:00 275.0 0.0 0.00 75.0 23.9 87.2 n/a
2016 07 25 24:00 275.0 0.0 0.00 74.3 23.5 86.9 n/a
2016 07 26 1:00 275.6 0.0 0.00 73.4 23.0 89.1 n/a
2016 07 26 2:00 275.7 0.0 0.00 73.1 22.8 89.7 n/a
2016 07 26 3:00 276.0 0.0 0.00 72.6 22.5 91.3 n/a
2016 07 26 4:00 277.2 0.0 0.00 71.8 22.1 92.7 n/a
2016 07 26 5:00 Wet 289.4 0.0 0.00 70.9 21.6 94.5 n/a
2016 07 26 6:00 Wet 300.9 0.0 0.00 70.6 21.4 94.7 n/a
2016 07 26 7:00 273.9 0.0 0.00 73.3 22.9 85.8 n/a
2016 07 26 8:00 272.5 0.0 0.00 76.1 24.5 79.04 n/a
2016 07 26 9:00 272.2 0.0 0.00 78.1 25.6 75.44 n/a
2016 07 26 10:00 272.1 0.0 0.00 78.9 26.1 73.29 n/a
2016 07 26 11:00 271.4 0.0 0.00 80.5 27.0 68.81 n/a
2016 07 26 12:00 270.7 0.0 0.00 82.1 27.8 64.85 n/a
2016 07 26 13:00 270.4 0.0 0.00 83.7 28.7 60.05 n/a
2016 07 26 14:00 270.3 0.0 0.00 85.0 29.4 57 n/a
2016 07 26 15:00 270.8 0.0 0.00 85.7 29.9 53.75 n/a
2016 07 26 16:00 270.9 0.0 0.00 85.7 29.8 53.45 n/a
2016 07 26 17:00 270.1 0.0 0.00 85.9 29.9 53.54 n/a
2016 07 26 18:00 270.7 0.0 0.00 83.8 28.8 59.31 n/a
2016 07 26 19:00 270.9 0.0 0.00 83.1 28.4 61.7 n/a
2016 07 26 20:00 271.8 0.0 0.00 80.7 27.0 66.27 n/a
2016 07 26 21:00 272.7 0.0 0.00 78.3 25.8 71.95 n/a
2016 07 26 22:00 273.4 0.0 0.00 76.3 24.6 79.08 n/a
2016 07 26 23:00 274.6 0.0 0.00 75.0 23.9 83.7 n/a
2016 07 26 24:00 275.3 0.0 0.00 74.1 23.4 86.7 n/a
2016 07 27 1:00 275.7 0.0 0.00 73.0 22.8 89.3 n/a
2016 07 27 2:00 276.8 0.0 0.00 72.0 22.2 91.5 n/a
2016 07 27 3:00 275.9 0.0 0.00 71.4 21.9 93.6 n/a
2016 07 27 4:00 Wet 284.0 0.0 0.00 70.7 21.5 95.1 n/a
2016 07 27 5:00 Wet 292.5 0.0 0.00 70.8 21.5 96 n/a
2016 07 27 6:00 Wet 293.6 0.0 0.00 71.1 21.7 96.3 n/a
2016 07 27 7:00 275.7 0.0 0.00 73.4 23.0 93.3 n/a
2016 07 27 8:00 274.0 0.0 0.00 74.8 23.8 90.8 n/a
2016 07 27 9:00 272.6 0.0 0.00 77.5 25.3 85.5 n/a
2016 07 27 10:00 271.2 0.0 0.00 81.2 27.3 76.11 n/a
2016 07 27 11:00 270.4 0.0 0.00 83.8 28.8 69.47 n/a
2016 07 27 12:00 270.2 0.0 0.00 86.0 30.0 64.92 n/a
2016 07 27 13:00 270.1 0.0 0.00 86.6 30.4 63.69 n/a
2016 07 27 14:00 270.6 0.0 0.00 86.9 30.5 62.22 n/a
2016 07 27 15:00 270.8 0.0 0.00 88.2 31.2 60.25 n/a
2016 07 27 16:00 270.8 0.0 0.00 88.6 31.4 56.3 n/a
2016 07 27 17:00 270.3 0.0 0.00 88.8 31.6 56.64 n/a
2016 07 27 18:00 270.8 0.0 0.00 87.7 31.0 57.21 n/a
2016 07 27 19:00 271.0 0.0 0.00 85.9 29.9 59.83 n/a
2016 07 27 20:00 272.0 0.0 0.00 83.8 28.8 66.16 n/a
2016 07 27 21:00 273.4 0.0 0.00 80.4 26.9 75.86 n/a
2016 07 27 22:00 274.0 0.0 0.00 79.0 26.1 80.3 n/a
2016 07 27 23:00 275.0 0.0 0.00 77.6 25.4 83.9 n/a
2016 07 27 24:00 279.7 0.0 0.00 75.8 24.3 89.9 n/a
2016 07 28 1:00 Wet 289.1 0.0 0.00 75.5 24.1 90 n/a
2016 07 28 2:00 Wet 299.1 0.0 0.00 74.0 23.4 92.6 n/a
2016 07 28 3:00 Wet 327.4 0.0 0.00 72.7 22.6 95.9 n/a
2016 07 28 4:00 Wet 359.0 0.0 0.00 72.1 22.3 96.9 n/a
2016 07 28 5:00 Wet 398.5 0.0 0.00 71.5 22.0 97.4 n/a
2016 07 28 6:00 Wet 393.5 0.0 0.00 71.1 21.7 97.9 n/a
2016 07 28 7:00 Wet 315.1 0.0 0.00 72.9 22.7 95.9 n/a
2016 07 28 8:00 273.0 0.0 0.00 77.3 25.2 85.9 n/a
2016 07 28 9:00 271.9 0.0 0.00 81.6 27.6 75.12 n/a
2016 07 28 10:00 271.4 0.0 0.00 84.1 29.0 67.98 n/a
2016 07 28 11:00 271.3 0.0 0.00 84.9 29.4 65.94 n/a
2016 07 28 12:00 271.0 0.0 0.00 86.1 30.0 62.7 n/a
2016 07 28 13:00 271.0 0.0 0.00 86.9 30.5 56.96 n/a
2016 07 28 14:00 270.6 0.0 0.00 87.9 31.1 52.66 n/a
2016 07 28 15:00 270.4 0.0 0.00 88.3 31.3 49.08 n/a
2016 07 28 16:00 270.3 0.0 0.00 88.4 31.3 48.91 n/a
2016 07 28 17:00 269.9 0.0 0.00 88.4 31.3 48.7 n/a
2016 07 28 18:00 269.7 0.0 0.00 87.6 30.9 50.72 n/a
2016 07 28 19:00 270.2 0.0 0.00 86.3 30.1 56.28 n/a
2016 07 28 20:00 271.6 0.0 0.00 82.4 28.0 64.42 n/a
2016 07 28 21:00 272.4 0.0 0.00 80.0 26.7 69.6 n/a
2016 07 28 22:00 Wet 381.5 0.3 6.86 77.0 25.0 81 n/a
2016 07 28 23:00 Wet 438.0 0.3 6.86 68.9 20.5 90.3 n/a
2016 07 28 24:00 Wet 340.7 0.0 0.25 68.5 20.3 94.9 n/a
2016 07 29 1:00 Wet 302.2 0.0 0.00 68.2 20.1 96.2 n/a
2016 07 29 2:00 Wet 284.2 0.0 0.00 68.2 20.1 96.2 n/a
2016 07 29 3:00 Wet 301.3 0.0 0.00 67.6 19.8 95.8 n/a
2016 07 29 4:00 Wet 349.4 0.0 0.00 67.4 19.6 96.9 n/a
2016 07 29 5:00 Wet 418.4 0.0 0.00 66.8 19.3 97.5 n/a
2016 07 29 6:00 Wet 457.2 0.0 0.00 66.5 19.2 98.4 n/a
2016 07 29 7:00 Wet 414.0 0.0 0.00 67.3 19.6 98.6 n/a
2016 07 29 8:00 Wet 341.1 0.0 0.00 69.1 20.6 97.7 n/a
2016 07 29 9:00 274.7 0.0 0.00 71.4 21.9 92.1 n/a
2016 07 29 10:00 273.3 0.0 0.00 73.9 23.3 85.9 n/a
2016 07 29 11:00 273.7 0.0 0.00 73.9 23.3 86.6 n/a
2016 07 29 12:00 273.0 0.0 0.00 75.7 24.3 82.1 n/a
2016 07 29 13:00 272.3 0.0 0.00 78.5 25.8 76.26 n/a
2016 07 29 14:00 271.7 0.0 0.00 81.0 27.2 68.84 n/a
2016 07 29 15:00 271.9 0.0 0.00 81.6 27.5 64.14 n/a
2016 07 29 16:00 271.6 0.0 0.00 82.8 28.2 60.46 n/a
2016 07 29 17:00 271.0 0.0 0.00 83.8 28.8 57.58 n/a
2016 07 29 18:00 270.9 0.0 0.00 83.3 28.5 56.76 n/a
2016 07 29 19:00 271.4 0.0 0.00 81.4 27.4 61.35 n/a
2016 07 29 20:00 272.7 0.0 0.00 78.2 25.7 70.32 n/a
2016 07 29 21:00 274.2 0.0 0.00 75.1 23.9 78.77 n/a
2016 07 29 22:00 275.5 0.0 0.00 73.6 23.1 83.1 n/a
2016 07 29 23:00 278.1 0.0 0.00 72.2 22.3 87 n/a
2016 07 29 24:00 281.5 0.0 0.00 71.2 21.8 86.6 n/a
2016 07 30 1:00 275.0 0.0 0.00 71.4 21.9 79.78 n/a
2016 07 30 2:00 275.2 0.0 0.00 70.4 21.4 81.2 n/a
2016 07 30 3:00 274.7 0.0 0.00 70.0 21.1</